Provisional Data: Trout Brook near McGraw, NY


Please select a monitoring station.
Please select start date.
Please select start date.

Toggle Unit: C/F Toggle Unit: C/F
Sample Time Temperature (C) Temperature (F) Specific Conductivity (mS/cm) pH   Turbidity (NTU+) DO (mg/L)
12/4/2020 12:00:00 AM 3.12 37.616 0.138 7.25 2.53 12.89
12/4/2020 12:15:00 AM 3.13 37.634 0.138 7.25 2.51 12.89
12/4/2020 12:30:00 AM 3.14 37.652 0.138 7.26 2.58 12.88
12/4/2020 12:45:00 AM 3.13 37.634 0.138 7.25 2.53 12.88
12/4/2020 1:00:00 AM 3.13 37.634 0.138 7.26 2.55 12.87
12/4/2020 1:15:00 AM 3.13 37.634 0.138 7.25 2.57 12.87
12/4/2020 1:30:00 AM 3.14 37.652 0.138 7.25 2.54 12.87
12/4/2020 1:45:00 AM 3.14 37.652 0.138 7.25 2.49 12.86
12/4/2020 2:00:00 AM 3.15 37.67 0.138 7.25 2.47 12.86
12/4/2020 2:15:00 AM 3.16 37.688 0.138 7.25 2.53 12.86
12/4/2020 2:30:00 AM 3.17 37.706 0.138 7.25 2.48 12.85
12/4/2020 2:45:00 AM 3.19 37.742 0.138 7.26 2.5 12.85
12/4/2020 3:00:00 AM 3.2 37.76 0.138 7.25 2.49 12.85
12/4/2020 3:15:00 AM 3.22 37.796 0.139 7.26 2.52 12.84
12/4/2020 3:30:00 AM 3.24 37.832 0.139 7.26 2.5 12.83
12/4/2020 3:45:00 AM 3.25 37.85 0.139 7.26 2.49 12.82
12/4/2020 4:00:00 AM 3.27 37.886 0.139 7.29 2.53 12.82
12/4/2020 4:15:00 AM 3.29 37.922 0.139 7.27 2.5 12.81
12/4/2020 4:30:00 AM 3.31 37.958 0.139 7.27 2.51 12.8
12/4/2020 4:45:00 AM 3.33 37.994 0.139 7.28 2.47 12.8
12/4/2020 5:00:00 AM 3.35 38.03 0.139 7.28 2.44 12.78
12/4/2020 5:15:00 AM 3.36 38.048 0.139 7.3 2.46 12.78
12/4/2020 5:30:00 AM 3.38 38.084 0.139 7.3 2.42 12.77
12/4/2020 5:45:00 AM 3.4 38.12 0.139 7.27 2.46 12.76
12/4/2020 6:00:00 AM 3.41 38.138 0.139 7.26 2.49 12.76
12/4/2020 6:15:00 AM 3.42 38.156 0.139 7.27 2.54 12.75
12/4/2020 6:30:00 AM 3.44 38.192 0.139 7.26 2.56 12.75
12/4/2020 6:45:00 AM 3.46 38.228 0.139 7.26 2.51 12.74
12/4/2020 7:00:00 AM 3.47 38.246 0.137 7.27 2.46 12.74
12/4/2020 7:15:00 AM 3.49 38.282 0.139 7.28 2.59 12.73
12/4/2020 7:30:00 AM 3.49 38.282 0.139 7.28 2.59 12.74
12/4/2020 7:45:00 AM 3.51 38.318 0.139 7.3 2.55 12.77
12/4/2020 8:00:00 AM 3.52 38.336 0.139 7.31 2.74 12.8
12/4/2020 8:15:00 AM 3.55 38.39 0.139 7.35 2.85 12.87
12/4/2020 8:30:00 AM 3.57 38.426 0.139 7.37 2.92 12.91
12/4/2020 8:45:00 AM 3.62 38.516 0.139 7.39 2.97 12.97
12/4/2020 9:00:00 AM 3.65 38.57 0.139 7.41 2.92 13.04
12/4/2020 9:15:00 AM 3.68 38.624 0.139 7.44 3.01 13.11
12/4/2020 9:30:00 AM 3.71 38.678 0.139 7.45 3.07 13.13
12/4/2020 9:45:00 AM 3.74 38.732 0.139 7.48 2.98 13.18
12/4/2020 10:00:00 AM 3.78 38.804 0.139 7.5 2.95 13.2
12/4/2020 10:15:00 AM 3.82 38.876 0.138 7.52 2.87 13.24
12/4/2020 10:30:00 AM 3.86 38.948 0.138 7.6 2.88 13.31
12/4/2020 10:45:00 AM 3.92 39.056 0.138 7.61 2.93 13.38
12/4/2020 11:00:00 AM 3.96 39.128 0.138 7.62 2.96 13.37
12/4/2020 11:15:00 AM 3.99 39.182 0.138 7.61 3.36 13.35
12/4/2020 11:30:00 AM 4.03 39.254 0.138 7.64 3.17 13.37
12/4/2020 11:45:00 AM 4.07 39.326 0.138 7.67 2.91 13.37
12/4/2020 12:00:00 PM 4.11 39.398 0.138 7.69 2.94 13.38
12/4/2020 12:15:00 PM 4.16 39.488 0.138 7.72 2.85 13.41
12/4/2020 12:30:00 PM 4.21 39.578 0.138 7.71 2.86 13.4
12/4/2020 12:45:00 PM 4.25 39.65 0.138 7.75 2.88 13.41
12/4/2020 1:00:00 PM 4.28 39.704 0.138 7.73 2.86 13.36
12/4/2020 1:15:00 PM 4.32 39.776 0.138 7.73 2.91 13.31
12/4/2020 1:30:00 PM 4.35 39.83 0.138 7.69 2.85 13.25
12/4/2020 1:45:00 PM 4.36 39.848 0.138 7.66 2.82 13.21
12/4/2020 2:00:00 PM 4.39 39.902 0.138 7.67 2.99 13.21
12/4/2020 2:15:00 PM 4.41 39.938 0.138 7.64 3.23 13.16
12/4/2020 2:30:00 PM 4.42 39.956 0.138 7.6 3.51 13.06
12/4/2020 2:45:00 PM 4.43 39.974 0.139 7.56 4.04 12.97
12/4/2020 3:00:00 PM 4.45 40.01 0.139 7.54 3.98 12.96
12/4/2020 3:15:00 PM 4.46 40.028 0.139 7.53 3.91 12.91
12/4/2020 3:30:00 PM 4.47 40.046 0.139 7.5 3.88 12.85
12/4/2020 3:45:00 PM 4.47 40.046 0.139 7.46 3.64 12.76
12/4/2020 4:00:00 PM 4.47 40.046 0.139 7.43 3.34 12.66
12/4/2020 4:15:00 PM 4.47 40.046 0.139 7.4 3.26 12.58
12/4/2020 4:30:00 PM 4.46 40.028 0.139 7.36 3.34 12.52
12/4/2020 4:45:00 PM 4.46 40.028 0.139 7.33 3.22 12.45
12/4/2020 5:00:00 PM 4.45 40.01 0.139 7.33 3.14 12.42
12/4/2020 5:15:00 PM 4.44 39.992 0.139 7.3 3.14 12.4
12/4/2020 5:30:00 PM 4.44 39.992 0.139 7.32 3.07 12.39
12/4/2020 5:45:00 PM 4.43 39.974 0.139 7.31 3.12 12.38
12/4/2020 6:00:00 PM 4.43 39.974 0.139 7.29 3.1 12.38
12/4/2020 6:15:00 PM 4.43 39.974 0.139 7.29 3.09 12.37
12/4/2020 6:30:00 PM 4.43 39.974 0.139 7.29 3.14 12.37
12/4/2020 6:45:00 PM 4.43 39.974 0.139 7.29 3.07 12.37
12/4/2020 7:00:00 PM 4.42 39.956 0.139 7.29 3.06 12.36
12/4/2020 7:15:00 PM 4.42 39.956 0.139 7.29 3.08 12.37
12/4/2020 7:30:00 PM 4.42 39.956 0.139 7.27 3.08 12.36
12/4/2020 7:45:00 PM 4.42 39.956 0.139 7.28 3.08 12.36
12/4/2020 8:00:00 PM 4.41 39.938 0.138 7.28 3.12 12.36
12/4/2020 8:15:00 PM 4.42 39.956 0.138 7.28 3.15 12.36
12/4/2020 8:30:00 PM 4.42 39.956 0.138 7.27 3.2 12.36
12/4/2020 8:45:00 PM 4.42 39.956 0.138 7.28 3.16 12.36
12/4/2020 9:00:00 PM 4.41 39.938 0.138 7.28 3.12 12.36
12/4/2020 9:15:00 PM 4.41 39.938 0.138 7.28 3.15 12.36
12/4/2020 9:30:00 PM 4.42 39.956 0.138 7.28 3.33 12.37
12/4/2020 9:45:00 PM 4.42 39.956 0.138 7.28 3.13 12.36
12/4/2020 10:00:00 PM 4.42 39.956 0.138 7.28 3.14 12.37
12/4/2020 10:15:00 PM 4.42 39.956 0.138 7.27 3.1 12.37
12/4/2020 10:30:00 PM 4.43 39.974 0.138 7.28 3.14 12.37
12/4/2020 10:45:00 PM 4.43 39.974 0.138 7.27 3.1 12.37
12/4/2020 11:00:00 PM 4.43 39.974 0.138 7.25 3.11 12.36
12/4/2020 11:15:00 PM 4.43 39.974 0.138 7.28 3.15 12.37
12/4/2020 11:30:00 PM 4.43 39.974 0.138 7.27 3.14 12.37
12/4/2020 11:45:00 PM 4.42 39.956 0.138 7.27 3.03 12.36
12/5/2020 12:00:00 AM 4.4 39.92 0.138 7.26 3.06 12.36
12/5/2020 12:15:00 AM 4.37 39.866 0.138 7.25 3.1 12.37
12/5/2020 12:30:00 AM 4.36 39.848 0.138 7.27 3.12 12.36
12/5/2020 12:45:00 AM 4.35 39.83 0.138 7.27 3.02 12.37
12/5/2020 1:00:00 AM 4.33 39.794 0.138 7.26 3.08 12.37
12/5/2020 1:15:00 AM 4.33 39.794 0.138 7.27 3.01 12.38
12/5/2020 1:30:00 AM 4.32 39.776 0.138 7.26 3.09 12.39
12/5/2020 1:45:00 AM 4.32 39.776 0.138 7.27 3.01 12.38
12/5/2020 2:00:00 AM 4.32 39.776 0.138 7.27 3.08 12.38
12/5/2020 2:15:00 AM 4.31 39.758 0.137 7.27 2.96 12.39
12/5/2020 2:30:00 AM 4.31 39.758 0.137 7.27 3.06 12.38
12/5/2020 2:45:00 AM 4.31 39.758 0.138 7.28 2.94 12.38
12/5/2020 3:00:00 AM 4.31 39.758 0.138 7.27 2.98 12.38
12/5/2020 3:15:00 AM 4.31 39.758 0.138 7.27 3.02 12.38
12/5/2020 3:30:00 AM 4.31 39.758 0.138 7.28 3.04 12.38
12/5/2020 3:45:00 AM 4.32 39.776 0.137 7.28 3.05 12.37
12/5/2020 4:00:00 AM 4.32 39.776 0.137 7.27 3.01 12.38
12/5/2020 4:15:00 AM 4.33 39.794 0.138 7.29 3.09 12.37
12/5/2020 4:30:00 AM 4.33 39.794 0.138 7.29 3.08 12.37
12/5/2020 4:45:00 AM 4.33 39.794 0.137 7.28 3.2 12.37
12/5/2020 5:00:00 AM 4.33 39.794 0.138 7.28 3.19 12.36
12/5/2020 5:15:00 AM 4.33 39.794 0.138 7.28 3.12 12.36
12/5/2020 5:30:00 AM 4.33 39.794 0.138 7.29 2.97 12.37
12/5/2020 5:45:00 AM 4.33 39.794 0.138 7.3 3 12.36
12/5/2020 6:00:00 AM 4.33 39.794 0.138 7.29 3.03 12.37
12/5/2020 6:15:00 AM 4.33 39.794 0.138 7.3 3.14 12.37
12/5/2020 6:30:00 AM 4.33 39.794 0.138 7.3 3.09 12.37
12/5/2020 6:45:00 AM 4.33 39.794 0.138 7.29 2.99 12.37
12/5/2020 7:00:00 AM 4.34 39.812 0.138 7.3 2.95 12.37
12/5/2020 7:15:00 AM 4.34 39.812 0.138 7.3 3.03 12.36
12/5/2020 7:30:00 AM 4.35 39.83 0.138 7.3 2.95 12.37
12/5/2020 7:45:00 AM 4.35 39.83 0.138 7.3 2.97 12.39
12/5/2020 8:00:00 AM 4.35 39.83 0.138 7.31 2.97 12.41
12/5/2020 8:15:00 AM 4.35 39.83 0.138 7.31 3.05 12.43
12/5/2020 8:30:00 AM 4.36 39.848 0.138 7.34 3.02 12.5
12/5/2020 8:45:00 AM 4.37 39.866 0.138 7.35 2.92 12.57
12/5/2020 9:00:00 AM 4.37 39.866 0.138 7.36 2.89 12.58
12/5/2020 9:15:00 AM 4.37 39.866 0.138 7.38 2.92 12.65
12/5/2020 9:30:00 AM 4.38 39.884 0.138 7.39 2.98 12.67
12/5/2020 9:45:00 AM 4.39 39.902 0.138 7.42 3.01 12.77
12/5/2020 10:00:00 AM 4.39 39.902 0.137 7.44 3.11 12.82
12/5/2020 10:15:00 AM 4.41 39.938 0.138 7.49 2.99 12.91
12/5/2020 10:30:00 AM 4.44 39.992 0.137 7.55 3.05 13.08
12/5/2020 10:45:00 AM 4.45 40.01 0.137 7.58 2.95 13.13
12/5/2020 11:00:00 AM 4.47 40.046 0.137 7.67 2.91 13.28
12/5/2020 11:15:00 AM 4.51 40.118 0.137 7.76 2.99 13.37
12/5/2020 11:30:00 AM 4.54 40.172 0.137 7.8 2.97 13.4
12/5/2020 11:45:00 AM 4.57 40.226 0.137 7.83 2.94 13.4
12/5/2020 12:00:00 PM 4.58 40.244 0.137 7.77 2.96 13.26
12/5/2020 12:15:00 PM 4.6 40.28 0.137 7.75 2.96 13.21
12/5/2020 12:30:00 PM 4.63 40.334 0.137 7.79 2.93 13.26
12/5/2020 12:45:00 PM 4.7 40.46 0.137 7.89 2.93 13.37
12/5/2020 1:00:00 PM 4.77 40.586 0.137 7.95 2.94 13.42
12/5/2020 1:15:00 PM 4.78 40.604 0.137 7.93 2.9 13.37
12/5/2020 1:30:00 PM 4.75 40.55 0.137 7.83 2.91 13.24
12/5/2020 1:45:00 PM 4.75 40.55 0.137 7.78 2.93 13.14
12/5/2020 2:00:00 PM 4.72 40.496 0.137 7.69 2.98 13.02
12/5/2020 2:15:00 PM 4.71 40.478 0.137 7.66 2.88 12.95
12/5/2020 2:30:00 PM 4.68 40.424 0.137 7.6 2.9 12.87
12/5/2020 2:45:00 PM 4.63 40.334 0.137 7.53 2.88 12.77
12/5/2020 3:00:00 PM 4.58 40.244 0.137 7.48 2.97 12.7
12/5/2020 3:15:00 PM 4.55 40.19 0.137 7.46 2.98 12.67
12/5/2020 3:30:00 PM 4.52 40.136 0.138 7.42 2.89 12.6
12/5/2020 3:45:00 PM 4.49 40.082 0.138 7.4 2.79 12.55
12/5/2020 4:00:00 PM 4.45 40.01 0.138 7.38 2.82 12.52
12/5/2020 4:15:00 PM 4.42 39.956 0.138 7.36 2.81 12.47
12/5/2020 4:30:00 PM 4.39 39.902 0.138 7.33 2.8 12.45
12/5/2020 4:45:00 PM 4.36 39.848 0.138 7.34 2.78 12.43
12/5/2020 5:00:00 PM 4.33 39.794 0.139 7.32 2.73 12.41
12/5/2020 5:15:00 PM 4.22 39.596 0.138 7.3 2.86 12.4
12/5/2020 5:30:00 PM 4.15 39.47 0.138 7.31 2.79 12.41
12/5/2020 5:45:00 PM 4.14 39.452 0.138 7.29 2.81 12.43
12/5/2020 6:00:00 PM 4.08 39.344 0.138 7.29 2.93 12.44
12/5/2020 6:15:00 PM 4.06 39.308 0.139 7.29 3.05 12.46
12/5/2020 6:30:00 PM 4.04 39.272 0.139 7.3 3.01 12.47
12/5/2020 6:45:00 PM 4.03 39.254 0.139 7.31 3.02 12.48
12/5/2020 7:00:00 PM 4 39.2 0.139 7.3 2.94 12.49
12/5/2020 7:15:00 PM 4 39.2 0.139 7.31 2.92 12.49
12/5/2020 7:30:00 PM 3.98 39.164 0.139 7.3 2.94 12.5
12/5/2020 7:45:00 PM 3.96 39.128 0.139 7.31 2.94 12.51
12/5/2020 8:00:00 PM 3.95 39.11 0.139 7.31 2.94 12.51
12/5/2020 8:15:00 PM 3.94 39.092 0.139 7.31 2.97 12.52
12/5/2020 8:30:00 PM 3.93 39.074 0.139 7.31 3.01 12.52
12/5/2020 8:45:00 PM 3.92 39.056 0.139 7.31 2.96 12.52
12/5/2020 9:00:00 PM 3.9 39.02 0.139 7.31 2.94 12.52
12/5/2020 9:15:00 PM 3.88 38.984 0.139 7.28 3.1 12.52
12/5/2020 9:30:00 PM 3.87 38.966 0.139 7.31 3.01 12.52
12/5/2020 9:45:00 PM 3.86 38.948 0.139 7.31 2.93 12.52
12/5/2020 10:00:00 PM 3.85 38.93 0.139 7.29 2.98 12.53
12/5/2020 10:15:00 PM 3.84 38.912 0.139 7.3 2.97 12.53
12/5/2020 10:30:00 PM 3.8 38.84 0.139 7.3 3.01 12.54
12/5/2020 10:45:00 PM 3.77 38.786 0.139 7.31 3.04 12.55
12/5/2020 11:00:00 PM 3.73 38.714 0.139 7.27 4.27 12.57
12/5/2020 11:15:00 PM 3.66 38.588 0.139 7.29 3.98 12.59
12/5/2020 11:30:00 PM 3.6 38.48 0.139 7.29 3.79 12.6
12/5/2020 11:45:00 PM 3.57 38.426 0.139 7.29 4.16 12.61
12/6/2020 12:00:00 AM 3.54 38.372 0.139 7.3 4.2 12.63
12/6/2020 12:15:00 AM 3.54 38.372 0.139 7.3 4.12 12.64
12/6/2020 12:30:00 AM 3.5 38.3 0.139 7.3 4.16 12.64
12/6/2020 12:45:00 AM 3.45 38.21 0.139 7.3 4.18 12.66
12/6/2020 1:00:00 AM 3.39 38.102 0.139 7.3 4.26 12.68
12/6/2020 1:15:00 AM 3.31 37.958 0.139 7.29 4.24 12.7
12/6/2020 1:30:00 AM 3.29 37.922 0.139 7.3 4.27 12.71
12/6/2020 1:45:00 AM 3.25 37.85 0.14 7.3 4.32 12.73
12/6/2020 2:00:00 AM 3.23 37.814 0.14 7.3 4.32 12.75
12/6/2020 2:15:00 AM 3.2 37.76 0.14 7.31 4.36 12.75
12/6/2020 2:30:00 AM 3.17 37.706 0.14 7.31 4.37 12.76
12/6/2020 2:45:00 AM 3.12 37.616 0.14 7.3 4.63 12.78
12/6/2020 3:00:00 AM 3.1 37.58 0.14 7.3 4.69 12.78
12/6/2020 3:15:00 AM 3.05 37.49 0.14 7.31 4.65 12.8
12/6/2020 3:30:00 AM 3.01 37.418 0.14 7.29 4.71 12.82
12/6/2020 3:45:00 AM 2.95 37.31 0.14 7.3 4.61 12.84
12/6/2020 4:00:00 AM 2.9 37.22 0.14 7.29 4.54 12.85
12/6/2020 4:15:00 AM 2.88 37.184 0.14 7.31 4.72 12.87
12/6/2020 4:30:00 AM 2.86 37.148 0.14 7.3 4.5 12.87
12/6/2020 4:45:00 AM 2.84 37.112 0.141 7.3 4.28 12.88
12/6/2020 5:00:00 AM 2.8 37.04 0.141 7.3 4.46 12.9
12/6/2020 5:15:00 AM 2.79 37.022 0.141 7.29 4.5 12.92
12/6/2020 5:30:00 AM 2.78 37.004 0.141 7.3 4.99 12.92
12/6/2020 5:45:00 AM 2.76 36.968 0.141 7.3 4.61 12.92
12/6/2020 6:00:00 AM 2.74 36.932 0.141 7.3 4.58 12.94
12/6/2020 6:15:00 AM 2.73 36.914 0.141 7.3 4.5 12.93
12/6/2020 6:30:00 AM 2.7 36.86 0.141 7.3 4.56 12.96
12/6/2020 6:45:00 AM 2.69 36.842 0.141 7.31 4.61 12.97
12/6/2020 7:00:00 AM 2.68 36.824 0.141 7.31 4.48 12.97
12/6/2020 7:15:00 AM 2.66 36.788 0.141 7.3 4.55 12.99
12/6/2020 7:30:00 AM 2.61 36.698 0.141 7.31 4.39 13.01
12/6/2020 7:45:00 AM 2.59 36.662 0.141 7.32 4.37 13.07
12/6/2020 8:00:00 AM 2.56 36.608 0.141 7.34 4.43 13.16
12/6/2020 8:15:00 AM 2.56 36.608 0.141 7.37 4.36 13.28
12/6/2020 8:30:00 AM 2.55 36.59 0.141 7.4 4.4 13.43
12/6/2020 8:45:00 AM 2.57 36.626 0.141 7.48 4.32 13.63
12/6/2020 9:00:00 AM 2.58 36.644 0.141 7.54 4.29 13.76
12/6/2020 9:15:00 AM 2.61 36.698 0.141 7.61 4.35 13.87
12/6/2020 9:30:00 AM 2.64 36.752 0.141 7.67 4.46 13.96
12/6/2020 9:45:00 AM 2.64 36.752 0.14 7.67 4.23 13.93
12/6/2020 10:00:00 AM 2.66 36.788 0.14 7.69 4.36 13.94
12/6/2020 10:15:00 AM 2.68 36.824 0.142 7.74 4.25 14
12/6/2020 10:30:00 AM 2.73 36.914 0.142 7.8 4.11 14.05
12/6/2020 10:45:00 AM 2.75 36.95 0.141 7.86 4.79 14.11
12/6/2020 11:00:00 AM 2.8 37.04 0.142 7.92 5.38 14.14
12/6/2020 11:15:00 AM 2.81 37.058 0.142 7.92 3.55 14.14
12/6/2020 11:30:00 AM 2.81 37.058 0.142 7.95 3.88 14.13
12/6/2020 11:45:00 AM 2.82 37.076 0.142 7.95 4.71 14.14
12/6/2020 12:00:00 PM 2.83 37.094 0.141 7.99 893.47 14.15
12/6/2020 12:15:00 PM 2.88 37.184 0.142 8.02 3.73 14.15
12/6/2020 12:30:00 PM 2.87 37.166 0.142 7.98 3.7 14.08
12/6/2020 12:45:00 PM 2.88 37.184 0.142 7.98 3.38 14.07
12/6/2020 1:00:00 PM 2.9 37.22 0.142 7.98 4.66 14.06
12/6/2020 1:15:00 PM 2.89 37.202 0.142 7.92 2.92 14.01
12/6/2020 1:30:00 PM 2.85 37.13 0.142 7.9 2.91 14
12/6/2020 1:45:00 PM 2.87 37.166 0.141 7.91 2.9 14.02
12/6/2020 2:00:00 PM 2.87 37.166 0.141 7.88 2.9 13.98
12/6/2020 2:15:00 PM 2.9 37.22 0.141 7.93 2.81 14.04
12/6/2020 2:30:00 PM 2.89 37.202 0.141 7.93 2.76 14.05
12/6/2020 2:45:00 PM 2.87 37.166 0.141 7.85 2.83 13.91
12/6/2020 3:00:00 PM 2.85 37.13 0.141 7.73 2.82 13.76
12/6/2020 3:15:00 PM 2.83 37.094 0.141 7.67 2.82 13.66
12/6/2020 3:30:00 PM 2.82 37.076 0.141 7.62 2.81 13.59
12/6/2020 3:45:00 PM 2.79 37.022 0.141 7.6 2.74 13.58
12/6/2020 4:00:00 PM 2.76 36.968 0.141 7.54 2.76 13.5
12/6/2020 4:15:00 PM 2.74 36.932 0.141 7.49 2.83 13.42
12/6/2020 4:30:00 PM 2.71 36.878 0.141 7.45 2.84 13.31
12/6/2020 4:45:00 PM 2.69 36.842 0.142 7.4 2.78 13.22
12/6/2020 5:00:00 PM 2.66 36.788 0.141 7.37 2.78 13.15
12/6/2020 5:15:00 PM 2.64 36.752 0.142 7.35 2.7 13.09
12/6/2020 5:30:00 PM 2.61 36.698 0.142 7.33 2.69 13.07
12/6/2020 5:45:00 PM 2.58 36.644 0.142 7.33 2.76 13.06
12/6/2020 6:00:00 PM 2.57 36.626 0.142 7.31 2.78 13.05
12/6/2020 6:15:00 PM 2.54 36.572 0.142 7.31 2.82 13.05
12/6/2020 6:30:00 PM 2.52 36.536 0.142 7.31 2.68 13.05
12/6/2020 6:45:00 PM 2.5 36.5 0.143 7.3 2.72 13.05
12/6/2020 7:00:00 PM 2.48 36.464 0.143 7.31 2.74 13.06
12/6/2020 7:15:00 PM 2.46 36.428 0.143 7.3 2.84 13.06
12/6/2020 7:30:00 PM 2.45 36.41 0.143 7.29 2.82 13.06
12/6/2020 7:45:00 PM 2.43 36.374 0.143 7.29 2.79 13.06
12/6/2020 8:00:00 PM 2.41 36.338 0.143 7.3 2.8 13.07
12/6/2020 8:15:00 PM 2.4 36.32 0.143 7.29 2.79 13.07
12/6/2020 8:30:00 PM 2.41 36.338 0.143 7.29 2.81 13.07
12/6/2020 8:45:00 PM 2.4 36.32 0.144 7.3 2.78 13.07
12/6/2020 9:00:00 PM 2.39 36.302 0.144 7.29 2.78 13.07
12/6/2020 9:15:00 PM 2.38 36.284 0.143 7.29 2.88 13.07
12/6/2020 9:30:00 PM 2.39 36.302 0.144 7.29 3 13.07
12/6/2020 9:45:00 PM 2.39 36.302 0.144 7.29 3.02 13.07
12/6/2020 10:00:00 PM 2.39 36.302 0.144 7.3 2.93 13.07
12/6/2020 10:15:00 PM 2.39 36.302 0.143 7.3 2.93 13.06
12/6/2020 10:30:00 PM 2.4 36.32 0.144 7.3 2.99 13.06
12/6/2020 10:45:00 PM 2.4 36.32 0.144 7.31 2.93 13.06
12/6/2020 11:00:00 PM 2.4 36.32 0.144 7.3 3.03 13.06
12/6/2020 11:15:00 PM 2.39 36.302 0.144 7.29 3 13.07
12/6/2020 11:30:00 PM 2.39 36.302 0.144 7.3 2.93 13.07
12/6/2020 11:45:00 PM 2.38 36.284 0.144 7.29 3 13.07
12/7/2020 12:00:00 AM 2.37 36.266 0.144 7.3 3.02 13.08
12/7/2020 12:15:00 AM 2.36 36.248 0.144 7.3 2.99 13.07
12/7/2020 12:30:00 AM 2.36 36.248 0.144 7.3 2.93 13.07
12/7/2020 12:45:00 AM 2.36 36.248 0.144 7.3 2.93 13.07
12/7/2020 1:00:00 AM 2.35 36.23 0.144 7.29 2.9 13.07
12/7/2020 1:15:00 AM 2.35 36.23 0.144 7.3 2.94 13.07
12/7/2020 1:30:00 AM 2.34 36.212 0.144 7.29 2.91 13.07
12/7/2020 1:45:00 AM 2.33 36.194 0.144 7.27 2.93 13.07
12/7/2020 2:00:00 AM 2.33 36.194 0.144 7.31 2.94 13.07
12/7/2020 2:15:00 AM 2.33 36.194 0.145 7.31 2.91 13.07
12/7/2020 2:30:00 AM 2.31 36.158 0.144 7.31 2.94 13.07
12/7/2020 2:45:00 AM 2.31 36.158 0.145 7.29 2.43 13.08
12/7/2020 3:00:00 AM 2.3 36.14 0.145 7.29 2.48 13.08
12/7/2020 3:15:00 AM 2.25 36.05 0.145 7.28 2.48 13.08
12/7/2020 3:30:00 AM 2.23 36.014 0.145 7.29 2.47 13.09
12/7/2020 3:45:00 AM 2.23 36.014 0.145 7.29 2.41 13.09
12/7/2020 4:00:00 AM 2.22 35.996 0.145 7.29 2.44 13.1
12/7/2020 4:15:00 AM 2.2 35.96 0.145 7.29 2.53 13.11
12/7/2020 4:30:00 AM 2.19 35.942 0.145 7.29 2.48 13.11
12/7/2020 4:45:00 AM 2.19 35.942 0.145 7.29 2.47 13.11
12/7/2020 5:00:00 AM 2.17 35.906 0.145 7.29 2.46 13.12
12/7/2020 5:15:00 AM 2.16 35.888 0.145 7.29 2.51 13.12
12/7/2020 5:30:00 AM 2.15 35.87 0.145 7.28 2.46 13.12
12/7/2020 5:45:00 AM 2.13 35.834 0.145 7.27 2.42 13.13
12/7/2020 6:00:00 AM 2.13 35.834 0.145 7.27 2.44 13.14
12/7/2020 6:15:00 AM 2.12 35.816 0.145 7.29 2.44 13.14
12/7/2020 6:30:00 AM 2.11 35.798 0.145 7.29 2.42 13.15
12/7/2020 6:45:00 AM 2.1 35.78 0.145 7.29 2.45 13.15
12/7/2020 7:00:00 AM 2.11 35.798 0.145 7.28 2.48 13.14
12/7/2020 7:15:00 AM 2.1 35.78 0.146 7.29 2.5 13.15
12/7/2020 7:30:00 AM 2.07 35.726 0.145 7.3 2.4 13.2
12/7/2020 7:45:00 AM 2.07 35.726 0.146 7.31 2.42 13.26
12/7/2020 8:00:00 AM 2.07 35.726 0.145 7.34 2.43 13.36
12/7/2020 8:15:00 AM 2.06 35.708 0.145 7.38 2.4 13.51
12/7/2020 8:30:00 AM 2.08 35.744 0.145 7.43 2.39 13.67
12/7/2020 8:45:00 AM 2.09 35.762 0.145 7.48 2.38 13.83
12/7/2020 9:00:00 AM 2.11 35.798 0.145 7.56 2.37 13.98
12/7/2020 9:15:00 AM 2.14 35.852 0.145 7.64 2.34 14.13
12/7/2020 9:30:00 AM 2.19 35.942 0.145 7.73 2.39 14.23
12/7/2020 9:45:00 AM 2.25 36.05 0.145 7.82 2.39 14.31
12/7/2020 10:00:00 AM 2.23 36.014 0.144 7.82 2.36 14.28
12/7/2020 10:15:00 AM 2.26 36.068 0.145 7.86 2.43 14.3
12/7/2020 10:30:00 AM 2.33 36.194 0.144 7.92 2.41 14.34
12/7/2020 10:45:00 AM 2.43 36.374 0.144 7.99 2.45 14.39
12/7/2020 11:00:00 AM 2.5 36.5 0.144 8.02 2.35 14.38
12/7/2020 11:15:00 AM 2.57 36.626 0.144 8.05 2.39 14.36
12/7/2020 11:30:00 AM 2.6 36.68 0.144 8.06 2.36 14.35
12/7/2020 11:45:00 AM 2.64 36.752 0.144 8.08 2.4 14.32
12/7/2020 12:00:00 PM 2.68 36.824 0.144 8.09 2.39 14.31
12/7/2020 12:15:00 PM 2.71 36.878 0.144 8.1 2.4 14.28
12/7/2020 12:30:00 PM 2.74 36.932 0.144 8.11 2.38 14.26
12/7/2020 12:45:00 PM 2.77 36.986 0.144 8.12 2.38 14.26
12/7/2020 1:00:00 PM 2.8 37.04 0.144 8.13 2.37 14.23
12/7/2020 1:15:00 PM 2.84 37.112 0.144 8.13 2.37 14.22
12/7/2020 1:30:00 PM 2.87 37.166 0.144 8.15 2.45 14.21
12/7/2020 1:45:00 PM 2.87 37.166 0.145 8.13 2.4 14.18
12/7/2020 2:00:00 PM 2.86 37.148 0.144 8.1 2.42 14.14
12/7/2020 2:15:00 PM 2.85 37.13 0.145 8.07 2.37 14.09
12/7/2020 2:30:00 PM 2.85 37.13 0.145 8.05 2.39 14.06
12/7/2020 2:45:00 PM 2.82 37.076 0.145 8 2.39 13.99
12/7/2020 3:00:00 PM 2.79 37.022 0.145 7.92 2.38 13.92
12/7/2020 3:15:00 PM 2.76 36.968 0.145 7.84 2.41 13.83
12/7/2020 3:30:00 PM 2.73 36.914 0.145 7.77 2.4 13.75
12/7/2020 3:45:00 PM 2.7 36.86 0.145 7.7 2.41 13.65
12/7/2020 4:00:00 PM 2.67 36.806 0.146 7.6 2.41 13.53
12/7/2020 4:15:00 PM 2.63 36.734 0.146 7.53 2.33 13.39
12/7/2020 4:30:00 PM 2.59 36.662 0.146 7.46 2.32 13.27
12/7/2020 4:45:00 PM 2.54 36.572 0.146 7.43 2.25 13.19
12/7/2020 5:00:00 PM 2.5 36.5 0.146 7.39 2.25 13.12
12/7/2020 5:15:00 PM 2.47 36.446 0.147 7.37 2.31 13.08
12/7/2020 5:30:00 PM 2.42 36.356 0.147 7.35 2.27 13.07
12/7/2020 5:45:00 PM 2.39 36.302 0.147 7.34 2.29 13.06
12/7/2020 6:00:00 PM 2.36 36.248 0.147 7.32 2.26 13.06
12/7/2020 6:15:00 PM 2.33 36.194 0.147 7.32 2.3 13.06
12/7/2020 6:30:00 PM 2.3 36.14 0.147 7.31 2.3 13.06
12/7/2020 6:45:00 PM 2.26 36.068 0.147 7.31 2.34 13.07
12/7/2020 7:00:00 PM 2.24 36.032 0.148 7.3 2.3 13.07
12/7/2020 7:15:00 PM 2.22 35.996 0.147 7.31 2.34 13.08
12/7/2020 7:30:00 PM 2.19 35.942 0.147 7.31 2.29 13.09
12/7/2020 7:45:00 PM 2.17 35.906 0.148 7.3 2.29 13.1
12/7/2020 8:00:00 PM 2.16 35.888 0.148 7.3 2.25 13.1
12/7/2020 8:15:00 PM 2.15 35.87 0.147 7.3 2.32 13.1
12/7/2020 8:30:00 PM 2.12 35.816 0.148 7.3 2.32 13.11
12/7/2020 8:45:00 PM 2.11 35.798 0.147 7.3 2.29 13.11
12/7/2020 9:00:00 PM 2.08 35.744 0.147 7.31 2.27 13.12
12/7/2020 9:15:00 PM 2.08 35.744 0.148 7.3 2.3 13.13
12/7/2020 9:30:00 PM 2.06 35.708 0.147 7.3 2.31 13.13
12/7/2020 9:45:00 PM 2.06 35.708 0.148 7.3 2.34 13.14
12/7/2020 10:00:00 PM 2.03 35.654 0.148 7.3 2.35 13.14
12/7/2020 10:15:00 PM 2 35.6 0.148 7.29 2.32 13.14
12/7/2020 10:30:00 PM 1.96 35.528 0.148 7.29 2.4 13.14
12/7/2020 10:45:00 PM 1.92 35.456 0.147 7.29 2.4 13.17
12/7/2020 11:00:00 PM 1.95 35.51 0.148 7.3 2.35 13.16
12/7/2020 11:15:00 PM 1.94 35.492 0.148 7.29 2.34 13.18
12/7/2020 11:30:00 PM 1.95 35.51 0.148 7.3 2.3 13.17
12/7/2020 11:45:00 PM 1.95 35.51 0.148 7.3 2.35 13.18
12/8/2020 12:00:00 AM 1.94 35.492 0.148 7.29 2.31 13.19
12/8/2020 12:15:00 AM 1.91 35.438 0.148 7.29 2.37 13.19
12/8/2020 12:30:00 AM 1.89 35.402 0.148 7.29 2.3 13.2
12/8/2020 12:45:00 AM 1.88 35.384 0.148 7.28 2.33 13.2
12/8/2020 1:00:00 AM 1.84 35.312 0.148 7.3 2.39 13.21
12/8/2020 1:15:00 AM 1.84 35.312 0.148 7.29 2.39 13.21
12/8/2020 1:30:00 AM 1.8 35.24 0.148 7.3 2.37 13.24
12/8/2020 1:45:00 AM 1.79 35.222 0.148 7.29 2.43 13.23
12/8/2020 2:00:00 AM 1.77 35.186 0.148 7.29 2.36 13.24
12/8/2020 2:15:00 AM 1.74 35.132 0.148 7.29 2.42 13.26
12/8/2020 2:30:00 AM 1.74 35.132 0.148 7.29 2.39 13.25
12/8/2020 2:45:00 AM 1.73 35.114 0.148 7.3 2.34 13.25
12/8/2020 3:00:00 AM 1.72 35.096 0.149 7.29 2.43 13.26
12/8/2020 3:15:00 AM 1.7 35.06 0.149 7.29 2.39 13.27
12/8/2020 3:30:00 AM 1.7 35.06 0.149 7.3 2.46 13.26
12/8/2020 3:45:00 AM 1.7 35.06 0.149 7.29 2.43 13.27
12/8/2020 4:00:00 AM 1.69 35.042 0.149 7.3 2.37 13.27
12/8/2020 4:15:00 AM 1.67 35.006 0.149 7.29 2.33 13.28
12/8/2020 4:30:00 AM 1.67 35.006 0.149 7.29 2.37 13.27
12/8/2020 4:45:00 AM 1.66 34.988 0.149 7.3 2.41 13.29
12/8/2020 5:00:00 AM 1.65 34.97 0.149 7.3 2.41 13.29
12/8/2020 5:15:00 AM 1.63 34.934 0.149 7.29 2.46 13.3
12/8/2020 5:30:00 AM 1.65 34.97 0.149 7.29 2.37 13.28
12/8/2020 5:45:00 AM 1.64 34.952 0.149 7.29 2.37 13.29
12/8/2020 6:00:00 AM 1.63 34.934 0.149 7.29 2.48 13.3
12/8/2020 6:15:00 AM 1.6 34.88 0.149 7.29 2.5 13.31
12/8/2020 6:30:00 AM 1.59 34.862 0.149 7.29 2.47 13.31
12/8/2020 6:45:00 AM 1.58 34.844 0.149 7.3 2.37 13.32
12/8/2020 7:00:00 AM 1.58 34.844 0.149 7.3 2.36 13.31
12/8/2020 7:15:00 AM 1.55 34.79 0.149 7.29 2.38 13.34
12/8/2020 7:30:00 AM 1.53 34.754 0.149 7.3 2.39 13.37
12/8/2020 7:45:00 AM 1.53 34.754 0.15 7.31 2.36 13.41
12/8/2020 8:00:00 AM 1.51 34.718 0.15 7.33 2.38 13.49
12/8/2020 8:15:00 AM 1.49 34.682 0.15 7.35 2.38 13.59
12/8/2020 8:30:00 AM 1.49 34.682 0.151 7.39 2.37 13.74
12/8/2020 8:45:00 AM 1.5 34.7 0.15 7.46 2.28 13.95
12/8/2020 9:00:00 AM 1.5 34.7 0.15 7.53 2.38 14.15
12/8/2020 9:15:00 AM 1.52 34.736 0.15 7.61 2.37 14.31
12/8/2020 9:30:00 AM 1.56 34.808 0.149 7.72 2.34 14.45
12/8/2020 9:45:00 AM 1.62 34.916 0.15 7.78 2.31 14.52
12/8/2020 10:00:00 AM 1.65 34.97 0.149 7.83 2.33 14.58
12/8/2020 10:15:00 AM 1.73 35.114 0.15 7.9 2.39 14.59
12/8/2020 10:30:00 AM 1.78 35.204 0.15 7.94 2.32 14.6
12/8/2020 10:45:00 AM 1.84 35.312 0.15 7.99 2.46 14.6
12/8/2020 11:00:00 AM 1.88 35.384 0.151 8.01 2.41 14.61
12/8/2020 11:15:00 AM 1.96 35.528 0.151 8.05 2.37 14.6
12/8/2020 11:30:00 AM 2.01 35.618 0.149 8.09 2.43 14.61
12/8/2020 11:45:00 AM 2.07 35.726 0.149 8.1 2.33 14.59
12/8/2020 12:00:00 PM 2.13 35.834 0.148 8.13 2.31 14.58
12/8/2020 12:15:00 PM 2.17 35.906 0.149 8.12 2.36 14.54
12/8/2020 12:30:00 PM 2.2 35.96 0.148 8.13 2.33 14.52
12/8/2020 12:45:00 PM 2.27 36.086 0.149 8.15 2.29 14.49
12/8/2020 1:00:00 PM 2.3 36.14 0.149 8.15 2.32 14.47
12/8/2020 1:15:00 PM 2.35 36.23 0.149 8.17 2.28 14.49
12/8/2020 1:30:00 PM 2.38 36.284 0.149 8.19 2.29 14.49
12/8/2020 1:45:00 PM 2.4 36.32 0.149 8.19 2.3 14.47
12/8/2020 2:00:00 PM 2.38 36.284 0.149 8.16 2.28 14.41
12/8/2020 2:15:00 PM 2.33 36.194 0.149 8.11 2.3 14.34
12/8/2020 2:30:00 PM 2.34 36.212 0.149 8.08 2.26 14.28
12/8/2020 2:45:00 PM 2.3 36.14 0.149 8.03 2.25 14.27
12/8/2020 3:00:00 PM 2.26 36.068 0.149 7.99 2.35 14.23
12/8/2020 3:15:00 PM 2.21 35.978 0.149 7.94 2.26 14.18
12/8/2020 3:30:00 PM 2.16 35.888 0.149 7.86 2.24 14.1
12/8/2020 3:45:00 PM 2.1 35.78 0.149 7.78 2.23 14.01
12/8/2020 4:00:00 PM 2.05 35.69 0.15 7.69 2.24 13.9
12/8/2020 4:15:00 PM 2 35.6 0.15 7.61 2.26 13.78
12/8/2020 4:30:00 PM 1.95 35.51 0.15 7.51 2.23 13.63
12/8/2020 4:45:00 PM 1.89 35.402 0.151 7.46 2.24 13.53
12/8/2020 5:00:00 PM 1.82 35.276 0.151 7.41 2.19 13.46
12/8/2020 5:15:00 PM 1.78 35.204 0.151 7.37 2.27 13.38
12/8/2020 5:30:00 PM 1.71 35.078 0.152 7.36 2.24 13.37
12/8/2020 5:45:00 PM 1.65 34.97 0.152 7.34 2.19 13.35
12/8/2020 6:00:00 PM 1.59 34.862 0.152 7.33 2.22 13.35
12/8/2020 6:15:00 PM 1.52 34.736 0.152 7.32 2.25 13.36
12/8/2020 6:30:00 PM 1.48 34.664 0.152 7.31 2.28 13.38
12/8/2020 6:45:00 PM 1.41 34.538 0.152 7.31 2.21 13.39
12/8/2020 7:00:00 PM 1.36 34.448 0.152 7.3 2.22 13.4
12/8/2020 7:15:00 PM 1.31 34.358 0.153 7.28 2.32 13.42
12/8/2020 7:30:00 PM 1.24 34.232 0.153 7.3 2.27 13.44
12/8/2020 7:45:00 PM 1.18 34.124 0.153 7.29 2.33 13.47
12/8/2020 8:00:00 PM 1.13 34.034 0.153 7.29 2.26 13.47
12/8/2020 8:15:00 PM 1.05 33.89 0.153 7.28 2.3 13.52
12/8/2020 8:30:00 PM 1.02 33.836 0.153 7.28 2.28 13.54
12/8/2020 8:45:00 PM 1 33.8 0.153 7.3 2.31 13.55
12/8/2020 9:00:00 PM 0.94 33.692 0.153 7.3 2.32 13.59
12/8/2020 9:15:00 PM 0.92 33.656 0.154 7.28 2.3 13.59
12/8/2020 9:30:00 PM 0.91 33.638 0.154 7.28 2.3 13.58
12/8/2020 9:45:00 PM 0.91 33.638 0.153 7.28 2.33 13.59
12/8/2020 10:00:00 PM 0.89 33.602 0.154 7.28 2.31 13.61
12/8/2020 10:15:00 PM 0.87 33.566 0.153 7.3 2.34 13.61
12/8/2020 10:30:00 PM 0.91 33.638 0.154 7.3 2.25 13.6
12/8/2020 10:45:00 PM 0.88 33.584 0.153 7.3 2.22 13.61
12/8/2020 11:00:00 PM 0.9 33.62 0.154 7.3 2.24 13.6
12/8/2020 11:15:00 PM 0.95 33.71 0.154 7.31 2.25 13.6
12/8/2020 11:30:00 PM 0.98 33.764 0.154 7.31 2.34 13.58
12/8/2020 11:45:00 PM 1 33.8 0.154 7.31 2.38 13.58
12/9/2020 12:00:00 AM 1.03 33.854 0.154 7.31 2.42 13.57
12/9/2020 12:15:00 AM 1.06 33.908 0.154 7.31 2.38 13.54
12/9/2020 12:30:00 AM 1.09 33.962 0.154 7.37 2.42 13.53
12/9/2020 12:45:00 AM 1.12 34.016 0.154 7.33 2.36 13.52
12/9/2020 1:00:00 AM 1.15 34.07 0.154 7.34 2.41 13.51
12/9/2020 1:15:00 AM 1.18 34.124 0.154 7.34 2.38 13.48
12/9/2020 1:30:00 AM 1.23 34.214 0.154 7.33 2.37 13.46
12/9/2020 1:45:00 AM 1.24 34.232 0.154 7.33 2.3 13.45
12/9/2020 2:00:00 AM 1.26 34.268 0.154 7.33 2.34 13.44
12/9/2020 2:15:00 AM 1.29 34.322 0.154 7.33 2.39 13.44
12/9/2020 2:30:00 AM 1.31 34.358 0.154 7.33 2.34 13.42
12/9/2020 2:45:00 AM 1.34 34.412 0.154 7.32 2.36 13.4
12/9/2020 3:00:00 AM 1.36 34.448 0.154 7.33 2.35 13.39
12/9/2020 3:15:00 AM 1.4 34.52 0.155 7.33 2.41 13.38
12/9/2020 3:30:00 AM 1.41 34.538 0.154 7.34 2.37 13.38
12/9/2020 3:45:00 AM 1.43 34.574 0.154 7.33 2.44 13.36
12/9/2020 4:00:00 AM 1.46 34.628 0.154 7.33 2.27 13.34
12/9/2020 4:15:00 AM 1.48 34.664 0.154 7.34 2.32 13.32
12/9/2020 4:30:00 AM 1.52 34.736 0.155 7.33 2.34 13.32
12/9/2020 4:45:00 AM 1.55 34.79 0.155 7.33 2.36 13.31
12/9/2020 5:00:00 AM 1.54 34.772 0.154 7.35 2.32 13.3
12/9/2020 5:15:00 AM 1.54 34.772 0.154 7.33 2.28 13.3
12/9/2020 5:30:00 AM 1.57 34.826 0.154 7.33 2.33 13.29
12/9/2020 5:45:00 AM 1.58 34.844 0.154 7.33 2.32 13.27
12/9/2020 6:00:00 AM 1.59 34.862 0.154 7.33 2.38 13.28
12/9/2020 6:15:00 AM 1.6 34.88 0.154 7.33 2.27 13.27
12/9/2020 6:30:00 AM 1.64 34.952 0.155 7.32 2.33 13.26
12/9/2020 6:45:00 AM 1.64 34.952 0.155 7.33 2.37 13.25
12/9/2020 7:00:00 AM 1.64 34.952 0.155 7.33 2.35 13.25
12/9/2020 7:15:00 AM 1.65 34.97 0.154 7.33 2.36 13.25
12/9/2020 7:30:00 AM 1.65 34.97 0.155 7.33 2.31 13.25
12/9/2020 7:45:00 AM 1.59 34.862 0.154 7.33 2.31 13.3
12/9/2020 8:00:00 AM 1.58 34.844 0.154 7.35 2.34 13.36
12/9/2020 8:15:00 AM 1.51 34.718 0.154 7.35 2.34 13.49
12/9/2020 8:30:00 AM 1.5 34.7 0.154 7.4 2.31 13.59
12/9/2020 8:45:00 AM 1.5 34.7 0.154 7.44 2.31 13.75
12/9/2020 9:00:00 AM 1.49 34.682 0.153 7.45 2.35 13.88
12/9/2020 9:15:00 AM 1.51 34.718 0.153 7.54 2.36 14.02
12/9/2020 9:30:00 AM 1.58 34.844 0.153 7.62 2.32 14.15
12/9/2020 9:45:00 AM 1.61 34.898 0.153 7.68 2.27 14.27
12/9/2020 10:00:00 AM 1.65 34.97 0.153 7.75 2.32 14.36
12/9/2020 10:15:00 AM 1.69 35.042 0.152 7.82 2.33 14.43
12/9/2020 10:30:00 AM 1.72 35.096 0.152 7.84 2.3 14.42
12/9/2020 10:45:00 AM 1.74 35.132 0.152 7.88 2.3 14.42
12/9/2020 11:00:00 AM 1.77 35.186 0.152 7.92 2.3 14.45
12/9/2020 11:15:00 AM 1.81 35.258 0.151 7.97 2.38 14.49
12/9/2020 11:30:00 AM 1.85 35.33 0.151 7.99 2.35 14.49
12/9/2020 11:45:00 AM 1.9 35.42 0.151 8 2.32 14.47
12/9/2020 12:00:00 PM 1.92 35.456 0.151 8.01 2.24 14.43
12/9/2020 12:15:00 PM 1.94 35.492 0.151 8.01 2.31 14.4
12/9/2020 12:30:00 PM 1.99 35.582 0.151 8.02 2.28 14.39
12/9/2020 12:45:00 PM 2.05 35.69 0.152 8.04 2.31 14.38
12/9/2020 1:00:00 PM 2.07 35.726 0.152 8.02 2.29 14.34
12/9/2020 1:15:00 PM 2.1 35.78 0.152 8.01 2.32 14.28
12/9/2020 1:30:00 PM 2.12 35.816 0.153 7.98 2.43 14.23
12/9/2020 1:45:00 PM 2.15 35.87 0.152 7.96 2.38 14.19
12/9/2020 2:00:00 PM 2.18 35.924 0.152 7.9 2.36 14.09
12/9/2020 2:15:00 PM 2.21 35.978 0.152 7.83 2.3 13.99
12/9/2020 2:30:00 PM 2.22 35.996 0.153 7.8 2.28 13.94
12/9/2020 2:45:00 PM 2.25 36.05 0.154 7.75 2.32 13.86
12/9/2020 3:00:00 PM 2.25 36.05 0.155 7.69 2.24 13.77
12/9/2020 3:15:00 PM 2.27 36.086 0.155 7.63 2.27 13.67
12/9/2020 3:30:00 PM 2.28 36.104 0.155 7.6 2.21 13.56
12/9/2020 3:45:00 PM 2.3 36.14 0.155 7.52 2.27 13.44
12/9/2020 4:00:00 PM 2.31 36.158 0.155 7.49 2.2 13.35
12/9/2020 4:15:00 PM 2.31 36.158 0.155 7.47 2.22 13.26
12/9/2020 4:30:00 PM 2.31 36.158 0.155 7.44 2.25 13.19
12/9/2020 4:45:00 PM 2.31 36.158 0.156 7.39 2.24 13.13
12/9/2020 5:00:00 PM 2.28 36.104 0.156 7.38 2.22 13.1
12/9/2020 5:15:00 PM 2.26 36.068 0.156 7.37 2.21 13.06
12/9/2020 5:30:00 PM 2.24 36.032 0.155 7.36 2.23 13.05
12/9/2020 5:45:00 PM 2.26 36.068 0.156 7.34 2.25 13.02
12/9/2020 6:00:00 PM 2.22 35.996 0.154 7.35 2.23 13.03
12/9/2020 6:15:00 PM 2.23 36.014 0.155 7.35 2.19 13.03
12/9/2020 6:30:00 PM 2.22 35.996 0.154 7.34 2.23 13.03
12/9/2020 6:45:00 PM 2.21 35.978 0.154 7.34 2.25 13.03
12/9/2020 7:00:00 PM 2.18 35.924 0.154 7.33 2.13 13.02
12/9/2020 7:15:00 PM 2.17 35.906 0.154 7.33 2.24 13.03
12/9/2020 7:30:00 PM 2.21 35.978 0.154 7.34 2.27 13.03
12/9/2020 7:45:00 PM 2.24 36.032 0.154 7.34 2.18 13.03
12/9/2020 8:00:00 PM 2.24 36.032 0.154 7.34 2.27 13.04
12/9/2020 8:15:00 PM 2.26 36.068 0.154 7.34 2.29 13.03
12/9/2020 8:30:00 PM 2.29 36.122 0.155 7.34 2.21 13.02
12/9/2020 8:45:00 PM 2.3 36.14 0.155 7.34 2.23 13.02
12/9/2020 9:00:00 PM 2.34 36.212 0.157 7.34 2.22 13
12/9/2020 9:15:00 PM 2.35 36.23 0.158 7.34 2.3 13.01
12/9/2020 9:30:00 PM 2.37 36.266 0.158 7.32 2.24 12.98
12/9/2020 9:45:00 PM 2.39 36.302 0.158 7.34 2.27 12.99
12/9/2020 10:00:00 PM 2.4 36.32 0.157 7.35 2.27 12.99
12/9/2020 10:15:00 PM 2.42 36.356 0.158 7.34 2.31 12.97
12/9/2020 10:30:00 PM 2.44 36.392 0.16 7.34 2.33 12.98
12/9/2020 10:45:00 PM 2.46 36.428 0.161 7.35 2.28 12.97
12/9/2020 11:00:00 PM 2.48 36.464 0.161 7.34 2.26 12.96
12/9/2020 11:15:00 PM 2.51 36.518 0.161 7.34 2.29 12.96
12/9/2020 11:30:00 PM 2.51 36.518 0.16 7.33 2.23 12.95
12/9/2020 11:45:00 PM 2.53 36.554 0.16 7.34 2.29 12.95
12/10/2020 12:00:00 AM 2.56 36.608 0.16 7.35 2.28 12.94
12/10/2020 12:15:00 AM 2.56 36.608 0.159 7.34 2.3 12.94
12/10/2020 12:30:00 AM 2.58 36.644 0.159 7.34 2.3 12.93
12/10/2020 12:45:00 AM 2.6 36.68 0.159 7.34 2.29 12.93
12/10/2020 1:00:00 AM 2.6 36.68 0.159 7.34 2.31 12.93
12/10/2020 1:15:00 AM 2.61 36.698 0.159 7.34 2.29 12.93
12/10/2020 1:30:00 AM 2.62 36.716 0.159 7.33 2.34 12.92
12/10/2020 1:45:00 AM 2.65 36.77 0.159 7.33 2.3 12.92
12/10/2020 2:00:00 AM 2.65 36.77 0.159 7.32 2.28 12.92
12/10/2020 2:15:00 AM 2.66 36.788 0.159 7.33 2.31 12.92
12/10/2020 2:30:00 AM 2.67 36.806 0.159 7.33 2.31 12.92
12/10/2020 2:45:00 AM 2.67 36.806 0.158 7.33 2.27 12.93
12/10/2020 3:00:00 AM 2.69 36.842 0.158 7.34 2.37 12.92
12/10/2020 3:15:00 AM 2.7 36.86 0.158 7.34 2.35 12.91
12/10/2020 3:30:00 AM 2.73 36.914 0.158 7.32 2.31 12.9
12/10/2020 3:45:00 AM 2.73 36.914 0.158 7.34 2.36 12.91
12/10/2020 4:00:00 AM 2.74 36.932 0.158 7.32 2.3 12.9
12/10/2020 4:15:00 AM 2.75 36.95 0.158 7.33 2.32 12.9
12/10/2020 4:30:00 AM 2.75 36.95 0.158 7.32 2.27 12.91
12/10/2020 4:45:00 AM 2.76 36.968 0.158 7.33 2.26 12.91
12/10/2020 5:00:00 AM 2.77 36.986 0.158 7.33 2.32 12.91
12/10/2020 5:15:00 AM 2.77 36.986 0.158 7.33 2.31 12.9
12/10/2020 5:30:00 AM 2.78 37.004 0.158 7.34 2.36 12.9
12/10/2020 5:45:00 AM 2.78 37.004 0.158 7.33 2.27 12.91
12/10/2020 6:00:00 AM 2.78 37.004 0.157 7.33 2.35 12.92
12/10/2020 6:15:00 AM 2.81 37.058 0.158 7.33 2.34 12.89
12/10/2020 6:30:00 AM 2.82 37.076 0.158 7.31 2.44 12.9
12/10/2020 6:45:00 AM 2.84 37.112 0.158 7.33 2.42 12.9
12/10/2020 7:00:00 AM 2.83 37.094 0.157 7.33 2.41 12.9
12/10/2020 7:15:00 AM 2.85 37.13 0.158 7.33 2.39 12.9
12/10/2020 7:30:00 AM 2.86 37.148 0.158 7.33 2.36 12.92
12/10/2020 7:45:00 AM 2.86 37.148 0.158 7.34 2.31 13
12/10/2020 8:00:00 AM 2.87 37.166 0.158 7.33 2.3 13.03
12/10/2020 8:15:00 AM 2.85 37.13 0.157 7.37 2.34 13.12
12/10/2020 8:30:00 AM 2.88 37.184 0.157 7.43 2.28 13.31
12/10/2020 8:45:00 AM 2.93 37.274 0.157 7.49 2.35 13.52
12/10/2020 9:00:00 AM 2.98 37.364 0.157 7.59 2.32 13.74
12/10/2020 9:15:00 AM 3.01 37.418 0.157 7.66 2.28 13.86
12/10/2020 9:30:00 AM 3.09 37.562 0.159 7.77 2.33 14.03
12/10/2020 9:45:00 AM 3.13 37.634 0.159 7.83 2.36 14.08
12/10/2020 10:00:00 AM 3.22 37.796 0.159 7.94 2.38 14.19
12/10/2020 10:15:00 AM 3.29 37.922 0.158 8.05 2.42 14.28
12/10/2020 10:30:00 AM 3.37 38.066 0.158 8.12 2.37 14.32
12/10/2020 10:45:00 AM 3.43 38.174 0.158 8.19 2.44 14.35
12/10/2020 11:00:00 AM 3.5 38.3 0.158 8.21 2.44 14.31
12/10/2020 11:15:00 AM 3.58 38.444 0.158 8.27 2.42 14.3
12/10/2020 11:30:00 AM 3.64 38.552 0.158 8.29 2.41 14.28
12/10/2020 11:45:00 AM 3.7 38.66 0.158 8.3 2.36 14.26
12/10/2020 12:00:00 PM 3.79 38.822 0.158 8.35 2.46 14.27
12/10/2020 12:15:00 PM 3.86 38.948 0.158 8.37 2.47 14.24
12/10/2020 12:30:00 PM 3.9 39.02 0.158 8.36 2.39 14.22
12/10/2020 12:45:00 PM 3.97 39.146 0.157 8.4 2.5 14.21
12/10/2020 1:00:00 PM 4.05 39.29 0.157 8.41 2.62 14.2
12/10/2020 1:15:00 PM 4.06 39.308 0.157 8.4 2.64 14.15
12/10/2020 1:30:00 PM 4.08 39.344 0.157 8.37 2.54 14.08
12/10/2020 1:45:00 PM 4.11 39.398 0.157 8.38 2.58 14.06
12/10/2020 2:00:00 PM 4.13 39.434 0.157 8.37 2.52 14.02
12/10/2020 2:15:00 PM 4.14 39.452 0.158 8.34 2.47 13.96
12/10/2020 2:30:00 PM 4.14 39.452 0.158 8.29 2.44 13.9
12/10/2020 2:45:00 PM 4.12 39.416 0.159 8.24 2.43 13.82
12/10/2020 3:00:00 PM 4.12 39.416 0.158 8.17 2.37 13.75
12/10/2020 3:15:00 PM 4.09 39.362 0.158 8.08 2.4 13.68
12/10/2020 3:30:00 PM 4.09 39.362 0.159 8.02 2.39 13.6
12/10/2020 3:45:00 PM 4.07 39.326 0.158 7.9 2.4 13.46
12/10/2020 4:00:00 PM 4.04 39.272 0.159 7.77 2.47 13.3
12/10/2020 4:15:00 PM 4.01 39.218 0.159 7.65 2.85 13.13
12/10/2020 4:30:00 PM 3.97 39.146 0.159 7.55 3.01 12.99
12/10/2020 4:45:00 PM 3.94 39.092 0.159 7.5 2.78 12.88
12/10/2020 5:00:00 PM 3.91 39.038 0.159 7.45 2.62 12.8
12/10/2020 5:15:00 PM 3.86 38.948 0.159 7.42 2.63 12.75
12/10/2020 5:30:00 PM 3.8 38.84 0.159 7.38 2.51 12.73
12/10/2020 5:45:00 PM 3.74 38.732 0.159 7.37 2.54 12.71
12/10/2020 6:00:00 PM 3.69 38.642 0.159 7.37 2.54 12.71
12/10/2020 6:15:00 PM 3.67 38.606 0.159 7.36 2.47 12.72
12/10/2020 6:30:00 PM 3.64 38.552 0.159 7.35 2.5 12.71
12/10/2020 6:45:00 PM 3.6 38.48 0.159 7.33 2.49 12.72
12/10/2020 7:00:00 PM 3.55 38.39 0.159 7.34 2.44 12.73
12/10/2020 7:15:00 PM 3.5 38.3 0.159 7.33 2.51 12.75
12/10/2020 7:30:00 PM 3.46 38.228 0.159 7.33 2.43 12.75
12/10/2020 7:45:00 PM 3.43 38.174 0.159 7.33 2.42 12.77
12/10/2020 8:00:00 PM 3.39 38.102 0.16 7.32 2.46 12.78
12/10/2020 8:15:00 PM 3.34 38.012 0.159 7.32 2.49 12.79
12/10/2020 8:30:00 PM 3.3 37.94 0.16 7.32 2.43 12.8
12/10/2020 8:45:00 PM 3.25 37.85 0.159 7.31 2.43 12.83
12/10/2020 9:00:00 PM 3.2 37.76 0.159 7.32 2.42 12.84
12/10/2020 9:15:00 PM 3.17 37.706 0.159 7.29 2.44 12.84
12/10/2020 9:30:00 PM 3.12 37.616 0.159 7.29 2.46 12.86
12/10/2020 9:45:00 PM 3.08 37.544 0.159 7.3 2.44 12.87
12/10/2020 10:00:00 PM 3.03 37.454 0.159 7.3 2.42 12.88
12/10/2020 10:15:00 PM 2.99 37.382 0.159 7.3 2.44 12.89
12/10/2020 10:30:00 PM 2.94 37.292 0.159 7.31 2.48 12.91
12/10/2020 10:45:00 PM 2.91 37.238 0.159 7.3 2.46 12.91
12/10/2020 11:00:00 PM 2.86 37.148 0.159 7.31 2.41 12.94
12/10/2020 11:15:00 PM 2.83 37.094 0.159 7.31 2.39 12.95
12/10/2020 11:30:00 PM 2.8 37.04 0.159 7.32 2.4 12.96
12/10/2020 11:45:00 PM 2.76 36.968 0.159 7.31 2.41 12.98
12/11/2020 12:00:00 AM 2.74 36.932 0.16 7.31 2.37 12.99
12/11/2020 12:15:00 AM 2.7 36.86 0.159 7.28 2.43 13
12/11/2020 12:30:00 AM 2.67 36.806 0.159 7.31 2.45 13.02
12/11/2020 12:45:00 AM 2.64 36.752 0.159 7.31 2.43 13.03
12/11/2020 1:00:00 AM 2.61 36.698 0.16 7.3 2.44 13.03
12/11/2020 1:15:00 AM 2.57 36.626 0.159 7.31 2.46 13.04
12/11/2020 1:30:00 AM 2.54 36.572 0.16 7.3 2.43 13.06
12/11/2020 1:45:00 AM 2.5 36.5 0.16 7.3 2.49 13.07
12/11/2020 2:00:00 AM 2.48 36.464 0.16 7.31 2.34 13.07
12/11/2020 2:15:00 AM 2.46 36.428 0.16 7.32 2.45 13.09
12/11/2020 2:30:00 AM 2.45 36.41 0.16 7.31 2.47 13.09
12/11/2020 2:45:00 AM 2.43 36.374 0.16 7.32 2.41 13.1
12/11/2020 3:00:00 AM 2.4 36.32 0.16 7.31 2.45 13.12
12/11/2020 3:15:00 AM 2.39 36.302 0.16 7.32 2.59 13.12
12/11/2020 3:30:00 AM 2.37 36.266 0.16 7.31 2.6 13.12
12/11/2020 3:45:00 AM 2.35 36.23 0.16 7.33 2.66 13.14
12/11/2020 4:00:00 AM 2.33 36.194 0.16 7.31 2.64 13.14
12/11/2020 4:15:00 AM 2.31 36.158 0.161 7.31 2.65 13.15
12/11/2020 4:30:00 AM 2.29 36.122 0.161 7.32 2.62 13.15
12/11/2020 4:45:00 AM 2.27 36.086 0.161 7.32 2.53 13.16
12/11/2020 5:00:00 AM 2.24 36.032 0.161 7.31 2.63 13.17
12/11/2020 5:15:00 AM 2.23 36.014 0.161 7.31 2.66 13.17
12/11/2020 5:30:00 AM 2.21 35.978 0.161 7.31 2.63 13.18
12/11/2020 5:45:00 AM 2.19 35.942 0.161 7.31 2.66 13.19
12/11/2020 6:00:00 AM 2.16 35.888 0.161 7.31 2.58 13.2
12/11/2020 6:15:00 AM 2.15 35.87 0.161 7.3 2.68 13.19
12/11/2020 6:30:00 AM 2.14 35.852 0.161 7.32 2.61 13.21
12/11/2020 6:45:00 AM 2.1 35.78 0.161 7.32 2.61 13.24
12/11/2020 7:00:00 AM 2.09 35.762 0.161 7.33 2.6 13.23
12/11/2020 7:15:00 AM 2.09 35.762 0.161 7.31 2.3 13.24
12/11/2020 7:30:00 AM 2.07 35.726 0.161 7.32 2.37 13.3
12/11/2020 7:45:00 AM 2.06 35.708 0.161 7.35 2.36 13.43
12/11/2020 8:00:00 AM 2.09 35.762 0.161 7.4 2.33 13.63
12/11/2020 8:15:00 AM 2.1 35.78 0.161 7.48 2.39 13.86
12/11/2020 8:30:00 AM 2.15 35.87 0.161 7.57 2.36 14.07
12/11/2020 8:45:00 AM 2.18 35.924 0.161 7.65 2.3 14.23
12/11/2020 9:00:00 AM 2.22 35.996 0.161 7.74 2.3 14.34
12/11/2020 9:15:00 AM 2.29 36.122 0.16 7.83 2.29 14.44
12/11/2020 9:30:00 AM 2.36 36.248 0.16 7.92 2.36 14.49
12/11/2020 9:45:00 AM 2.42 36.356 0.16 7.98 2.3 14.53
12/11/2020 10:00:00 AM 2.5 36.5 0.16 8.06 2.27 14.57
12/11/2020 10:15:00 AM 2.57 36.626 0.16 8.08 2.29 14.55
12/11/2020 10:30:00 AM 2.64 36.752 0.16 8.14 2.3 14.56
12/11/2020 10:45:00 AM 2.76 36.968 0.16 8.19 2.31 14.58
12/11/2020 11:00:00 AM 2.86 37.148 0.16 8.23 2.48 14.58
12/11/2020 11:15:00 AM 2.99 37.382 0.16 8.28 3.17 14.58
12/11/2020 11:30:00 AM 3.11 37.598 0.16 8.33 3.62 14.58
12/11/2020 11:45:00 AM 3.21 37.778 0.159 8.37 3.35 14.58
12/11/2020 12:00:00 PM 3.33 37.994 0.159 8.41 3.32 14.55
12/11/2020 12:15:00 PM 3.42 38.156 0.159 8.41 3.71 14.49
12/11/2020 12:30:00 PM 3.53 38.354 0.159 8.41 3.6 14.42
12/11/2020 12:45:00 PM 3.63 38.534 0.159 8.4 3.12 14.37
12/11/2020 1:00:00 PM 3.74 38.732 0.159 8.42 2.72 14.34
12/11/2020 1:15:00 PM 3.83 38.894 0.159 8.42 2.51 14.28
12/11/2020 1:30:00 PM 3.9 39.02 0.159 8.42 2.43 14.24
12/11/2020 1:45:00 PM 3.99 39.182 0.159 8.42 2.35 14.21
12/11/2020 2:00:00 PM 4.03 39.254 0.159 8.41 2.3 14.18
12/11/2020 2:15:00 PM 4.06 39.308 0.159 8.41 2.32 14.15
12/11/2020 2:30:00 PM 4.08 39.344 0.159 8.39 2.35 14.1
12/11/2020 2:45:00 PM 4.07 39.326 0.159 8.35 2.39 14.03
12/11/2020 3:00:00 PM 4.06 39.308 0.16 8.3 2.36 13.97
12/11/2020 3:15:00 PM 4.07 39.326 0.16 8.27 2.38 13.93
12/11/2020 3:30:00 PM 4.04 39.272 0.16 8.19 2.34 13.83
12/11/2020 3:45:00 PM 4.05 39.29 0.16 8.15 2.27 13.78
12/11/2020 4:00:00 PM 4.02 39.236 0.16 8 2.3 13.59
12/11/2020 4:15:00 PM 3.97 39.146 0.16 7.8 2.28 13.34
12/11/2020 4:30:00 PM 3.92 39.056 0.161 7.65 2.37 13.13
12/11/2020 4:45:00 PM 3.87 38.966 0.161 7.55 2.32 12.97
12/11/2020 5:00:00 PM 3.83 38.894 0.161 7.48 2.47 12.85
12/11/2020 5:15:00 PM 3.78 38.804 0.161 7.44 2.44 12.79
12/11/2020 5:30:00 PM 3.74 38.732 0.161 7.39 2.4 12.73
12/11/2020 5:45:00 PM 3.67 38.606 0.161 7.37 2.33 12.72
12/11/2020 6:00:00 PM 3.6 38.48 0.161 7.35 2.45 12.72
12/11/2020 6:15:00 PM 3.55 38.39 0.161 7.35 2.53 12.73
12/11/2020 6:30:00 PM 3.5 38.3 0.161 7.34 2.46 12.73
12/11/2020 6:45:00 PM 3.45 38.21 0.161 7.33 2.45 12.74
12/11/2020 7:00:00 PM 3.41 38.138 0.161 7.33 2.41 12.75
12/11/2020 7:15:00 PM 3.37 38.066 0.161 7.31 2.46 12.76
12/11/2020 7:30:00 PM 3.32 37.976 0.161 7.31 2.49 12.78
12/11/2020 7:45:00 PM 3.31 37.958 0.161 7.33 2.53 12.77
12/11/2020 8:00:00 PM 3.31 37.958 0.161 7.33 2.49 12.79
12/11/2020 8:15:00 PM 3.28 37.904 0.16 7.32 2.46 12.8
12/11/2020 8:30:00 PM 3.28 37.904 0.161 7.33 2.43 12.8
12/11/2020 8:45:00 PM 3.28 37.904 0.161 7.33 2.38 12.8
12/11/2020 9:00:00 PM 3.27 37.886 0.161 7.32 2.42 12.81
12/11/2020 9:15:00 PM 3.27 37.886 0.161 7.31 2.48 12.81
12/11/2020 9:30:00 PM 3.27 37.886 0.161 7.33 2.48 12.81
12/11/2020 9:45:00 PM 3.26 37.868 0.16 7.32 2.52 12.81
12/11/2020 10:00:00 PM 3.26 37.868 0.16 7.32 2.51 12.8
12/11/2020 10:15:00 PM 3.25 37.85 0.16 7.32 2.5 12.81
12/11/2020 10:30:00 PM 3.25 37.85 0.16 7.33 2.45 12.81
12/11/2020 10:45:00 PM 3.23 37.814 0.16 7.33 2.5 12.82
12/11/2020 11:00:00 PM 3.21 37.778 0.16 7.32 2.47 12.82
12/11/2020 11:15:00 PM 3.19 37.742 0.16 7.31 2.4 12.82
12/11/2020 11:30:00 PM 3.18 37.724 0.16 7.31 2.46 12.83
12/11/2020 11:45:00 PM 3.17 37.706 0.16 7.31 2.46 12.82
12/12/2020 12:00:00 AM 3.16 37.688 0.16 7.31 2.4 12.83
12/12/2020 12:15:00 AM 3.14 37.652 0.16 7.31 2.5 12.84
12/12/2020 12:30:00 AM 3.12 37.616 0.16 7.31 2.41 12.84
12/12/2020 12:45:00 AM 3.1 37.58 0.16 7.31 2.38 12.85
12/12/2020 1:00:00 AM 3.08 37.544 0.16 7.3 2.51 12.85
12/12/2020 1:15:00 AM 3.07 37.526 0.16 7.31 2.43 12.85
12/12/2020 1:30:00 AM 3.06 37.508 0.16 7.31 2.42 12.86
12/12/2020 1:45:00 AM 3.04 37.472 0.16 7.3 2.44 12.87
12/12/2020 2:00:00 AM 3.03 37.454 0.16 7.3 2.45 12.87
12/12/2020 2:15:00 AM 3.02 37.436 0.16 7.31 2.4 12.87
12/12/2020 2:30:00 AM 3 37.4 0.16 7.31 2.44 12.88
12/12/2020 2:45:00 AM 2.99 37.382 0.16 7.32 2.46 12.89
12/12/2020 3:00:00 AM 2.99 37.382 0.161 7.31 2.49 12.89
12/12/2020 3:15:00 AM 2.95 37.31 0.161 7.31 2.49 12.9
12/12/2020 3:30:00 AM 2.93 37.274 0.161 7.31 2.48 12.91
12/12/2020 3:45:00 AM 2.92 37.256 0.161 7.31 2.46 12.91
12/12/2020 4:00:00 AM 2.89 37.202 0.161 7.31 2.41 12.92
12/12/2020 4:15:00 AM 2.89 37.202 0.161 7.29 2.44 12.92
12/12/2020 4:30:00 AM 2.9 37.22 0.161 7.3 2.42 12.92
12/12/2020 4:45:00 AM 2.9 37.22 0.161 7.3 2.44 12.92
12/12/2020 5:00:00 AM 2.88 37.184 0.161 7.3 2.44 12.92
12/12/2020 5:15:00 AM 2.88 37.184 0.161 7.3 2.36 12.92
12/12/2020 5:30:00 AM 2.87 37.166 0.161 7.3 2.45 12.92
12/12/2020 5:45:00 AM 2.87 37.166 0.161 7.3 2.38 12.93
12/12/2020 6:00:00 AM 2.87 37.166 0.161 7.31 2.43 12.92
12/12/2020 6:15:00 AM 2.86 37.148 0.161 7.3 2.4 12.93
12/12/2020 6:30:00 AM 2.89 37.202 0.161 7.3 2.42 12.92
12/12/2020 6:45:00 AM 2.88 37.184 0.161 7.32 2.41 12.92
12/12/2020 7:00:00 AM 2.89 37.202 0.161 7.31 2.39 12.92
12/12/2020 7:15:00 AM 2.9 37.22 0.161 7.31 2.38 12.93
12/12/2020 7:30:00 AM 2.9 37.22 0.161 7.31 2.4 12.94
12/12/2020 7:45:00 AM 2.92 37.256 0.161 7.32 2.4 12.96
12/12/2020 8:00:00 AM 2.92 37.256 0.161 7.34 2.55 13.02
12/12/2020 8:15:00 AM 2.95 37.31 0.161 7.35 2.39 13.12
12/12/2020 8:30:00 AM 2.99 37.382 0.161 7.42 2.38 13.3
12/12/2020 8:45:00 AM 3.04 37.472 0.161 7.48 2.37 13.5
12/12/2020 9:00:00 AM 3.09 37.562 0.16 7.54 2.33 13.6
12/12/2020 9:15:00 AM 3.14 37.652 0.16 7.6 2.36 13.73
12/12/2020 9:30:00 AM 3.2 37.76 0.16 7.68 2.33 13.86
12/12/2020 9:45:00 AM 3.28 37.904 0.16 7.79 2.35 14.01
12/12/2020 10:00:00 AM 3.37 38.066 0.159 7.91 2.36 14.13
12/12/2020 10:15:00 AM 3.44 38.192 0.159 7.99 2.33 14.21
12/12/2020 10:30:00 AM 3.52 38.336 0.159 8.08 2.3 14.25
12/12/2020 10:45:00 AM 3.59 38.462 0.159 8.07 2.29 14.17
12/12/2020 11:00:00 AM 3.64 38.552 0.159 8.05 2.3 14.06
12/12/2020 11:15:00 AM 3.71 38.678 0.159 8.1 2.31 14.08
12/12/2020 11:30:00 AM 3.82 38.876 0.158 8.19 2.35 14.17
12/12/2020 11:45:00 AM 3.92 39.056 0.158 8.27 2.28 14.21
12/12/2020 12:00:00 PM 4.03 39.254 0.158 8.34 2.33 14.28
12/12/2020 12:15:00 PM 4.11 39.398 0.158 8.4 2.33 14.29
12/12/2020 12:30:00 PM 4.22 39.596 0.158 8.44 2.35 14.28
12/12/2020 12:45:00 PM 4.33 39.794 0.157 8.48 2.35 14.26
12/12/2020 1:00:00 PM 4.43 39.974 0.157 8.51 2.3 14.24
12/12/2020 1:15:00 PM 4.53 40.154 0.157 8.52 2.25 14.19
12/12/2020 1:30:00 PM 4.6 40.28 0.157 8.52 2.3 14.11
12/12/2020 1:45:00 PM 4.65 40.37 0.157 8.52 2.27 14.01
12/12/2020 2:00:00 PM 4.71 40.478 0.157 8.47 2.29 13.94
12/12/2020 2:15:00 PM 4.76 40.568 0.157 8.46 2.3 13.84
12/12/2020 2:30:00 PM 4.82 40.676 0.157 8.47 2.79 13.81
12/12/2020 2:45:00 PM 4.87 40.766 0.157 8.48 2.53 13.79
12/12/2020 3:00:00 PM 4.88 40.784 0.157 8.39 2.58 13.61
12/12/2020 3:15:00 PM 4.9 40.82 0.157 8.3 2.52 13.45
12/12/2020 3:30:00 PM 4.92 40.856 0.157 8.21 2.62 13.36
12/12/2020 3:45:00 PM 4.92 40.856 0.157 8.12 2.56 13.24
12/12/2020 4:00:00 PM 4.91 40.838 0.157 7.93 2.53 13.03
12/12/2020 4:15:00 PM 4.9 40.82 0.157 7.79 2.6 12.83
12/12/2020 4:30:00 PM 4.9 40.82 0.157 7.66 2.61 12.65
12/12/2020 4:45:00 PM 4.9 40.82 0.157 7.58 2.66 12.5
12/12/2020 5:00:00 PM 4.89 40.802 0.158 7.53 2.67 12.4
12/12/2020 5:15:00 PM 4.9 40.82 0.158 7.48 2.82 12.32
12/12/2020 5:30:00 PM 4.9 40.82 0.159 7.46 3.14 12.28
12/12/2020 5:45:00 PM 4.9 40.82 0.159 7.45 3.35 12.25
12/12/2020 6:00:00 PM 4.91 40.838 0.159 7.45 3.37 12.22
12/12/2020 6:15:00 PM 4.91 40.838 0.159 7.43 3.29 12.21
12/12/2020 6:30:00 PM 4.93 40.874 0.158 7.43 3.26 12.19
12/12/2020 6:45:00 PM 4.93 40.874 0.158 7.39 3.28 12.19
12/12/2020 7:00:00 PM 4.94 40.892 0.157 7.39 3.34 12.18
12/12/2020 7:15:00 PM 4.96 40.928 0.157 7.4 3.28 12.18
12/12/2020 7:30:00 PM 4.97 40.946 0.156 7.4 3.25 12.18
12/12/2020 7:45:00 PM 4.98 40.964 0.156 7.4 3.3 12.17
12/12/2020 8:00:00 PM 4.99 40.982 0.156 7.39 3.52 12.16
12/12/2020 8:15:00 PM 5 41 0.156 7.38 3.68 12.15
12/12/2020 8:30:00 PM 5.01 41.018 0.156 7.38 3.74 12.15
12/12/2020 8:45:00 PM 5 41 0.155 7.37 3.54 12.15
12/12/2020 9:00:00 PM 5 41 0.154 7.35 4.08 12.15
12/12/2020 9:15:00 PM 5 41 0.154 7.34 3.13 12.15
12/12/2020 9:30:00 PM 5 41 0.153 7.34 3.1 12.15
12/12/2020 9:45:00 PM 5 41 0.153 7.33 3.13 12.15
12/12/2020 10:00:00 PM 4.99 40.982 0.152 7.33 3.07 12.15
12/12/2020 10:15:00 PM 4.97 40.946 0.152 7.32 3.15 12.15
12/12/2020 10:30:00 PM 4.97 40.946 0.152 7.31 3.15 12.15
12/12/2020 10:45:00 PM 4.94 40.892 0.151 7.32 3.09 12.16
12/12/2020 11:00:00 PM 4.91 40.838 0.151 7.31 3.05 12.17
12/12/2020 11:15:00 PM 4.88 40.784 0.15 7.31 3.06 12.18
12/12/2020 11:30:00 PM 4.85 40.73 0.15 7.3 3.13 12.19
12/12/2020 11:45:00 PM 4.81 40.658 0.15 7.3 3.07 12.2
12/13/2020 12:00:00 AM 4.77 40.586 0.149 7.29 3.15 12.2
12/13/2020 12:15:00 AM 4.73 40.514 0.149 7.26 3.13 12.22
12/13/2020 12:30:00 AM 4.71 40.478 0.149 7.3 3.21 12.23
12/13/2020 12:45:00 AM 4.68 40.424 0.149 7.29 3.22 12.23
12/13/2020 1:00:00 AM 4.65 40.37 0.149 7.29 3.13 12.24
12/13/2020 1:15:00 AM 4.61 40.298 0.148 7.29 3.14 12.25
12/13/2020 1:30:00 AM 4.58 40.244 0.148 7.29 3.11 12.27
12/13/2020 1:45:00 AM 4.58 40.244 0.148 7.3 3.24 12.27
12/13/2020 2:00:00 AM 4.61 40.298 0.148 7.33 3.52 12.27
12/13/2020 2:15:00 AM 4.63 40.334 0.147 7.34 3.45 12.28
12/13/2020 2:30:00 AM 4.67 40.406 0.147 7.32 3.46 12.26
12/13/2020 2:45:00 AM 4.73 40.514 0.147 7.33 3.47 12.25
12/13/2020 3:00:00 AM 4.77 40.586 0.146 7.33 3.54 12.24
12/13/2020 3:15:00 AM 4.77 40.586 0.146 7.33 4.52 12.23
12/13/2020 3:30:00 AM 4.77 40.586 0.146 7.32 3.42 12.23
12/13/2020 3:45:00 AM 4.77 40.586 0.146 7.31 3.46 12.22
12/13/2020 4:00:00 AM 4.79 40.622 0.146 7.32 3.44 12.22
12/13/2020 4:15:00 AM 4.79 40.622 0.146 7.3 3.44 12.22
12/13/2020 4:30:00 AM 4.78 40.604 0.145 7.32 3.42 12.21
12/13/2020 4:45:00 AM 4.8 40.64 0.145 7.31 3.42 12.21
12/13/2020 5:00:00 AM 4.8 40.64 0.145 7.31 3.44 12.21
12/13/2020 5:15:00 AM 4.82 40.676 0.145 7.31 3.33 12.2
12/13/2020 5:30:00 AM 4.83 40.694 0.145 7.31 3.39 12.2
12/13/2020 5:45:00 AM 4.84 40.712 0.145 7.32 3.36 12.2
12/13/2020 6:00:00 AM 4.85 40.73 0.145 7.31 3.33 12.19
12/13/2020 6:15:00 AM 4.87 40.766 0.145 7.32 3.42 12.19
12/13/2020 6:30:00 AM 4.88 40.784 0.145 7.31 3.42 12.19
12/13/2020 6:45:00 AM 4.89 40.802 0.145 7.31 3.34 12.19
12/13/2020 7:00:00 AM 4.89 40.802 0.145 7.32 3.31 12.19
12/13/2020 7:15:00 AM 4.89 40.802 0.145 7.28 3.27 12.19
12/13/2020 7:30:00 AM 4.89 40.802 0.145 7.32 3.34 12.2
12/13/2020 7:45:00 AM 4.9 40.82 0.145 7.32 3.28 12.22
12/13/2020 8:00:00 AM 4.89 40.802 0.145 7.35 3.28 12.28
12/13/2020 8:15:00 AM 4.9 40.82 0.145 7.34 3.25 12.32
12/13/2020 8:30:00 AM 4.9 40.82 0.145 7.34 3.16 12.33
12/13/2020 8:45:00 AM 4.91 40.838 0.145 7.35 3.2 12.37
12/13/2020 9:00:00 AM 4.91 40.838 0.145 7.38 3.21 12.48
12/13/2020 9:15:00 AM 4.93 40.874 0.145 7.43 3.15 12.63
12/13/2020 9:30:00 AM 4.94 40.892 0.145 7.45 3.21 12.7
12/13/2020 9:45:00 AM 4.95 40.91 0.144 7.49 3.17 12.78
12/13/2020 10:00:00 AM 4.97 40.946 0.144 7.52 3.18 12.87
12/13/2020 10:15:00 AM 4.97 40.946 0.144 7.56 3.25 12.91
12/13/2020 10:30:00 AM 4.99 40.982 0.144 7.63 3.1 13.04
12/13/2020 10:45:00 AM 5 41 0.144 7.64 3.17 13.06
12/13/2020 11:00:00 AM 5 41 0.144 7.66 3.01 13.06
12/13/2020 11:15:00 AM 5 41 0.144 7.62 3.09 12.97
12/13/2020 11:30:00 AM 4.99 40.982 0.144 7.6 3.09 12.93
12/13/2020 11:45:00 AM 4.98 40.964 0.144 7.64 3.1 13.01
12/13/2020 12:00:00 PM 5 41 0.144 7.78 3.08 13.23
12/13/2020 12:15:00 PM 5.03 41.054 0.144 7.93 3.03 13.43
12/13/2020 12:30:00 PM 5.05 41.09 0.144 8.01 2.67 13.55
12/13/2020 12:45:00 PM 5.07 41.126 0.144 8.11 2.72 13.61
12/13/2020 1:00:00 PM 5.11 41.198 0.143 8.22 2.74 13.72
12/13/2020 1:15:00 PM 5.14 41.252 0.143 8.3 2.67 13.78
12/13/2020 1:30:00 PM 5.16 41.288 0.143 8.32 2.78 13.77
12/13/2020 1:45:00 PM 5.18 41.324 0.143 8.35 2.71 13.76
12/13/2020 2:00:00 PM 5.2 41.36 0.143 8.39 2.68 13.76
12/13/2020 2:15:00 PM 5.2 41.36 0.143 8.36 2.68 13.68
12/13/2020 2:30:00 PM 5.21 41.378 0.143 8.37 2.66 13.65
12/13/2020 2:45:00 PM 5.19 41.342 0.143 8.31 2.59 13.54
12/13/2020 3:00:00 PM 5.16 41.288 0.143 8.17 2.61 13.35
12/13/2020 3:15:00 PM 5.13 41.234 0.144 8.01 2.63 13.15
12/13/2020 3:30:00 PM 5.09 41.162 0.144 7.86 2.64 12.98
12/13/2020 3:45:00 PM 5.07 41.126 0.144 7.75 2.65 12.88
12/13/2020 4:00:00 PM 5.03 41.054 0.144 7.63 2.71 12.74
12/13/2020 4:15:00 PM 5 41 0.145 7.57 2.65 12.68
12/13/2020 4:30:00 PM 4.95 40.91 0.145 7.5 2.66 12.58
12/13/2020 4:45:00 PM 4.91 40.838 0.145 7.44 2.64 12.48
12/13/2020 5:00:00 PM 4.86 40.748 0.145 7.4 2.62 12.41
12/13/2020 5:15:00 PM 4.82 40.676 0.146 7.37 2.66 12.37
12/13/2020 5:30:00 PM 4.75 40.55 0.146 7.35 2.64 12.35
12/13/2020 5:45:00 PM 4.7 40.46 0.146 7.34 2.75 12.34
12/13/2020 6:00:00 PM 4.61 40.298 0.146 7.32 2.66 12.35
12/13/2020 6:15:00 PM 4.55 40.19 0.146 7.31 2.71 12.36
12/13/2020 6:30:00 PM 4.5 40.1 0.146 7.31 2.76 12.37
12/13/2020 6:45:00 PM 4.47 40.046 0.146 7.31 2.73 12.38
12/13/2020 7:00:00 PM 4.43 39.974 0.147 7.31 2.71 12.39
12/13/2020 7:15:00 PM 4.38 39.884 0.147 7.3 2.68 12.41
12/13/2020 7:30:00 PM 4.36 39.848 0.147 7.3 2.72 12.41
12/13/2020 7:45:00 PM 4.34 39.812 0.147 7.3 2.67 12.43
12/13/2020 8:00:00 PM 4.32 39.776 0.147 7.3 2.65 12.44
12/13/2020 8:15:00 PM 4.3 39.74 0.147 7.3 2.72 12.44
12/13/2020 8:30:00 PM 4.29 39.722 0.147 7.31 2.71 12.44
12/13/2020 8:45:00 PM 4.27 39.686 0.147 7.3 2.69 12.45
12/13/2020 9:00:00 PM 4.26 39.668 0.147 7.3 2.67 12.45
12/13/2020 9:15:00 PM 4.24 39.632 0.147 7.3 2.69 12.46
12/13/2020 9:30:00 PM 4.23 39.614 0.147 7.31 2.72 12.46
12/13/2020 9:45:00 PM 4.22 39.596 0.147 7.3 2.7 12.46
12/13/2020 10:00:00 PM 4.21 39.578 0.148 7.3 2.76 12.46
12/13/2020 10:15:00 PM 4.19 39.542 0.147 7.31 2.74 12.47
12/13/2020 10:30:00 PM 4.17 39.506 0.147 7.31 2.66 12.48
12/13/2020 10:45:00 PM 4.16 39.488 0.147 7.3 2.69 12.48
12/13/2020 11:00:00 PM 4.13 39.434 0.147 7.3 2.73 12.49
12/13/2020 11:15:00 PM 4.12 39.416 0.148 7.3 2.7 12.49
12/13/2020 11:30:00 PM 4.11 39.398 0.148 7.31 2.64 12.49
12/13/2020 11:45:00 PM 4.1 39.38 0.148 7.3 2.69 12.5
12/14/2020 12:00:00 AM 4.08 39.344 0.148 7.3 2.69 12.5
12/14/2020 12:15:00 AM 4.07 39.326 0.148 7.31 2.65 12.5
12/14/2020 12:30:00 AM 4.06 39.308 0.148 7.31 2.7 12.51
12/14/2020 12:45:00 AM 4.05 39.29 0.148 7.3 2.68 12.51
12/14/2020 1:00:00 AM 4.04 39.272 0.148 7.3 2.73 12.51
12/14/2020 1:15:00 AM 4.03 39.254 0.148 7.3 2.72 12.51
12/14/2020 1:30:00 AM 4.02 39.236 0.148 7.3 2.7 12.51
12/14/2020 1:45:00 AM 4.01 39.218 0.148 7.3 2.73 12.51
12/14/2020 2:00:00 AM 4 39.2 0.148 7.3 2.71 12.51
12/14/2020 2:15:00 AM 3.99 39.182 0.148 7.3 2.68 12.51
12/14/2020 2:30:00 AM 3.97 39.146 0.148 7.31 2.7 12.52
12/14/2020 2:45:00 AM 3.97 39.146 0.149 7.3 2.73 12.52
12/14/2020 3:00:00 AM 3.95 39.11 0.149 7.29 2.76 12.52
12/14/2020 3:15:00 AM 3.94 39.092 0.149 7.31 2.71 12.52
12/14/2020 3:30:00 AM 3.93 39.074 0.149 7.31 2.68 12.53
12/14/2020 3:45:00 AM 3.92 39.056 0.149 7.3 2.72 12.52
12/14/2020 4:00:00 AM 3.91 39.038 0.149 7.3 2.71 12.53
12/14/2020 4:15:00 AM 3.9 39.02 0.149 7.3 2.73 12.54
12/14/2020 4:30:00 AM 3.89 39.002 0.149 7.31 2.68 12.54
12/14/2020 4:45:00 AM 3.88 38.984 0.149 7.31 2.67 12.54
12/14/2020 5:00:00 AM 3.87 38.966 0.149 7.3 2.68 12.54
12/14/2020 5:15:00 AM 3.86 38.948 0.149 7.3 2.65 12.54
12/14/2020 5:30:00 AM 3.85 38.93 0.149 7.3 2.68 12.54
12/14/2020 5:45:00 AM 3.84 38.912 0.149 7.3 2.7 12.55
12/14/2020 6:00:00 AM 3.83 38.894 0.149 7.3 2.64 12.55
12/14/2020 6:15:00 AM 3.82 38.876 0.149 7.3 2.78 12.55
12/14/2020 6:30:00 AM 3.81 38.858 0.15 7.3 2.71 12.56
12/14/2020 6:45:00 AM 3.79 38.822 0.15 7.3 2.69 12.56
12/14/2020 7:00:00 AM 3.78 38.804 0.15 7.3 2.71 12.57
12/14/2020 7:15:00 AM 3.77 38.786 0.15 7.3 2.65 12.57
12/14/2020 7:30:00 AM 3.76 38.768 0.15 7.3 2.66 12.58
12/14/2020 7:45:00 AM 3.74 38.732 0.15 7.32 2.67 12.61
12/14/2020 8:00:00 AM 3.73 38.714 0.15 7.33 2.67 12.67
12/14/2020 8:15:00 AM 3.72 38.696 0.15 7.31 2.73 12.74
12/14/2020 8:30:00 AM 3.7 38.66 0.15 7.37 2.67 12.86
12/14/2020 8:45:00 AM 3.71 38.678 0.15 7.43 2.62 13.05
12/14/2020 9:00:00 AM 3.71 38.678 0.149 7.51 2.68 13.25
12/14/2020 9:15:00 AM 3.73 38.714 0.15 7.54 2.66 13.31
12/14/2020 9:30:00 AM 3.75 38.75 0.149 7.63 2.6 13.48
12/14/2020 9:45:00 AM 3.76 38.768 0.149 7.7 2.71 13.58
12/14/2020 10:00:00 AM 3.79 38.822 0.149 7.76 2.73 13.64
12/14/2020 10:15:00 AM 3.82 38.876 0.149 7.88 3.07 13.79
12/14/2020 10:30:00 AM 3.86 38.948 0.149 7.99 2.8 13.91
12/14/2020 10:45:00 AM 3.88 38.984 0.149 8.04 2.82 13.93
12/14/2020 11:00:00 AM 3.9 39.02 0.149 8.06 2.77 13.9
12/14/2020 11:15:00 AM 3.91 39.038 0.149 8.07 2.72 13.86
12/14/2020 11:30:00 AM 3.93 39.074 0.149 8.06 2.69 13.8
12/14/2020 11:45:00 AM 3.94 39.092 0.148 8.04 2.76 13.74
12/14/2020 12:00:00 PM 3.95 39.11 0.149 7.97 2.72 13.65
12/14/2020 12:15:00 PM 3.95 39.11 0.149 7.94 3.16 13.58
12/14/2020 12:30:00 PM 3.96 39.128 0.149 7.93 4.2 13.58
12/14/2020 12:45:00 PM 3.96 39.128 0.149 7.93 4.15 13.56
12/14/2020 1:00:00 PM 3.95 39.11 0.149 7.92 3.5 13.56
12/14/2020 1:15:00 PM 3.96 39.128 0.149 7.94 3.08 13.58
12/14/2020 1:30:00 PM 3.96 39.128 0.149 7.94 2.85 13.59
12/14/2020 1:45:00 PM 4 39.2 0.149 8.07 2.8 13.77
12/14/2020 2:00:00 PM 4.01 39.218 0.148 8.13 2.76 13.85
12/14/2020 2:15:00 PM 4.04 39.272 0.149 8.2 2.75 13.92
12/14/2020 2:30:00 PM 4.02 39.236 0.148 8.12 2.67 13.76
12/14/2020 2:45:00 PM 4.01 39.218 0.149 8 2.68 13.61
12/14/2020 3:00:00 PM 4.03 39.254 0.148 8.06 2.61 13.66
12/14/2020 3:15:00 PM 4.02 39.236 0.149 7.91 2.69 13.44
12/14/2020 3:30:00 PM 4.01 39.218 0.149 7.76 2.65 13.21
12/14/2020 3:45:00 PM 3.96 39.128 0.149 7.65 2.69 13.07
12/14/2020 4:00:00 PM 3.9 39.02 0.149 7.59 2.76 13.01
12/14/2020 4:15:00 PM 3.85 38.93 0.149 7.55 2.73 12.94
12/14/2020 4:30:00 PM 3.79 38.822 0.15 7.5 2.82 12.85
12/14/2020 4:45:00 PM 3.75 38.75 0.15 7.45 2.98 12.78
12/14/2020 5:00:00 PM 3.7 38.66 0.15 7.42 3.11 12.72
12/14/2020 5:15:00 PM 3.65 38.57 0.15 7.38 3 12.69
12/14/2020 5:30:00 PM 3.62 38.516 0.15 7.37 2.79 12.67
12/14/2020 5:45:00 PM 3.49 38.282 0.15 7.34 2.74 12.66
12/14/2020 6:00:00 PM 3.44 38.192 0.151 7.35 2.69 12.68
12/14/2020 6:15:00 PM 3.35 38.03 0.151 7.34 2.69 12.7
12/14/2020 6:30:00 PM 3.28 37.904 0.151 7.33 2.68 12.73
12/14/2020 6:45:00 PM 3.22 37.796 0.151 7.33 2.64 12.75
12/14/2020 7:00:00 PM 3.16 37.688 0.151 7.33 2.59 12.77
12/14/2020 7:15:00 PM 3.13 37.634 0.151 7.34 2.64 12.78
12/14/2020 7:30:00 PM 3.06 37.508 0.151 7.33 2.63 12.81
12/14/2020 7:45:00 PM 3.02 37.436 0.151 7.32 2.71 12.84
12/14/2020 8:00:00 PM 2.97 37.346 0.151 7.32 2.8 12.85
12/14/2020 8:15:00 PM 2.91 37.238 0.151 7.32 2.7 12.87
12/14/2020 8:30:00 PM 2.87 37.166 0.151 7.32 2.72 12.89
12/14/2020 8:45:00 PM 2.83 37.094 0.151 7.33 2.68 12.91
12/14/2020 9:00:00 PM 2.79 37.022 0.152 7.32 2.68 12.92
12/14/2020 9:15:00 PM 2.73 36.914 0.152 7.32 2.64 12.95
12/14/2020 9:30:00 PM 2.69 36.842 0.151 7.32 2.67 12.97
12/14/2020 9:45:00 PM 2.67 36.806 0.151 7.34 2.68 12.99
12/14/2020 10:00:00 PM 2.64 36.752 0.152 7.33 2.72 13
12/14/2020 10:15:00 PM 2.59 36.662 0.152 7.32 2.71 13.01
12/14/2020 10:30:00 PM 2.55 36.59 0.152 7.32 2.69 13.03
12/14/2020 10:45:00 PM 2.51 36.518 0.152 7.29 2.68 13.05
12/14/2020 11:00:00 PM 2.48 36.464 0.152 7.32 2.73 13.07
12/14/2020 11:15:00 PM 2.46 36.428 0.151 7.3 2.75 13.07
12/14/2020 11:30:00 PM 2.44 36.392 0.152 7.33 2.76 13.09
12/14/2020 11:45:00 PM 2.4 36.32 0.152 7.33 2.78 13.11
12/15/2020 12:00:00 AM 2.39 36.302 0.152 7.32 2.77 13.12
12/15/2020 12:15:00 AM 2.35 36.23 0.152 7.33 2.72 13.13
12/15/2020 12:30:00 AM 2.33 36.194 0.152 7.33 2.71 13.14
12/15/2020 12:45:00 AM 2.31 36.158 0.152 7.33 2.72 13.14
12/15/2020 1:00:00 AM 2.29 36.122 0.152 7.33 2.69 13.15
12/15/2020 1:15:00 AM 2.26 36.068 0.152 7.34 2.71 13.17
12/15/2020 1:30:00 AM 2.24 36.032 0.152 7.32 2.69 13.17
12/15/2020 1:45:00 AM 2.21 35.978 0.152 7.33 2.74 13.18
12/15/2020 2:00:00 AM 2.2 35.96 0.152 7.33 2.79 13.2
12/15/2020 2:15:00 AM 2.17 35.906 0.152 7.33 2.71 13.21
12/15/2020 2:30:00 AM 2.15 35.87 0.152 7.33 2.78 13.21
12/15/2020 2:45:00 AM 2.12 35.816 0.153 7.33 2.71 13.23
12/15/2020 3:00:00 AM 2.11 35.798 0.153 7.33 2.71 13.23
12/15/2020 3:15:00 AM 2.11 35.798 0.153 7.33 2.7 13.24
12/15/2020 3:30:00 AM 2.1 35.78 0.153 7.33 2.76 13.25
12/15/2020 3:45:00 AM 2.06 35.708 0.153 7.32 2.74 13.26
12/15/2020 4:00:00 AM 2.06 35.708 0.153 7.33 2.83 13.27
12/15/2020 4:15:00 AM 2.04 35.672 0.153 7.33 2.75 13.28
12/15/2020 4:30:00 AM 2 35.6 0.153 7.33 2.78 13.29
12/15/2020 4:45:00 AM 1.98 35.564 0.153 7.32 2.78 13.3
12/15/2020 5:00:00 AM 1.99 35.582 0.153 7.33 2.72 13.29
12/15/2020 5:15:00 AM 1.97 35.546 0.154 7.32 2.73 13.3
12/15/2020 5:30:00 AM 1.9 35.42 0.153 7.32 2.67 13.33
12/15/2020 5:45:00 AM 1.91 35.438 0.154 7.32 2.68 13.33
12/15/2020 6:00:00 AM 1.88 35.384 0.154 7.34 2.72 13.35
12/15/2020 6:15:00 AM 1.88 35.384 0.154 7.32 2.72 13.34
12/15/2020 6:30:00 AM 1.87 35.366 0.154 7.33 2.75 13.36
12/15/2020 6:45:00 AM 1.87 35.366 0.154 7.33 2.71 13.35
12/15/2020 7:00:00 AM 1.83 35.294 0.154 7.33 2.7 13.36
12/15/2020 7:15:00 AM 1.83 35.294 0.154 7.34 2.66 13.37
12/15/2020 7:30:00 AM 1.84 35.312 0.154 7.34 2.76 13.39
12/15/2020 7:45:00 AM 1.84 35.312 0.154 7.36 2.7 13.45
12/15/2020 8:00:00 AM 1.81 35.258 0.154 7.36 2.77 13.51
12/15/2020 8:15:00 AM 1.79 35.222 0.154 7.39 2.78 13.66
12/15/2020 8:30:00 AM 1.8 35.24 0.154 7.47 2.75 13.9
12/15/2020 8:45:00 AM 1.8 35.24 0.153 7.53 2.75 14.12
12/15/2020 9:00:00 AM 1.84 35.312 0.154 7.63 2.62 14.34
12/15/2020 9:15:00 AM 1.82 35.276 0.153 7.72 2.7 14.48
12/15/2020 9:30:00 AM 1.85 35.33 0.153 7.83 2.72 14.62
12/15/2020 9:45:00 AM 1.9 35.42 0.153 7.93 2.68 14.76
12/15/2020 10:00:00 AM 1.94 35.492 0.153 8.05 2.7 14.87
12/15/2020 10:15:00 AM 1.96 35.528 0.153 8.13 2.77 14.93
12/15/2020 10:30:00 AM 1.98 35.564 0.152 8.21 2.73 15
12/15/2020 10:45:00 AM 2.02 35.636 0.152 8.27 2.66 15.03
12/15/2020 11:00:00 AM 2.05 35.69 0.153 8.31 2.77 15.05
12/15/2020 11:15:00 AM 2.13 35.834 0.153 8.37 2.71 15.06
12/15/2020 11:30:00 AM 2.19 35.942 0.153 8.4 2.72 15.05
12/15/2020 11:45:00 AM 2.28 36.104 0.152 8.46 2.73 15.06
12/15/2020 12:00:00 PM 2.3 36.14 0.152 8.45 2.71 15.02
12/15/2020 12:15:00 PM 2.34 36.212 0.152 8.46 2.68 15
12/15/2020 12:30:00 PM 2.41 36.338 0.152 8.49 2.72 14.99
12/15/2020 12:45:00 PM 2.4 36.32 0.152 8.48 2.73 14.96
12/15/2020 1:00:00 PM 2.38 36.284 0.151 8.48 3.12 14.93
12/15/2020 1:15:00 PM 2.44 36.392 0.152 8.48 3.68 14.92
12/15/2020 1:30:00 PM 2.42 36.356 0.152 8.46 3.9 14.85
12/15/2020 1:45:00 PM 2.43 36.374 0.152 8.46 5.59 14.85
12/15/2020 2:00:00 PM 2.42 36.356 0.152 8.46 7.61 14.82
12/15/2020 2:15:00 PM 2.43 36.374 0.152 8.45 8 14.86
12/15/2020 2:30:00 PM 2.41 36.338 0.152 8.46 6.99 14.86
12/15/2020 2:45:00 PM 2.39 36.302 0.151 8.45 5.99 14.84
12/15/2020 3:00:00 PM 2.38 36.284 0.152 8.43 4.99 14.81
12/15/2020 3:15:00 PM 2.35 36.23 0.152 8.4 4.69 14.75
12/15/2020 3:30:00 PM 2.29 36.122 0.152 8.36 5.52 14.71
12/15/2020 3:45:00 PM 2.24 36.032 0.152 8.28 5.76 14.6
12/15/2020 4:00:00 PM 2.21 35.978 0.152 8.15 6.02 14.43
12/15/2020 4:15:00 PM 2.15 35.87 0.153 7.93 9.07 14.18
12/15/2020 4:30:00 PM 2.09 35.762 0.154 7.72 13.35 13.93
12/15/2020 4:45:00 PM 2 35.6 0.154 7.6 13.5 13.78
12/15/2020 5:00:00 PM 1.93 35.474 0.154 7.51 10.78 13.68
12/15/2020 5:15:00 PM 1.86 35.348 0.154 7.47 7.83 13.63
12/15/2020 5:30:00 PM 1.8 35.24 0.154 7.42 5.75 13.59
12/15/2020 5:45:00 PM 1.73 35.114 0.154 7.39 4.64 13.57
12/15/2020 6:00:00 PM 1.66 34.988 0.155 7.37 3.94 13.57
12/15/2020 6:15:00 PM 1.59 34.862 0.155 7.36 3.67 13.58
12/15/2020 6:30:00 PM 1.52 34.736 0.155 7.35 3.43 13.59
12/15/2020 6:45:00 PM 1.47 34.646 0.155 7.34 3.2 13.6
12/15/2020 7:00:00 PM 1.42 34.556 0.155 7.35 3.1 13.62
12/15/2020 7:15:00 PM 1.38 34.484 0.156 7.33 3.09 13.63
12/15/2020 7:30:00 PM 1.34 34.412 0.156 7.33 2.98 13.65
12/15/2020 7:45:00 PM 1.28 34.304 0.155 7.34 3.04 13.66
12/15/2020 8:00:00 PM 1.26 34.268 0.156 7.33 2.93 13.67
12/15/2020 8:15:00 PM 1.22 34.196 0.156 7.32 2.95 13.68
12/15/2020 8:30:00 PM 1.18 34.124 0.156 7.33 2.9 13.72
12/15/2020 8:45:00 PM 1.13 34.034 0.156 7.33 2.85 13.73
12/15/2020 9:00:00 PM 1.1 33.98 0.156 7.33 2.79 13.74
12/15/2020 9:15:00 PM 1.08 33.944 0.156 7.32 2.82 13.75
12/15/2020 9:30:00 PM 1.03 33.854 0.156 7.31 2.78 13.76
12/15/2020 9:45:00 PM 0.99 33.782 0.156 7.32 2.79 13.77
12/15/2020 10:00:00 PM 0.95 33.71 0.156 7.33 2.85 13.79
12/15/2020 10:15:00 PM 0.91 33.638 0.156 7.3 2.85 13.82
12/15/2020 10:30:00 PM 0.87 33.566 0.156 7.31 2.78 13.82
12/15/2020 10:45:00 PM 0.82 33.476 0.156 7.31 2.77 13.84
12/15/2020 11:00:00 PM 0.8 33.44 0.156 7.31 2.77 13.84
12/15/2020 11:15:00 PM 0.75 33.35 0.156 7.32 2.7 13.88
12/15/2020 11:30:00 PM 0.74 33.332 0.157 7.3 2.76 13.88
12/15/2020 11:45:00 PM 0.68 33.224 0.156 7.31 2.76 13.9
12/16/2020 12:00:00 AM 0.66 33.188 0.157 7.31 2.73 13.91
12/16/2020 12:15:00 AM 0.65 33.17 0.157 7.31 2.74 13.92
12/16/2020 12:30:00 AM 0.62 33.116 0.157 7.32 2.82 13.93
12/16/2020 12:45:00 AM 0.57 33.026 0.156 7.32 2.74 13.94
12/16/2020 1:00:00 AM 0.57 33.026 0.157 7.32 2.76 13.96
12/16/2020 1:15:00 AM 0.55 32.99 0.157 7.32 2.71 13.95
12/16/2020 1:30:00 AM 0.51 32.918 0.157 7.31 2.78 13.97
12/16/2020 1:45:00 AM 0.47 32.846 0.157 7.28 2.87 13.99
12/16/2020 2:00:00 AM 0.48 32.864 0.157 7.32 2.9 13.99
12/16/2020 2:15:00 AM 0.45 32.81 0.158 7.32 2.89 14
12/16/2020 2:30:00 AM 0.43 32.774 0.158 7.3 2.86 14.01
12/16/2020 2:45:00 AM 0.38 32.684 0.157 7.33 2.8 14.04
12/16/2020 3:00:00 AM 0.37 32.666 0.158 7.31 2.79 14.04
12/16/2020 3:15:00 AM 0.36 32.648 0.158 7.32 2.81 14.06
12/16/2020 3:30:00 AM 0.34 32.612 0.158 7.31 2.87 14.07
12/16/2020 3:45:00 AM 0.31 32.558 0.158 7.32 2.76 14.08
12/16/2020 4:00:00 AM 0.32 32.576 0.158 7.32 2.73 14.07
12/16/2020 4:15:00 AM 0.28 32.504 0.158 7.33 2.87 14.08
12/16/2020 4:30:00 AM 0.29 32.522 0.158 7.33 2.82 14.08
12/16/2020 4:45:00 AM 0.27 32.486 0.158 7.32 2.76 14.08
12/16/2020 5:00:00 AM 0.25 32.45 0.158 7.33 2.84 14.09
12/16/2020 5:15:00 AM 0.24 32.432 0.159 7.32 2.88 14.09
12/16/2020 5:30:00 AM 0.2 32.36 0.159 7.33 2.88 14.12
12/16/2020 5:45:00 AM 0.21 32.378 0.159 7.32 2.84 14.11
12/16/2020 6:00:00 AM 0.2 32.36 0.159 7.33 2.88 14.11
12/16/2020 6:15:00 AM 0.2 32.36 0.159 7.32 2.88 14.1
12/16/2020 6:30:00 AM 0.19 32.342 0.159 7.35 2.85 14.13
12/16/2020 6:45:00 AM 0.2 32.36 0.16 7.33 2.87 14.13
12/16/2020 7:00:00 AM 0.23 32.414 0.161 7.34 2.83 14.11
12/16/2020 7:15:00 AM 0.23 32.414 0.162 7.33 2.82 14.09
12/16/2020 7:30:00 AM 0.23 32.414 0.162 7.36 2.8 14.12
12/16/2020 7:45:00 AM 0.23 32.414 0.163 7.36 2.86 14.2
12/16/2020 8:00:00 AM 0.23 32.414 0.163 7.4 2.84 14.35
12/16/2020 8:15:00 AM 0.25 32.45 0.163 7.45 2.85 14.5
12/16/2020 8:30:00 AM 0.25 32.45 0.163 7.48 2.87 14.64
12/16/2020 8:45:00 AM 0.27 32.486 0.163 7.55 2.83 14.79
12/16/2020 9:00:00 AM 0.25 32.45 0.162 7.61 2.79 14.98
12/16/2020 9:15:00 AM 0.31 32.558 0.163 7.71 2.86 15.14
12/16/2020 9:30:00 AM 0.35 32.63 0.162 7.82 2.83 15.28
12/16/2020 9:45:00 AM 0.39 32.702 0.162 7.91 3.1 15.42
12/16/2020 10:00:00 AM 0.43 32.774 0.161 8.01 2.8 15.48
12/16/2020 10:15:00 AM 0.49 32.882 0.161 8.09 141.24 15.56
12/16/2020 10:30:00 AM 0.53 32.954 0.16 8.16 2.78 15.58
12/16/2020 10:45:00 AM 0.59 33.062 0.16 8.21 5.57 15.62
12/16/2020 11:00:00 AM 0.68 33.224 0.159 8.27 3.03 15.63
12/16/2020 11:15:00 AM 0.73 33.314 0.158 8.3 4.87 15.62
12/16/2020 11:30:00 AM 0.78 33.404 0.158 8.32 5.86 15.6
12/16/2020 11:45:00 AM 0.84 33.512 0.158 8.36 5.63 15.56
12/16/2020 12:00:00 PM 0.88 33.584 0.159 8.38 5.94 15.52
12/16/2020 12:15:00 PM 0.91 33.638 0.159 8.36 5.48 15.44
12/16/2020 12:30:00 PM 0.92 33.656 0.158 8.34 4.36 15.35
12/16/2020 12:45:00 PM 0.93 33.674 0.157 8.28 3.69 15.27
12/16/2020 1:00:00 PM 0.95 33.71 0.157 8.2 3.2 15.11
12/16/2020 1:15:00 PM 0.96 33.728 0.157 8.1 2.86 14.99
12/16/2020 1:30:00 PM 0.96 33.728 0.157 8.06 2.76 14.96
12/16/2020 1:45:00 PM 0.94 33.692 0.157 8.02 2.74 14.93
12/16/2020 2:00:00 PM 0.94 33.692 0.158 8.01 2.61 14.93
12/16/2020 2:15:00 PM 0.92 33.656 0.158 7.97 2.62 14.89
12/16/2020 2:30:00 PM 0.87 33.566 0.158 7.93 2.58 14.85
12/16/2020 2:45:00 PM 0.85 33.53 0.158 7.91 2.57 14.88
12/16/2020 3:00:00 PM 0.83 33.494 0.158 7.89 2.56 14.84
12/16/2020 3:15:00 PM 0.8 33.44 0.158 7.82 2.5 14.73
12/16/2020 3:30:00 PM 0.77 33.386 0.158 7.72 2.5 14.61
12/16/2020 3:45:00 PM 0.71 33.278 0.158 7.63 2.44 14.48
12/16/2020 4:00:00 PM 0.66 33.188 0.158 7.57 2.7 14.36
12/16/2020 4:15:00 PM 0.58 33.044 0.158 7.52 4.47 14.25
12/16/2020 4:30:00 PM 0.53 32.954 0.158 7.47 6 14.17
12/16/2020 4:45:00 PM 0.51 32.918 0.158 7.44 5.18 14.11
12/16/2020 5:00:00 PM 0.5 32.9 0.158 7.41 3.94 14.06
12/16/2020 5:15:00 PM 0.46 32.828 0.158 7.41 3.28 14.04
12/16/2020 5:30:00 PM 0.39 32.702 0.158 7.39 3.94 14.02
12/16/2020 5:45:00 PM 0.35 32.63 0.16 7.39 6.87 14.01
12/16/2020 6:00:00 PM 0.34 32.612 0.16 7.4 9.74 14
12/16/2020 6:15:00 PM 0.26 32.468 0.159 7.38 8.78 14
12/16/2020 6:30:00 PM 0.19 32.342 0.159 7.37 7.99 14.02
12/16/2020 6:45:00 PM 0.15 32.27 0.159 7.36 7.31 14.03
12/16/2020 7:00:00 PM 0.15 32.27 0.159 7.37 6.76 14.06
12/16/2020 7:15:00 PM 0.12 32.216 0.158 7.36 6.01 14.07
12/16/2020 7:30:00 PM 0.14 32.252 0.158 7.32 6.04 14.07
12/16/2020 7:45:00 PM 0.15 32.27 0.158 7.37 5.84 14.06
12/16/2020 8:00:00 PM 0.16 32.288 0.159 7.34 5.12 14.05
12/16/2020 8:15:00 PM 0.15 32.27 0.159 7.36 4.78 13.98
12/16/2020 8:30:00 PM 0.13 32.234 0.158 7.36 4.8 14.02
12/16/2020 8:45:00 PM 0.12 32.216 0.159 7.36 4.62 14.02
12/16/2020 9:00:00 PM 0.1 32.18 0.159 7.35 294.18 14.02
12/16/2020 9:15:00 PM 0.07 32.126 0.158 7.34 5.98 14.02
12/16/2020 9:30:00 PM 0.08 32.144 0.157 7.36 4.35 14
12/16/2020 9:45:00 PM 0.07 32.126 0.149 7.32 7.33 14.01
12/16/2020 10:00:00 PM 0.01 32.018 0.159 7.38 7.1 14.06
12/16/2020 10:15:00 PM -0.01 31.982 0.159 7.4 7.09 14.05
12/16/2020 10:30:00 PM 0.06 32.108 0.157 7.33 122.27 14
12/16/2020 10:45:00 PM 0.08 32.144 0.158 7.32 73.62 13.97
12/16/2020 11:00:00 PM 0.09 32.162 0.16 7.34 4.05 13.95
12/16/2020 11:15:00 PM 0.11 32.198 0.16 7.35 7.64 13.91
12/16/2020 11:30:00 PM 0.08 32.144 0.141 7.31 70.48 13.94
12/16/2020 11:45:00 PM 0.03 32.054 0.15 7.34 99.22 13.97
12/17/2020 12:00:00 AM 0.01 32.018 0.161 7.38 5.01 13.97
12/17/2020 12:15:00 AM 0.07 32.126 0.161 7.31 86.88 13.96
12/17/2020 12:30:00 AM 0.05 32.09 0.16 7.28 265.55 13.94
12/17/2020 12:45:00 AM 0.03 32.054 0.16 7.3 8.96 13.95
12/17/2020 1:00:00 AM 0 32 0.153 7.34 9.45 13.95
12/17/2020 1:15:00 AM -0.02 31.964 0.162 7.38 6.8 13.95
12/17/2020 1:30:00 AM 0.02 32.036 0.162 7.36 63.95 13.92
12/17/2020 1:45:00 AM -0.01 31.982 0.163 7.35 155.63 13.88
12/17/2020 2:00:00 AM -0.01 31.982 0.165 7.37 6.53 13.91
12/17/2020 2:15:00 AM 0.01 32.018 0.165 7.36 9.12 13.9
12/17/2020 2:30:00 AM -0.01 31.982 0.165 7.38 16.52 13.91
12/17/2020 2:45:00 AM -0.03 31.946 0.167 7.38 5.39 13.95
12/17/2020 3:00:00 AM -0.02 31.964 0.167 7.35 5.32 13.92
12/17/2020 3:15:00 AM -0.01 31.982 0.167 7.36 5.33 13.92
12/17/2020 3:30:00 AM -0.01 31.982 0.168 7.35 6.34 13.9
12/17/2020 3:45:00 AM 0.03 32.054 0.167 7.32 47.28 13.88
12/17/2020 4:00:00 AM 0 32 0.164 7.32 126.77 13.88
12/17/2020 4:15:00 AM 0.1 32.18 0.166 7.28 129.29 13.81
12/17/2020 4:30:00 AM 0.08 32.144 0.169 7.32 152.11 13.86
12/17/2020 4:45:00 AM 0.07 32.126 0.173 7.32 6.9 13.82
12/17/2020 5:00:00 AM 0.04 32.072 0.147 7.32 53.16 13.79
12/17/2020 5:15:00 AM 0.05 32.09 0.167 7.35 152.83 13.76
12/17/2020 5:30:00 AM 0.21 32.378 0.178 7.32 5.08 13.7
12/17/2020 5:45:00 AM 0.29 32.522 0.181 7.33 4.29 13.69
12/17/2020 6:00:00 AM 0.28 32.504 0.182 7.33 4.09 13.67
12/17/2020 6:15:00 AM 0.32 32.576 0.184 7.33 4.02 13.68
12/17/2020 6:30:00 AM 0.27 32.486 0.183 7.33 4.34 13.71
12/17/2020 6:45:00 AM 0.27 32.486 0.183 7.31 4.13 13.7
12/17/2020 7:00:00 AM 0.24 32.432 0.182 7.33 4.03 13.7
12/17/2020 7:15:00 AM 0.27 32.486 0.175 7.32 3.87 13.71
12/17/2020 7:30:00 AM 0.2 32.36 0.182 7.31 3.86 13.74
12/17/2020 7:45:00 AM 0.25 32.45 0.183 7.32 3.86 13.77
12/17/2020 8:00:00 AM 0.22 32.396 0.182 7.34 4.18 13.86
12/17/2020 8:15:00 AM 0.23 32.414 0.182 7.37 4.42 13.98
12/17/2020 8:30:00 AM 0.24 32.432 0.182 7.39 5.13 14.15
12/17/2020 8:45:00 AM 0.23 32.414 0.182 7.45 5.24 14.33
12/17/2020 9:00:00 AM 0.22 32.396 0.182 7.49 5.55 14.53
12/17/2020 9:15:00 AM 0.2 32.36 0.181 7.56 5.74 14.7
12/17/2020 9:30:00 AM 0.15 32.27 0.182 7.63 5.75 14.83
12/17/2020 9:45:00 AM 0.22 32.396 0.182 7.67 5.39 14.97
12/17/2020 10:00:00 AM 0.19 32.342 0.182 7.74 6.86 15.04
12/17/2020 10:15:00 AM 0.2 32.36 0.182 7.74 5.03 15.09
12/17/2020 10:30:00 AM 0.24 32.432 0.182 7.8 9.39 15.17
12/17/2020 10:45:00 AM 0.26 32.468 0.181 7.82 869.71 15.19
12/17/2020 11:00:00 AM 0.25 32.45 0.18 7.88 7.81 15.21
12/17/2020 11:15:00 AM 0.3 32.54 0.18 7.9 8.49 15.22
12/17/2020 11:30:00 AM 0.25 32.45 0.178 7.96 10.12 15.21
12/17/2020 11:45:00 AM 0.23 32.414 0.177 7.96 6.73 15.27
12/17/2020 12:00:00 PM 0.27 32.486 0.175 7.97 8.29 15.26
12/17/2020 12:15:00 PM 0.27 32.486 0.175 7.98 7.82 15.26
12/17/2020 12:30:00 PM 0.24 32.432 0.174 7.96 7.35 15.23
12/17/2020 12:45:00 PM 0.19 32.342 0.173 7.93 8.33 15.2
12/17/2020 1:00:00 PM 0.22 32.396 0.171 7.95 8.2 15.22
12/17/2020 1:15:00 PM 0.26 32.468 0.172 7.97 8.2 15.25
12/17/2020 1:30:00 PM 0.26 32.468 0.17 7.96 8.72 15.26
12/17/2020 1:45:00 PM 0.24 32.432 0.169 8 8.92 15.26
12/17/2020 2:00:00 PM 0.25 32.45 0.169 7.98 9.2 15.27
12/17/2020 2:15:00 PM 0.22 32.396 0.167 8 8.95 15.26
12/17/2020 2:30:00 PM 0.23 32.414 0.166 7.99 8.81 15.24
12/17/2020 2:45:00 PM 0.2 32.36 0.165 7.98 8.6 15.21
12/17/2020 3:00:00 PM 0.19 32.342 0.164 7.93 7.69 15.17
12/17/2020 3:15:00 PM 0.17 32.306 0.163 7.9 7.18 15.12
12/17/2020 3:30:00 PM 0.16 32.288 0.163 7.87 7.55 15.08
12/17/2020 3:45:00 PM 0.15 32.27 0.163 7.81 7.97 14.98
12/17/2020 4:00:00 PM 0.13 32.234 0.161 7.73 7.5 14.85
12/17/2020 4:15:00 PM 0.13 32.234 0.16 7.66 7.33 14.72
12/17/2020 4:30:00 PM 0.13 32.234 0.16 7.6 7.55 14.59
12/17/2020 4:45:00 PM 0.11 32.198 0.16 7.55 7.45 14.46
12/17/2020 5:00:00 PM 0.1 32.18 0.16 7.49 7.36 14.35
12/17/2020 5:15:00 PM 0.1 32.18 0.16 7.46 8.41 14.27
12/17/2020 5:30:00 PM 0.08 32.144 0.16 7.44 6.79 14.23
12/17/2020 5:45:00 PM 0.09 32.162 0.16 7.42 6.28 14.2
12/17/2020 6:00:00 PM 0.09 32.162 0.159 7.39 6.19 14.17
12/17/2020 6:15:00 PM 0.09 32.162 0.159 7.4 6.22 14.16
12/17/2020 6:30:00 PM 0.1 32.18 0.158 7.4 6.24 14.14
12/17/2020 6:45:00 PM 0.11 32.198 0.158 7.38 5.84 14.14
12/17/2020 7:00:00 PM 0.11 32.198 0.158 7.37 5.99 14.11
12/17/2020 7:15:00 PM 0.11 32.198 0.157 7.36 5.75 14.11
12/17/2020 7:30:00 PM 0.11 32.198 0.157 7.38 5.91 14.11
12/17/2020 7:45:00 PM 0.12 32.216 0.157 7.36 5.73 14.1
12/17/2020 8:00:00 PM 0.12 32.216 0.157 7.36 5.62 14.09
12/17/2020 8:15:00 PM 0.13 32.234 0.157 7.35 5.6 14.09
12/17/2020 8:30:00 PM 0.12 32.216 0.156 7.33 5.61 14.09
12/17/2020 8:45:00 PM 0.13 32.234 0.156 7.3 5.79 14.09
12/17/2020 9:00:00 PM 0.13 32.234 0.155 7.31 5.51 14.08
12/17/2020 9:15:00 PM 0.13 32.234 0.155 7.32 5.57 14.08
12/17/2020 9:30:00 PM 0.13 32.234 0.155 7.32 5.63 14.08
12/17/2020 9:45:00 PM 0.14 32.252 0.155 7.33 5.58 14.07
12/17/2020 10:00:00 PM 0.14 32.252 0.154 7.32 5.45 14.07
12/17/2020 10:15:00 PM 0.13 32.234 0.154 7.31 5.46 14.08
12/17/2020 10:30:00 PM 0.14 32.252 0.153 7.31 5.51 14.08
12/17/2020 10:45:00 PM 0.12 32.216 0.153 7.32 5.48 14.08
12/17/2020 11:00:00 PM 0.13 32.234 0.153 7.31 5.39 14.07
12/17/2020 11:15:00 PM 0.13 32.234 0.152 7.32 5.45 14.07
12/17/2020 11:30:00 PM 0.14 32.252 0.152 7.32 5.48 14.07
12/17/2020 11:45:00 PM 0.14 32.252 0.152 7.32 5.56 14.07
12/18/2020 12:00:00 AM 0.15 32.27 0.152 7.3 5.9 14.07
12/18/2020 12:15:00 AM 0.16 32.288 0.151 7.3 5.5 14.06
12/18/2020 12:30:00 AM 0.15 32.27 0.151 7.32 5.38 14.07
12/18/2020 12:45:00 AM 0.15 32.27 0.148 7.3 5.07 14.07
12/18/2020 1:00:00 AM 0.14 32.252 0.15 7.29 5.19 14.06
12/18/2020 1:15:00 AM 0.15 32.27 0.15 7.31 5.2 14.06
12/18/2020 1:30:00 AM 0.15 32.27 0.15 7.3 5.82 14.06
12/18/2020 1:45:00 AM 0.14 32.252 0.149 7.31 5.98 14.07
12/18/2020 2:00:00 AM 0.15 32.27 0.149 7.31 5.8 14.06
12/18/2020 2:15:00 AM 0.16 32.288 0.149 7.31 5.57 14.06
12/18/2020 2:30:00 AM 0.15 32.27 0.148 7.3 5.58 14.06
12/18/2020 2:45:00 AM 0.15 32.27 0.148 7.29 5.91 14.06
12/18/2020 3:00:00 AM 0.16 32.288 0.148 7.3 6 14.06
12/18/2020 3:15:00 AM 0.15 32.27 0.148 7.29 5.72 14.07
12/18/2020 3:30:00 AM 0.15 32.27 0.148 7.29 5.92 14.08
12/18/2020 3:45:00 AM 0.15 32.27 0.148 7.29 5.74 14.07
12/18/2020 4:00:00 AM 0.15 32.27 0.148 7.29 5.99 14.07
12/18/2020 4:15:00 AM 0.16 32.288 0.148 7.28 5.89 14.06
12/18/2020 4:30:00 AM 0.16 32.288 0.148 7.29 5.68 14.06
12/18/2020 4:45:00 AM 0.15 32.27 0.148 7.29 5.61 14.07
12/18/2020 5:00:00 AM 0.15 32.27 0.148 7.29 5.67 14.07
12/18/2020 5:15:00 AM 0.14 32.252 0.148 7.29 5.68 14.08
12/18/2020 5:30:00 AM 0.16 32.288 0.148 7.29 5.69 14.07
12/18/2020 5:45:00 AM 0.16 32.288 0.148 7.27 5.68 14.08
12/18/2020 6:00:00 AM 0.15 32.27 0.148 7.27 5.91 14.08
12/18/2020 6:15:00 AM 0.17 32.306 0.148 7.26 5.8 14.07
12/18/2020 6:30:00 AM 0.17 32.306 0.148 7.28 5.82 14.07
12/18/2020 6:45:00 AM 0.14 32.252 0.148 7.28 5.79 14.09
12/18/2020 7:00:00 AM 0.16 32.288 0.148 7.28 5.73 14.08
12/18/2020 7:15:00 AM 0.16 32.288 0.148 7.27 5.37 14.09
12/18/2020 7:30:00 AM 0.17 32.306 0.149 7.29 5.78 14.09
12/18/2020 7:45:00 AM 0.17 32.306 0.148 7.29 5.73 14.12
12/18/2020 8:00:00 AM 0.16 32.288 0.148 7.3 5.69 14.18
12/18/2020 8:15:00 AM 0.16 32.288 0.148 7.31 5.7 14.25
12/18/2020 8:30:00 AM 0.17 32.306 0.149 7.35 5.64 14.32
12/18/2020 8:45:00 AM 0.18 32.324 0.148 7.37 5.62 14.41
12/18/2020 9:00:00 AM 0.2 32.36 0.149 7.38 5.62 14.49
12/18/2020 9:15:00 AM 0.2 32.36 0.148 7.42 5.77 14.61
12/18/2020 9:30:00 AM 0.2 32.36 0.148 7.45 5.68 14.7
12/18/2020 9:45:00 AM 0.21 32.378 0.148 7.48 5.65 14.79
12/18/2020 10:00:00 AM 0.22 32.396 0.148 7.53 5.71 14.88
12/18/2020 10:15:00 AM 0.24 32.432 0.148 7.56 5.84 14.97
12/18/2020 10:30:00 AM 0.23 32.414 0.148 7.59 6.05 15.05
12/18/2020 10:45:00 AM 0.27 32.486 0.149 7.68 6.38 15.15
12/18/2020 11:00:00 AM 0.3 32.54 0.148 7.74 6.19 15.23
12/18/2020 11:15:00 AM 0.31 32.558 0.148 7.79 5.85 15.31
12/18/2020 11:30:00 AM 0.35 32.63 0.148 7.82 6.08 15.34
12/18/2020 11:45:00 AM 0.38 32.684 0.147 7.91 6.38 15.4
12/18/2020 12:00:00 PM 0.42 32.756 0.147 7.95 6.58 15.42
12/18/2020 12:15:00 PM 0.48 32.864 0.147 7.98 6.87 15.43
12/18/2020 12:30:00 PM 0.45 32.81 0.146 7.98 8.44 15.4
12/18/2020 12:45:00 PM 0.46 32.828 0.146 7.96 6.43 15.37
12/18/2020 1:00:00 PM 0.42 32.756 0.146 7.93 5.89 15.34
12/18/2020 1:15:00 PM 0.4 32.72 0.146 7.93 5.91 15.33
12/18/2020 1:30:00 PM 0.4 32.72 0.146 7.92 5.71 15.3
12/18/2020 1:45:00 PM 0.39 32.702 0.146 7.9 5.6 15.28
12/18/2020 2:00:00 PM 0.38 32.684 0.146 7.88 6.39 15.26
12/18/2020 2:15:00 PM 0.37 32.666 0.146 7.82 5.21 15.24
12/18/2020 2:30:00 PM 0.34 32.612 0.146 7.78 11.88 15.22
12/18/2020 2:45:00 PM 0.31 32.558 0.146 7.75 11.82 15.19
12/18/2020 3:00:00 PM 0.28 32.504 0.146 7.72 11.56 15.15
12/18/2020 3:15:00 PM 0.27 32.486 0.147 7.68 11.67 15.1
12/18/2020 3:30:00 PM 0.25 32.45 0.147 7.63 6.77 15.04
12/18/2020 3:45:00 PM 0.21 32.378 0.147 7.59 8.83 14.96
12/18/2020 4:00:00 PM 0.18 32.324 0.147 7.59 4.9 14.86
12/18/2020 4:15:00 PM 0.17 32.306 0.148 7.55 5.44 14.76
12/18/2020 4:30:00 PM 0.14 32.252 0.148 7.5 11 14.64
12/18/2020 4:45:00 PM 0.12 32.216 0.148 7.45 11.43 14.52
12/18/2020 5:00:00 PM 0.12 32.216 0.149 7.41 13.1 14.42
12/18/2020 5:15:00 PM 0.08 32.144 0.149 7.38 5.63 14.36
12/18/2020 5:30:00 PM 0.09 32.162 0.149 7.36 9.39 14.34
12/18/2020 5:45:00 PM 0.1 32.18 0.149 7.36 7.69 14.31
12/18/2020 6:00:00 PM 0.1 32.18 0.15 7.34 9.43 14.31
12/18/2020 6:15:00 PM 0.11 32.198 0.15 7.32 10.27 14.28
12/18/2020 6:30:00 PM 0.11 32.198 0.151 7.32 12.52 14.27
12/18/2020 6:45:00 PM 0.12 32.216 0.152 7.31 8.22 14.27
12/18/2020 7:00:00 PM 0.11 32.198 0.152 7.34 12.58 14.27
12/18/2020 7:15:00 PM 0.11 32.198 0.152 7.34 9.05 14.27
12/18/2020 7:30:00 PM 0.12 32.216 0.153 7.33 9.68 14.26
12/18/2020 7:45:00 PM 0.1 32.18 0.153 7.33 8.53 14.26
12/18/2020 8:00:00 PM 0.12 32.216 0.154 7.32 8 14.26
12/18/2020 8:15:00 PM 0.12 32.216 0.154 7.31 17.36 14.25
12/18/2020 8:30:00 PM 0.11 32.198 0.155 7.32 8.46 14.27
12/18/2020 8:45:00 PM 0.11 32.198 0.155 7.33 8.51 14.27
12/18/2020 9:00:00 PM 0.11 32.198 0.155 7.32 9.49 14.26
12/18/2020 9:15:00 PM 0.14 32.252 0.156 7.33 8.49 14.25
12/18/2020 9:30:00 PM 0.13 32.234 0.156 7.33 7.49 14.24
12/18/2020 9:45:00 PM 0.13 32.234 0.156 7.33 7.64 14.25
12/18/2020 10:00:00 PM 0.13 32.234 0.157 7.32 10.14 14.26
12/18/2020 10:15:00 PM 0.14 32.252 0.157 7.34 6.89 14.25
12/18/2020 10:30:00 PM 0.14 32.252 0.157 7.32 6.1 14.25
12/18/2020 10:45:00 PM 0.1 32.18 0.157 7.32 11.48 14.28
12/18/2020 11:00:00 PM 0.11 32.198 0.157 7.31 11.01 14.28
12/18/2020 11:15:00 PM 0.07 32.126 0.157 7.33 9.16 14.3
12/18/2020 11:30:00 PM 0.07 32.126 0.158 7.33 12.21 14.31
12/18/2020 11:45:00 PM 0.07 32.126 0.158 7.34 8.76 14.31
12/19/2020 12:00:00 AM 0.06 32.108 0.158 7.32 8.02 14.32
12/19/2020 12:15:00 AM 0.08 32.144 0.159 7.32 10.76 14.3
12/19/2020 12:30:00 AM 0.09 32.162 0.16 7.33 10.94 14.28
12/19/2020 12:45:00 AM 0.08 32.144 0.16 7.33 11.13 14.3
12/19/2020 1:00:00 AM 0.1 32.18 0.161 7.33 11.03 14.29
12/19/2020 1:15:00 AM 0.08 32.144 0.161 7.31 11.96 14.3
12/19/2020 1:30:00 AM 0.08 32.144 0.162 7.29 16.05 14.31
12/19/2020 1:45:00 AM 0.06 32.108 0.162 7.31 11.66 14.31
12/19/2020 2:00:00 AM 0.04 32.072 0.162 7.29 10.82 14.32
12/19/2020 2:15:00 AM 0.05 32.09 0.162 7.32 11.53 14.32
12/19/2020 2:30:00 AM 0.05 32.09 0.163 7.28 13.34 14.32
12/19/2020 2:45:00 AM 0.05 32.09 0.163 7.29 8.28 14.32
12/19/2020 3:00:00 AM 0.05 32.09 0.163 7.3 10.98 14.32
12/19/2020 3:15:00 AM 0.05 32.09 0.164 7.28 3.02 14.33
12/19/2020 3:30:00 AM 0.06 32.108 0.164 7.29 2.84 14.31
12/19/2020 3:45:00 AM 0.05 32.09 0.165 7.29 2.91 14.31
12/19/2020 4:00:00 AM 0.06 32.108 0.165 7.3 2.82 14.31
12/19/2020 4:15:00 AM 0.05 32.09 0.166 7.28 3.85 14.31
12/19/2020 4:30:00 AM 0.06 32.108 0.166 7.29 2.79 14.32
12/19/2020 4:45:00 AM 0.06 32.108 0.167 7.28 2.98 14.31
12/19/2020 5:00:00 AM 0.07 32.126 0.167 7.29 4.3 14.3
12/19/2020 5:15:00 AM 0.06 32.108 0.167 7.28 3.18 14.3
12/19/2020 5:30:00 AM 0.07 32.126 0.168 7.27 3.85 14.29
12/19/2020 5:45:00 AM 0.07 32.126 0.168 7.27 3.06 14.3
12/19/2020 6:00:00 AM 0.06 32.108 0.168 7.28 2.27 14.3
12/19/2020 6:15:00 AM 0.07 32.126 0.169 7.28 2.39 14.28
12/19/2020 6:30:00 AM 0.08 32.144 0.169 7.29 2.36 14.28
12/19/2020 6:45:00 AM 0.05 32.09 0.169 7.25 2.48 14.3
12/19/2020 7:00:00 AM 0.06 32.108 0.169 7.28 2.55 14.3
12/19/2020 7:15:00 AM 0.05 32.09 0.169 7.29 2.56 14.3
12/19/2020 7:30:00 AM 0.06 32.108 0.17 7.29 2.35 14.31
12/19/2020 7:45:00 AM 0.06 32.108 0.17 7.3 2.34 14.34
12/19/2020 8:00:00 AM 0.06 32.108 0.17 7.32 2.31 14.41
12/19/2020 8:15:00 AM 0.06 32.108 0.17 7.32 2.51 14.5
12/19/2020 8:30:00 AM 0.06 32.108 0.169 7.35 2.44 14.59
12/19/2020 8:45:00 AM 0.06 32.108 0.17 7.37 2.57 14.71
12/19/2020 9:00:00 AM 0.06 32.108 0.169 7.4 2.4 14.82
12/19/2020 9:15:00 AM 0.08 32.144 0.169 7.45 2.57 14.96
12/19/2020 9:30:00 AM 0.08 32.144 0.169 7.5 2.62 15.08
12/19/2020 9:45:00 AM 0.07 32.126 0.168 7.55 2.78 15.17
12/19/2020 10:00:00 AM 0.06 32.108 0.168 7.59 2.93 15.27
12/19/2020 10:15:00 AM 0.06 32.108 0.167 7.63 2.92 15.35
12/19/2020 10:30:00 AM 0.06 32.108 0.167 7.66 3.33 15.39
12/19/2020 10:45:00 AM 0.02 32.036 0.165 7.7 3.08 15.44
12/19/2020 11:00:00 AM 0.05 32.09 0.165 7.75 3.05 15.48
12/19/2020 11:15:00 AM 0.04 32.072 0.164 7.76 3.18 15.49
12/19/2020 11:30:00 AM 0.03 32.054 0.163 7.8 3.52 15.51
12/19/2020 11:45:00 AM 0.03 32.054 0.162 7.81 5.24 15.51
12/19/2020 12:00:00 PM 0.02 32.036 0.162 7.85 9.43 15.46
12/19/2020 12:15:00 PM 0.05 32.09 0.162 7.91 9.13 15.47
12/19/2020 12:30:00 PM 0.05 32.09 0.162 7.91 8.2 15.5
12/19/2020 12:45:00 PM 0.04 32.072 0.16 7.92 8.17 15.51
12/19/2020 1:00:00 PM 0.03 32.054 0.16 7.91 6.73 15.51
12/19/2020 1:15:00 PM 0.03 32.054 0.158 7.93 10.75 15.51
12/19/2020 1:30:00 PM 0.05 32.09 0.157 7.92 7.4 15.49
12/19/2020 1:45:00 PM 0.05 32.09 0.156 7.97 6.03 15.47
12/19/2020 2:00:00 PM 0.06 32.108 0.155 7.94 6.52 15.44
12/19/2020 2:15:00 PM 0.06 32.108 0.155 7.95 6.29 15.43
12/19/2020 2:30:00 PM 0.08 32.144 0.156 7.93 5.81 15.4
12/19/2020 2:45:00 PM 0.08 32.144 0.156 7.94 5.44 15.37
12/19/2020 3:00:00 PM 0.09 32.162 0.155 7.92 5.09 15.34
12/19/2020 3:15:00 PM 0.1 32.18 0.155 7.91 4.98 15.31
12/19/2020 3:30:00 PM 0.13 32.234 0.155 7.87 5 15.24
12/19/2020 3:45:00 PM 0.12 32.216 0.155 7.8 4.43 15.16
12/19/2020 4:00:00 PM 0.13 32.234 0.155 7.76 4.38 15.06
12/19/2020 4:15:00 PM 0.11 32.198 0.155 7.68 4.08 14.92
12/19/2020 4:30:00 PM 0.12 32.216 0.155 7.6 3.91 14.75
12/19/2020 4:45:00 PM 0.12 32.216 0.155 7.55 3.92 14.6
12/19/2020 5:00:00 PM 0.14 32.252 0.156 7.49 4.02 14.46
12/19/2020 5:15:00 PM 0.13 32.234 0.156 7.45 3.93 14.36
12/19/2020 5:30:00 PM 0.14 32.252 0.156 7.42 3.68 14.29
12/19/2020 5:45:00 PM 0.17 32.306 0.156 7.41 3.4 14.24
12/19/2020 6:00:00 PM 0.15 32.27 0.156 7.39 3.35 14.19
12/19/2020 6:15:00 PM 0.16 32.288 0.156 7.36 3.18 14.16
12/19/2020 6:30:00 PM 0.17 32.306 0.156 7.37 3.07 14.12
12/19/2020 6:45:00 PM 0.16 32.288 0.156 7.36 3.03 14.12
12/19/2020 7:00:00 PM 0.17 32.306 0.156 7.35 3.03 14.09
12/19/2020 7:15:00 PM 0.17 32.306 0.156 7.35 2.99 14.08
12/19/2020 7:30:00 PM 0.17 32.306 0.156 7.35 2.94 14.07
12/19/2020 7:45:00 PM 0.17 32.306 0.156 7.34 2.9 14.05
12/19/2020 8:00:00 PM 0.17 32.306 0.156 7.33 3.11 14.04
12/19/2020 8:15:00 PM 0.18 32.324 0.156 7.34 2.93 14.04
12/19/2020 8:30:00 PM 0.2 32.36 0.156 7.32 2.93 14.01
12/19/2020 8:45:00 PM 0.19 32.342 0.157 7.34 2.97 14.02
12/19/2020 9:00:00 PM 0.17 32.306 0.156 7.32 2.94 14.02
12/19/2020 9:15:00 PM 0.18 32.324 0.156 7.33 2.95 14.02
12/19/2020 9:30:00 PM 0.2 32.36 0.157 7.32 2.81 14.01
12/19/2020 9:45:00 PM 0.19 32.342 0.157 7.32 2.79 14.01
12/19/2020 10:00:00 PM 0.17 32.306 0.156 7.32 2.9 14
12/19/2020 10:15:00 PM 0.2 32.36 0.156 7.33 2.82 14
12/19/2020 10:30:00 PM 0.19 32.342 0.156 7.33 2.81 14.01
12/19/2020 10:45:00 PM 0.2 32.36 0.156 7.32 2.71 14
12/19/2020 11:00:00 PM 0.21 32.378 0.156 7.32 2.76 13.97
12/19/2020 11:15:00 PM 0.2 32.36 0.156 7.31 2.75 13.98
12/19/2020 11:30:00 PM 0.21 32.378 0.156 7.32 2.67 13.98
12/19/2020 11:45:00 PM 0.21 32.378 0.156 7.31 2.61 13.98
12/20/2020 12:00:00 AM 0.19 32.342 0.156 7.33 2.67 13.99
12/20/2020 12:15:00 AM 0.21 32.378 0.156 7.31 2.77 13.98
12/20/2020 12:30:00 AM 0.22 32.396 0.156 7.34 2.52 13.97
12/20/2020 12:45:00 AM 0.21 32.378 0.156 7.34 2.57 13.98
12/20/2020 1:00:00 AM 0.21 32.378 0.156 7.36 2.68 13.98
12/20/2020 1:15:00 AM 0.22 32.396 0.156 7.35 2.67 13.98
12/20/2020 1:30:00 AM 0.23 32.414 0.156 7.34 2.62 13.97
12/20/2020 1:45:00 AM 0.22 32.396 0.155 7.34 2.47 13.99
12/20/2020 2:00:00 AM 0.24 32.432 0.156 7.33 2.52 13.96
12/20/2020 2:15:00 AM 0.25 32.45 0.156 7.33 2.56 13.97
12/20/2020 2:30:00 AM 0.23 32.414 0.156 7.33 2.48 13.97
12/20/2020 2:45:00 AM 0.23 32.414 0.156 7.35 2.6 13.97
12/20/2020 3:00:00 AM 0.24 32.432 0.156 7.35 2.55 13.98
12/20/2020 3:15:00 AM 0.23 32.414 0.156 7.34 2.61 13.99
12/20/2020 3:30:00 AM 0.24 32.432 0.156 7.34 2.42 13.98
12/20/2020 3:45:00 AM 0.26 32.468 0.157 7.32 2.4 13.97
12/20/2020 4:00:00 AM 0.23 32.414 0.156 7.33 2.46 13.99
12/20/2020 4:15:00 AM 0.21 32.378 0.156 7.32 4.37 13.99
12/20/2020 4:30:00 AM 0.23 32.414 0.157 7.33 2.39 13.97
12/20/2020 4:45:00 AM 0.22 32.396 0.157 7.32 2.35 13.99
12/20/2020 5:00:00 AM 0.22 32.396 0.157 7.33 2.26 13.97
12/20/2020 5:15:00 AM 0.22 32.396 0.157 7.32 2.31 13.97
12/20/2020 5:30:00 AM 0.21 32.378 0.157 7.33 2.36 13.99
12/20/2020 5:45:00 AM 0.22 32.396 0.157 7.33 2.32 13.99
12/20/2020 6:00:00 AM 0.22 32.396 0.157 7.34 2.32 13.99
12/20/2020 6:15:00 AM 0.24 32.432 0.157 7.35 2.34 13.98
12/20/2020 6:30:00 AM 0.27 32.486 0.157 7.33 2.29 13.95
12/20/2020 6:45:00 AM 0.26 32.468 0.157 7.34 2.28 13.97
12/20/2020 7:00:00 AM 0.27 32.486 0.157 7.34 2.38 13.95
12/20/2020 7:15:00 AM 0.26 32.468 0.157 7.33 2.38 13.94
12/20/2020 7:30:00 AM 0.23 32.414 0.157 7.33 2.31 13.95
12/20/2020 7:45:00 AM 0.28 32.504 0.158 7.33 2.41 13.95
12/20/2020 8:00:00 AM 0.27 32.486 0.158 7.33 2.36 13.97
12/20/2020 8:15:00 AM 0.27 32.486 0.157 7.37 2.32 14.08
12/20/2020 8:30:00 AM 0.3 32.54 0.157 7.41 2.31 14.24
12/20/2020 8:45:00 AM 0.34 32.612 0.157 7.45 2.35 14.44
12/20/2020 9:00:00 AM 0.37 32.666 0.156 7.52 2.38 14.61
12/20/2020 9:15:00 AM 0.42 32.756 0.156 7.58 2.24 14.74
12/20/2020 9:30:00 AM 0.45 32.81 0.156 7.63 2.24 14.82
12/20/2020 9:45:00 AM 0.5 32.9 0.156 7.67 2.3 14.89
12/20/2020 10:00:00 AM 0.52 32.936 0.155 7.71 2.26 14.96
12/20/2020 10:15:00 AM 0.54 32.972 0.155 7.76 2.25 15.01
12/20/2020 10:30:00 AM 0.54 32.972 0.155 7.77 2.26 15.01
12/20/2020 10:45:00 AM 0.55 32.99 0.155 7.78 2.25 14.99
12/20/2020 11:00:00 AM 0.51 32.918 0.155 7.75 2.31 14.93
12/20/2020 11:15:00 AM 0.5 32.9 0.155 7.74 2.27 14.87
12/20/2020 11:30:00 AM 0.46 32.828 0.155 7.74 2.35 14.84
12/20/2020 11:45:00 AM 0.38 32.684 0.155 7.74 2.36 14.85
12/20/2020 12:00:00 PM 0.38 32.684 0.155 7.75 2.33 14.9
12/20/2020 12:15:00 PM 0.36 32.648 0.155 7.81 2.28 14.99
12/20/2020 12:30:00 PM 0.42 32.756 0.155 7.83 2.23 15
12/20/2020 12:45:00 PM 0.43 32.774 0.154 7.84 2.36 15
12/20/2020 1:00:00 PM 0.45 32.81 0.154 7.84 2.38 14.97
12/20/2020 1:15:00 PM 0.45 32.81 0.154 7.82 2.4 14.91
12/20/2020 1:30:00 PM 0.41 32.738 0.154 7.79 2.29 14.86
12/20/2020 1:45:00 PM 0.39 32.702 0.154 7.77 2.27 14.83
12/20/2020 2:00:00 PM 0.42 32.756 0.155 7.75 2.26 14.78
12/20/2020 2:15:00 PM 0.39 32.702 0.154 7.74 2.2 14.76
12/20/2020 2:30:00 PM 0.35 32.63 0.154 7.71 2.28 14.75
12/20/2020 2:45:00 PM 0.32 32.576 0.153 7.7 2.21 14.72
12/20/2020 3:00:00 PM 0.36 32.648 0.154 7.7 2.23 14.73
12/20/2020 3:15:00 PM 0.39 32.702 0.154 7.67 2.12 14.62
12/20/2020 3:30:00 PM 0.42 32.756 0.154 7.61 2.24 14.49
12/20/2020 3:45:00 PM 0.46 32.828 0.154 7.55 2.17 14.36
12/20/2020 4:00:00 PM 0.48 32.864 0.154 7.52 2.2 14.24
12/20/2020 4:15:00 PM 0.5 32.9 0.155 7.48 2.24 14.14
12/20/2020 4:30:00 PM 0.5 32.9 0.154 7.45 2.16 14.06
12/20/2020 4:45:00 PM 0.5 32.9 0.154 7.43 2.24 14
12/20/2020 5:00:00 PM 0.52 32.936 0.155 7.4 2.22 13.95
12/20/2020 5:15:00 PM 0.53 32.954 0.155 7.39 2.23 13.9
12/20/2020 5:30:00 PM 0.52 32.936 0.155 7.38 2.22 13.87
12/20/2020 5:45:00 PM 0.53 32.954 0.155 7.39 2.2 13.86
12/20/2020 6:00:00 PM 0.54 32.972 0.154 7.39 2.16 13.84
12/20/2020 6:15:00 PM 0.55 32.99 0.154 7.36 2.19 13.81
12/20/2020 6:30:00 PM 0.56 33.008 0.154 7.37 2.18 13.81
12/20/2020 6:45:00 PM 0.57 33.026 0.155 7.36 2.19 13.8
12/20/2020 7:00:00 PM 0.57 33.026 0.155 7.35 2.16 13.8
12/20/2020 7:15:00 PM 0.58 33.044 0.155 7.36 2.22 13.79
12/20/2020 7:30:00 PM 0.6 33.08 0.155 7.35 2.14 13.79
12/20/2020 7:45:00 PM 0.59 33.062 0.155 7.37 2.11 13.79
12/20/2020 8:00:00 PM 0.61 33.098 0.155 7.35 2.16 13.77
12/20/2020 8:15:00 PM 0.61 33.098 0.155 7.36 2.17 13.78
12/20/2020 8:30:00 PM 0.65 33.17 0.155 7.35 2.15 13.75
12/20/2020 8:45:00 PM 0.63 33.134 0.155 7.35 2.17 13.76
12/20/2020 9:00:00 PM 0.65 33.17 0.154 7.36 2.15 13.75
12/20/2020 9:15:00 PM 0.66 33.188 0.155 7.35 2.18 13.75
12/20/2020 9:30:00 PM 0.67 33.206 0.154 7.35 2.1 13.73
12/20/2020 9:45:00 PM 0.69 33.242 0.155 7.35 2.09 13.74
12/20/2020 10:00:00 PM 0.69 33.242 0.155 7.34 2.12 13.73
12/20/2020 10:15:00 PM 0.69 33.242 0.154 7.34 2.05 13.75
12/20/2020 10:30:00 PM 0.71 33.278 0.155 7.34 2.06 13.73
12/20/2020 10:45:00 PM 0.72 33.296 0.155 7.34 2.08 13.73
12/20/2020 11:00:00 PM 0.71 33.278 0.155 7.34 2.07 13.73
12/20/2020 11:15:00 PM 0.74 33.332 0.155 7.33 2.11 13.71
12/20/2020 11:30:00 PM 0.75 33.35 0.155 7.32 2.11 13.69
12/20/2020 11:45:00 PM 0.75 33.35 0.155 7.34 2.08 13.71
12/21/2020 12:00:00 AM 0.75 33.35 0.155 7.35 2.16 13.72
12/21/2020 12:15:00 AM 0.75 33.35 0.155 7.35 2.17 13.71
12/21/2020 12:30:00 AM 0.77 33.386 0.155 7.33 2.12 13.7
12/21/2020 12:45:00 AM 0.77 33.386 0.155 7.35 2.1 13.7
12/21/2020 1:00:00 AM 0.79 33.422 0.155 7.34 2.04 13.68
12/21/2020 1:15:00 AM 0.78 33.404 0.155 7.34 2.15 13.68
12/21/2020 1:30:00 AM 0.8 33.44 0.156 7.34 2.18 13.69
12/21/2020 1:45:00 AM 0.8 33.44 0.155 7.34 2.18 13.68
12/21/2020 2:00:00 AM 0.8 33.44 0.155 7.34 2.18 13.69
12/21/2020 2:15:00 AM 0.81 33.458 0.155 7.33 2.16 13.69
12/21/2020 2:30:00 AM 0.81 33.458 0.155 7.34 2.22 13.68
12/21/2020 2:45:00 AM 0.83 33.494 0.155 7.34 2.2 13.67
12/21/2020 3:00:00 AM 0.83 33.494 0.155 7.34 2.2 13.66
12/21/2020 3:15:00 AM 0.83 33.494 0.155 7.33 2.19 13.67
12/21/2020 3:30:00 AM 0.84 33.512 0.155 7.34 2.22 13.66
12/21/2020 3:45:00 AM 0.85 33.53 0.155 7.34 2.21 13.67
12/21/2020 4:00:00 AM 0.84 33.512 0.155 7.34 2.2 13.67
12/21/2020 4:15:00 AM 0.86 33.548 0.155 7.34 2.18 13.66
12/21/2020 4:30:00 AM 0.87 33.566 0.156 7.31 2.18 13.64
12/21/2020 4:45:00 AM 0.87 33.566 0.155 7.33 2.15 13.65
12/21/2020 5:00:00 AM 0.88 33.584 0.155 7.33 2.15 13.65
12/21/2020 5:15:00 AM 0.89 33.602 0.155 7.33 2.16 13.64
12/21/2020 5:30:00 AM 0.91 33.638 0.155 7.33 2.22 13.63
12/21/2020 5:45:00 AM 0.91 33.638 0.155 7.34 2.22 13.64
12/21/2020 6:00:00 AM 0.91 33.638 0.155 7.33 2.19 13.63
12/21/2020 6:15:00 AM 0.91 33.638 0.155 7.34 2.09 13.63
12/21/2020 6:30:00 AM 0.93 33.674 0.155 7.33 2.15 13.63
12/21/2020 6:45:00 AM 0.93 33.674 0.155 7.33 2.24 13.63
12/21/2020 7:00:00 AM 0.93 33.674 0.157 7.33 2.17 13.62
12/21/2020 7:15:00 AM 0.89 33.602 0.159 7.33 2.24 13.63
12/21/2020 7:30:00 AM 0.91 33.638 0.157 7.36 2.13 13.64
12/21/2020 7:45:00 AM 0.91 33.638 0.157 7.34 2.18 13.69
12/21/2020 8:00:00 AM 0.93 33.674 0.156 7.36 2.18 13.76
12/21/2020 8:15:00 AM 0.95 33.71 0.155 7.4 2.18 13.89
12/21/2020 8:30:00 AM 0.98 33.764 0.155 7.45 2.21 14.02
12/21/2020 8:45:00 AM 1.02 33.836 0.155 7.49 2.17 14.16
12/21/2020 9:00:00 AM 1.06 33.908 0.155 7.54 2.2 14.33
12/21/2020 9:15:00 AM 1.11 33.998 0.154 7.6 2.15 14.47
12/21/2020 9:30:00 AM 1.18 34.124 0.154 7.67 2.28 14.55
12/21/2020 9:45:00 AM 1.23 34.214 0.154 7.73 2.16 14.64
12/21/2020 10:00:00 AM 1.28 34.304 0.156 7.8 2.1 14.71
12/21/2020 10:15:00 AM 1.38 34.484 0.154 7.86 2.19 14.74
12/21/2020 10:30:00 AM 1.44 34.592 0.154 7.92 2.15 14.78
12/21/2020 10:45:00 AM 1.5 34.7 0.154 7.97 2.15 14.8
12/21/2020 11:00:00 AM 1.6 34.88 0.155 8.02 2.13 14.77
12/21/2020 11:15:00 AM 1.67 35.006 0.155 8.04 2.12 14.74
12/21/2020 11:30:00 AM 1.7 35.06 0.154 8.06 2.07 14.71
12/21/2020 11:45:00 AM 1.75 35.15 0.154 8.06 2.12 14.67
12/21/2020 12:00:00 PM 1.8 35.24 0.155 8.05 2.11 14.63
12/21/2020 12:15:00 PM 1.83 35.294 0.155 8.09 2.08 14.61
12/21/2020 12:30:00 PM 1.85 35.33 0.155 8.11 2.14 14.62
12/21/2020 12:45:00 PM 1.9 35.42 0.155 8.11 2.11 14.61
12/21/2020 1:00:00 PM 1.94 35.492 0.154 8.13 2.12 14.59
12/21/2020 1:15:00 PM 1.98 35.564 0.154 8.16 2.14 14.6
12/21/2020 1:30:00 PM 2 35.6 0.154 8.17 2.12 14.59
12/21/2020 1:45:00 PM 2.03 35.654 0.155 8.16 2.18 14.57
12/21/2020 2:00:00 PM 2.01 35.618 0.156 8.15 2.15 14.54
12/21/2020 2:15:00 PM 2.02 35.636 0.155 8.15 2.11 14.53
12/21/2020 2:30:00 PM 2.04 35.672 0.155 8.14 2.21 14.47
12/21/2020 2:45:00 PM 2.03 35.654 0.155 8.11 2.27 14.43
12/21/2020 3:00:00 PM 2.03 35.654 0.155 8.13 2.17 14.45
12/21/2020 3:15:00 PM 2.01 35.618 0.155 8.06 2.13 14.4
12/21/2020 3:30:00 PM 1.98 35.564 0.155 8.01 2.21 14.31
12/21/2020 3:45:00 PM 1.96 35.528 0.155 7.92 2.09 14.2
12/21/2020 4:00:00 PM 1.94 35.492 0.155 7.79 2.06 14
12/21/2020 4:15:00 PM 1.91 35.438 0.155 7.69 2.04 13.82
12/21/2020 4:30:00 PM 1.88 35.384 0.155 7.59 2.06 13.65
12/21/2020 4:45:00 PM 1.87 35.366 0.155 7.51 2.01 13.5
12/21/2020 5:00:00 PM 1.83 35.294 0.155 7.47 2.08 13.42
12/21/2020 5:15:00 PM 1.82 35.276 0.156 7.42 2.05 13.36
12/21/2020 5:30:00 PM 1.79 35.222 0.155 7.42 1.97 13.33
12/21/2020 5:45:00 PM 1.74 35.132 0.155 7.4 2.03 13.32
12/21/2020 6:00:00 PM 1.74 35.132 0.155 7.36 2.05 13.3
12/21/2020 6:15:00 PM 1.71 35.078 0.155 7.37 2.05 13.3
12/21/2020 6:30:00 PM 1.69 35.042 0.156 7.37 1.96 13.3
12/21/2020 6:45:00 PM 1.65 34.97 0.155 7.35 2.01 13.3
12/21/2020 7:00:00 PM 1.66 34.988 0.156 7.35 2.03 13.3
12/21/2020 7:15:00 PM 1.64 34.952 0.156 7.34 2.07 13.3
12/21/2020 7:30:00 PM 1.62 34.916 0.156 7.34 2.03 13.3
12/21/2020 7:45:00 PM 1.62 34.916 0.155 7.34 2.02 13.29
12/21/2020 8:00:00 PM 1.62 34.916 0.155 7.35 1.97 13.3
12/21/2020 8:15:00 PM 1.63 34.934 0.156 7.33 1.99 13.29
12/21/2020 8:30:00 PM 1.62 34.916 0.156 7.33 2.03 13.29
12/21/2020 8:45:00 PM 1.6 34.88 0.155 7.34 2.01 13.29
12/21/2020 9:00:00 PM 1.62 34.916 0.156 7.34 1.99 13.29
12/21/2020 9:15:00 PM 1.61 34.898 0.156 7.34 1.97 13.29
12/21/2020 9:30:00 PM 1.6 34.88 0.155 7.36 2.05 13.31
12/21/2020 9:45:00 PM 1.6 34.88 0.155 7.35 2.02 13.29
12/21/2020 10:00:00 PM 1.59 34.862 0.155 7.34 2 13.29
12/21/2020 10:15:00 PM 1.6 34.88 0.155 7.34 1.98 13.29
12/21/2020 10:30:00 PM 1.59 34.862 0.155 7.34 1.98 13.3
12/21/2020 10:45:00 PM 1.61 34.898 0.156 7.35 1.99 13.29
12/21/2020 11:00:00 PM 1.61 34.898 0.156 7.34 2.01 13.28
12/21/2020 11:15:00 PM 1.56 34.808 0.155 7.31 1.98 13.28
12/21/2020 11:30:00 PM 1.58 34.844 0.155 7.33 1.95 13.27
12/21/2020 11:45:00 PM 1.59 34.862 0.155 7.34 2.01 13.28
12/22/2020 12:00:00 AM 1.59 34.862 0.155 7.33 2.01 13.27
12/22/2020 12:15:00 AM 1.59 34.862 0.155 7.33 2.06 13.28
12/22/2020 12:30:00 AM 1.59 34.862 0.155 7.34 2.1 13.27
12/22/2020 12:45:00 AM 1.6 34.88 0.155 7.33 1.97 13.26
12/22/2020 1:00:00 AM 1.61 34.898 0.155 7.32 2.04 13.27
12/22/2020 1:15:00 AM 1.6 34.88 0.155 7.34 2.03 13.27
12/22/2020 1:30:00 AM 1.61 34.898 0.155 7.33 2.01 13.26
12/22/2020 1:45:00 AM 1.58 34.844 0.155 7.34 2.04 13.27
12/22/2020 2:00:00 AM 1.57 34.826 0.155 7.33 1.97 13.27
12/22/2020 2:15:00 AM 1.56 34.808 0.155 7.34 2.06 13.28
12/22/2020 2:30:00 AM 1.56 34.808 0.155 7.32 2.05 13.27
12/22/2020 2:45:00 AM 1.56 34.808 0.155 7.32 2.04 13.28
12/22/2020 3:00:00 AM 1.56 34.808 0.156 7.33 2.11 13.28
12/22/2020 3:15:00 AM 1.59 34.862 0.156 7.33 2.04 13.27
12/22/2020 3:30:00 AM 1.55 34.79 0.156 7.32 2.04 13.27
12/22/2020 3:45:00 AM 1.55 34.79 0.155 7.32 2.06 13.28
12/22/2020 4:00:00 AM 1.55 34.79 0.156 7.33 2.06 13.28
12/22/2020 4:15:00 AM 1.55 34.79 0.156 7.33 2.03 13.28
12/22/2020 4:30:00 AM 1.56 34.808 0.156 7.34 2.03 13.28
12/22/2020 4:45:00 AM 1.56 34.808 0.156 7.32 1.97 13.27
12/22/2020 5:00:00 AM 1.57 34.826 0.155 7.33 2 13.28
12/22/2020 5:15:00 AM 1.57 34.826 0.156 7.34 1.95 13.28
12/22/2020 5:30:00 AM 1.59 34.862 0.156 7.33 1.95 13.26
12/22/2020 5:45:00 AM 1.6 34.88 0.156 7.32 1.97 13.27
12/22/2020 6:00:00 AM 1.62 34.916 0.156 7.33 2.01 13.27
12/22/2020 6:15:00 AM 1.64 34.952 0.156 7.34 1.97 13.27
12/22/2020 6:30:00 AM 1.64 34.952 0.156 7.33 2.05 13.27
12/22/2020 6:45:00 AM 1.64 34.952 0.156 7.33 2.01 13.27
12/22/2020 7:00:00 AM 1.65 34.97 0.156 7.34 1.98 13.26
12/22/2020 7:15:00 AM 1.68 35.024 0.156 7.33 1.91 13.25
12/22/2020 7:30:00 AM 1.7 35.06 0.156 7.35 1.94 13.26
12/22/2020 7:45:00 AM 1.69 35.042 0.156 7.37 2.07 13.27
12/22/2020 8:00:00 AM 1.7 35.06 0.156 7.37 2.06 13.32
12/22/2020 8:15:00 AM 1.72 35.096 0.156 7.4 2.04 13.43
12/22/2020 8:30:00 AM 1.75 35.15 0.156 7.42 1.99 13.51
12/22/2020 8:45:00 AM 1.76 35.168 0.156 7.43 2.03 13.56
12/22/2020 9:00:00 AM 1.78 35.204 0.156 7.46 2.08 13.67
12/22/2020 9:15:00 AM 1.78 35.204 0.155 7.5 1.99 13.77
12/22/2020 9:30:00 AM 1.82 35.276 0.156 7.53 2.07 13.84
12/22/2020 9:45:00 AM 1.86 35.348 0.156 7.59 1.96 14.02
12/22/2020 10:00:00 AM 1.88 35.384 0.155 7.67 1.96 14.15
12/22/2020 10:15:00 AM 1.91 35.438 0.155 7.71 2.02 14.22
12/22/2020 10:30:00 AM 1.92 35.456 0.155 7.69 1.96 14.13
12/22/2020 10:45:00 AM 2 35.6 0.155 7.78 2.01 14.29
12/22/2020 11:00:00 AM 2.05 35.69 0.155 7.89 2.03 14.44
12/22/2020 11:15:00 AM 2.09 35.762 0.155 7.95 2.06 14.49
12/22/2020 11:30:00 AM 2.14 35.852 0.155 8.03 2.02 14.56
12/22/2020 11:45:00 AM 2.17 35.906 0.154 8.06 2.03 14.57
12/22/2020 12:00:00 PM 2.2 35.96 0.155 8.11 2.05 14.6
12/22/2020 12:15:00 PM 2.18 35.924 0.155 8.05 2.02 14.48
12/22/2020 12:30:00 PM 2.19 35.942 0.155 8.06 2 14.43
12/22/2020 12:45:00 PM 2.21 35.978 0.154 8.06 2.04 14.44
12/22/2020 1:00:00 PM 2.23 36.014 0.155 8.07 1.98 14.42
12/22/2020 1:15:00 PM 2.19 35.942 0.154 7.99 2.04 14.31
12/22/2020 1:30:00 PM 2.21 35.978 0.154 7.99 1.96 14.28
12/22/2020 1:45:00 PM 2.2 35.96 0.154 7.99 2.43 14.32
12/22/2020 2:00:00 PM 2.22 35.996 0.154 8 2.11 14.33
12/22/2020 2:15:00 PM 2.24 36.032 0.154 8.03 2.01 14.36
12/22/2020 2:30:00 PM 2.23 36.014 0.154 8.02 1.98 14.32
12/22/2020 2:45:00 PM 2.22 35.996 0.154 7.93 1.96 14.19
12/22/2020 3:00:00 PM 2.19 35.942 0.157 7.86 2.11 14.13
12/22/2020 3:15:00 PM 2.15 35.87 0.157 7.77 2.18 13.98
12/22/2020 3:30:00 PM 2.16 35.888 0.155 7.69 2.07 13.84
12/22/2020 3:45:00 PM 2.15 35.87 0.155 7.65 2.02 13.8
12/22/2020 4:00:00 PM 2.15 35.87 0.155 7.58 1.96 13.66
12/22/2020 4:15:00 PM 2.12 35.816 0.155 7.53 1.93 13.56
12/22/2020 4:30:00 PM 2.09 35.762 0.156 7.5 2 13.49
12/22/2020 4:45:00 PM 2.08 35.744 0.156 7.46 1.97 13.42
12/22/2020 5:00:00 PM 2.07 35.726 0.156 7.43 1.93 13.36
12/22/2020 5:15:00 PM 2.05 35.69 0.156 7.41 1.92 13.33
12/22/2020 5:30:00 PM 2.02 35.636 0.156 7.42 1.93 13.31
12/22/2020 5:45:00 PM 2 35.6 0.156 7.39 1.97 13.3
12/22/2020 6:00:00 PM 1.97 35.546 0.156 7.36 1.9 13.3
12/22/2020 6:15:00 PM 1.93 35.474 0.156 7.39 1.89 13.3
12/22/2020 6:30:00 PM 1.91 35.438 0.156 7.39 1.93 13.31
12/22/2020 6:45:00 PM 1.89 35.402 0.157 7.37 1.92 13.32
12/22/2020 7:00:00 PM 1.87 35.366 0.156 7.37 1.89 13.32
12/22/2020 7:15:00 PM 1.85 35.33 0.156 7.35 1.9 13.34
12/22/2020 7:30:00 PM 1.83 35.294 0.157 7.36 1.9 13.35
12/22/2020 7:45:00 PM 1.81 35.258 0.157 7.38 1.94 13.37
12/22/2020 8:00:00 PM 1.8 35.24 0.157 7.37 1.93 13.37
12/22/2020 8:15:00 PM 1.78 35.204 0.157 7.36 1.92 13.37
12/22/2020 8:30:00 PM 1.77 35.186 0.157 7.36 1.95 13.38
12/22/2020 8:45:00 PM 1.76 35.168 0.157 7.38 1.91 13.39
12/22/2020 9:00:00 PM 1.75 35.15 0.157 7.37 1.88 13.39
12/22/2020 9:15:00 PM 1.74 35.132 0.157 7.37 1.9 13.41
12/22/2020 9:30:00 PM 1.74 35.132 0.157 7.36 1.88 13.4
12/22/2020 9:45:00 PM 1.72 35.096 0.157 7.36 1.85 13.42
12/22/2020 10:00:00 PM 1.72 35.096 0.157 7.37 1.92 13.41
12/22/2020 10:15:00 PM 1.73 35.114 0.157 7.37 1.9 13.42
12/22/2020 10:30:00 PM 1.72 35.096 0.157 7.38 1.89 13.43
12/22/2020 10:45:00 PM 1.71 35.078 0.157 7.39 1.91 13.44
12/22/2020 11:00:00 PM 1.73 35.114 0.157 7.38 1.86 13.42
12/22/2020 11:15:00 PM 1.7 35.06 0.157 7.37 1.91 13.45
12/22/2020 11:30:00 PM 1.7 35.06 0.157 7.37 1.85 13.44
12/22/2020 11:45:00 PM 1.7 35.06 0.157 7.36 1.85 13.44
12/23/2020 12:00:00 AM 1.7 35.06 0.157 7.37 1.81 13.45
12/23/2020 12:15:00 AM 1.71 35.078 0.157 7.37 1.93 13.44
12/23/2020 12:30:00 AM 1.73 35.114 0.158 7.36 1.9 13.44
12/23/2020 12:45:00 AM 1.73 35.114 0.157 7.37 1.91 13.44
12/23/2020 1:00:00 AM 1.74 35.132 0.157 7.37 1.94 13.44
12/23/2020 1:15:00 AM 1.72 35.096 0.157 7.38 1.9 13.45
12/23/2020 1:30:00 AM 1.73 35.114 0.158 7.37 1.91 13.43
12/23/2020 1:45:00 AM 1.73 35.114 0.157 7.37 1.88 13.43
12/23/2020 2:00:00 AM 1.75 35.15 0.158 7.37 1.86 13.43
12/23/2020 2:15:00 AM 1.74 35.132 0.158 7.34 1.9 13.43
12/23/2020 2:30:00 AM 1.74 35.132 0.158 7.37 1.86 13.43
12/23/2020 2:45:00 AM 1.74 35.132 0.158 7.37 1.92 13.44
12/23/2020 3:00:00 AM 1.74 35.132 0.158 7.36 1.92 13.44
12/23/2020 3:15:00 AM 1.73 35.114 0.158 7.37 1.86 13.45
12/23/2020 3:30:00 AM 1.75 35.15 0.158 7.36 1.87 13.46
12/23/2020 3:45:00 AM 1.75 35.15 0.158 7.37 1.9 13.44
12/23/2020 4:00:00 AM 1.74 35.132 0.158 7.36 1.87 13.45
12/23/2020 4:15:00 AM 1.75 35.15 0.158 7.36 1.92 13.45
12/23/2020 4:30:00 AM 1.74 35.132 0.158 7.35 1.92 13.46
12/23/2020 4:45:00 AM 1.73 35.114 0.158 7.35 1.95 13.45
12/23/2020 5:00:00 AM 1.72 35.096 0.158 7.36 1.85 13.46
12/23/2020 5:15:00 AM 1.71 35.078 0.158 7.36 1.93 13.48
12/23/2020 5:30:00 AM 1.68 35.024 0.158 7.35 1.88 13.47
12/23/2020 5:45:00 AM 1.64 34.952 0.158 7.35 1.91 13.48
12/23/2020 6:00:00 AM 1.62 34.916 0.158 7.36 1.93 13.49
12/23/2020 6:15:00 AM 1.61 34.898 0.158 7.35 1.88 13.5
12/23/2020 6:30:00 AM 1.57 34.826 0.159 7.32 1.94 13.51
12/23/2020 6:45:00 AM 1.53 34.754 0.158 7.34 1.91 13.53
12/23/2020 7:00:00 AM 1.52 34.736 0.158 7.33 1.89 13.55
12/23/2020 7:15:00 AM 1.49 34.682 0.158 7.34 1.89 13.56
12/23/2020 7:30:00 AM 1.45 34.61 0.158 7.33 1.95 13.6
12/23/2020 7:45:00 AM 1.4 34.52 0.159 7.35 1.96 13.69
12/23/2020 8:00:00 AM 1.35 34.43 0.158 7.38 2 13.83
12/23/2020 8:15:00 AM 1.34 34.412 0.158 7.44 1.97 14.03
12/23/2020 8:30:00 AM 1.35 34.43 0.158 7.51 1.97 14.27
12/23/2020 8:45:00 AM 1.39 34.502 0.158 7.59 1.95 14.45
12/23/2020 9:00:00 AM 1.41 34.538 0.158 7.65 1.89 14.58
12/23/2020 9:15:00 AM 1.43 34.574 0.157 7.73 1.9 14.7
12/23/2020 9:30:00 AM 1.51 34.718 0.157 7.84 1.92 14.85
12/23/2020 9:45:00 AM 1.63 34.934 0.157 7.96 1.94 14.98
12/23/2020 10:00:00 AM 1.77 35.186 0.157 8.06 1.88 15.06
12/23/2020 10:15:00 AM 1.9 35.42 0.156 8.15 1.91 15.1
12/23/2020 10:30:00 AM 1.99 35.582 0.157 8.19 1.9 15.07
12/23/2020 10:45:00 AM 2.11 35.798 0.156 8.25 1.94 15.05
12/23/2020 11:00:00 AM 2.25 36.05 0.155 8.28 1.94 15.03
12/23/2020 11:15:00 AM 2.37 36.266 0.156 8.33 1.88 14.99
12/23/2020 11:30:00 AM 2.51 36.518 0.156 8.35 1.92 14.94
12/23/2020 11:45:00 AM 2.61 36.698 0.155 8.36 1.94 14.91
12/23/2020 12:00:00 PM 2.73 36.914 0.156 8.41 1.9 14.89
12/23/2020 12:15:00 PM 2.77 36.986 0.156 8.41 1.92 14.84
12/23/2020 12:30:00 PM 2.84 37.112 0.156 8.41 1.94 14.81
12/23/2020 12:45:00 PM 2.9 37.22 0.156 8.44 1.88 14.8
12/23/2020 1:00:00 PM 2.96 37.328 0.156 8.45 1.98 14.76
12/23/2020 1:15:00 PM 3 37.4 0.156 8.45 2.77 14.74
12/23/2020 1:30:00 PM 3.04 37.472 0.156 8.47 3.62 14.71
12/23/2020 1:45:00 PM 3.09 37.562 0.156 8.49 3.53 14.69
12/23/2020 2:00:00 PM 3.12 37.616 0.156 8.49 2.95 14.67
12/23/2020 2:15:00 PM 3.12 37.616 0.156 8.48 2.63 14.64
12/23/2020 2:30:00 PM 3.09 37.562 0.155 8.47 2.42 14.6
12/23/2020 2:45:00 PM 3.09 37.562 0.156 8.44 2.22 14.53
12/23/2020 3:00:00 PM 3.08 37.544 0.156 6.23 2.13 14.5
12/23/2020 3:15:00 PM 3.03 37.454 0.156 6.22 2.05 14.46
12/23/2020 3:30:00 PM 2.97 37.346 0.156 6.17 2.01 14.31
12/23/2020 3:45:00 PM 2.93 37.274 0.156 6.13 1.99 14.19
12/23/2020 4:00:00 PM 2.87 37.166 0.157 6.1 2.02 14.03
12/23/2020 4:15:00 PM 2.82 37.076 0.157 6.07 2 13.84
12/23/2020 4:30:00 PM 2.74 36.932 0.157 6.03 1.96 13.65
12/23/2020 4:45:00 PM 2.69 36.842 0.157 6.03 1.98 13.48
12/23/2020 5:00:00 PM 2.64 36.752 0.157 6 1.89 13.36
12/23/2020 5:15:00 PM 2.6 36.68 0.158 5.99 1.93 13.28
12/23/2020 5:30:00 PM 2.55 36.59 0.158 5.98 1.98 13.23
12/23/2020 5:45:00 PM 2.51 36.518 0.158 5.98 1.99 13.19
12/23/2020 6:00:00 PM 2.48 36.464 0.159 5.97 1.94 13.19
12/23/2020 6:15:00 PM 2.43 36.374 0.159 5.98 1.9 13.18
12/23/2020 6:30:00 PM 2.41 36.338 0.159 5.97 1.94 13.17
12/23/2020 6:45:00 PM 2.37 36.266 0.159 5.97 1.88 13.19
12/23/2020 7:00:00 PM 2.35 36.23 0.159 5.97 1.88 13.18
12/23/2020 7:15:00 PM 2.34 36.212 0.16 5.97 1.86 13.18
12/23/2020 7:30:00 PM 2.32 36.176 0.16 5.96 1.84 13.19
12/23/2020 7:45:00 PM 2.29 36.122 0.159 6.14 1.88 13.19
12/23/2020 8:00:00 PM 2.27 36.086 0.16 6.01 1.86 13.2
12/23/2020 8:15:00 PM 2.26 36.068 0.16 5.98 1.77 13.2
12/23/2020 8:30:00 PM 2.22 35.996 0.159 5.98 1.85 13.22
12/23/2020 8:45:00 PM 2.2 35.96 0.16 5.97 1.91 13.22
12/23/2020 9:00:00 PM 2.19 35.942 0.16 5.97 1.91 13.22
12/23/2020 9:15:00 PM 2.17 35.906 0.159 5.96 1.92 13.22
12/23/2020 9:30:00 PM 2.16 35.888 0.159 5.98 1.88 13.24
12/23/2020 9:45:00 PM 2.17 35.906 0.16 5.97 1.84 13.22
12/23/2020 10:00:00 PM 2.15 35.87 0.16 5.96 1.9 13.23
12/23/2020 10:15:00 PM 2.15 35.87 0.16 5.97 1.87 13.23
12/23/2020 10:30:00 PM 2.13 35.834 0.159 5.97 1.86 13.24
12/23/2020 10:45:00 PM 2.14 35.852 0.16 5.97 1.93 13.24
12/23/2020 11:00:00 PM 2.13 35.834 0.16 5.98 1.85 13.24
12/23/2020 11:15:00 PM 2.13 35.834 0.159 5.97 1.88 13.22
12/23/2020 11:30:00 PM 2.14 35.852 0.16 5.99 1.85 13.23
12/23/2020 11:45:00 PM 2.14 35.852 0.159 5.99 1.79 13.23
12/24/2020 12:00:00 AM 2.15 35.87 0.159 5.99 1.82 13.22
12/24/2020 12:15:00 AM 2.15 35.87 0.159 5.98 1.86 13.23
12/24/2020 12:30:00 AM 2.15 35.87 0.159 6 1.82 13.21
12/24/2020 12:45:00 AM 2.17 35.906 0.16 5.99 1.84 13.2
12/24/2020 1:00:00 AM 2.17 35.906 0.16 6 1.93 13.2
12/24/2020 1:15:00 AM 2.17 35.906 0.159 6.01 1.85 13.2
12/24/2020 1:30:00 AM 2.18 35.924 0.159 6 1.89 13.19
12/24/2020 1:45:00 AM 2.18 35.924 0.16 6 1.85 13.21
12/24/2020 2:00:00 AM 2.18 35.924 0.16 6.01 1.85 13.2
12/24/2020 2:15:00 AM 2.19 35.942 0.16 6.02 1.82 13.19
12/24/2020 2:30:00 AM 2.18 35.924 0.159 6.01 1.89 13.19
12/24/2020 2:45:00 AM 2.17 35.906 0.159 6.02 1.93 13.19
12/24/2020 3:00:00 AM 2.19 35.942 0.159 6.02 1.91 13.19
12/24/2020 3:15:00 AM 2.2 35.96 0.159 6.03 1.88 13.18
12/24/2020 3:30:00 AM 2.22 35.996 0.16 6.02 1.93 13.18
12/24/2020 3:45:00 AM 2.22 35.996 0.16 6.02 1.85 13.17
12/24/2020 4:00:00 AM 2.21 35.978 0.159 6.03 1.85 13.18
12/24/2020 4:15:00 AM 2.23 36.014 0.159 6.03 1.89 13.16
12/24/2020 4:30:00 AM 2.24 36.032 0.16 6.04 1.82 13.16
12/24/2020 4:45:00 AM 2.23 36.014 0.16 6.03 1.82 13.15
12/24/2020 5:00:00 AM 2.21 35.978 0.16 6.03 1.86 13.16
12/24/2020 5:15:00 AM 2.21 35.978 0.16 6.04 1.91 13.15
12/24/2020 5:30:00 AM 2.21 35.978 0.16 6.03 1.94 13.15
12/24/2020 5:45:00 AM 2.22 35.996 0.16 6.04 1.9 13.14
12/24/2020 6:00:00 AM 2.21 35.978 0.16 6.03 1.95 13.15
12/24/2020 6:15:00 AM 2.22 35.996 0.159 6.05 1.95 13.16
12/24/2020 6:30:00 AM 2.26 36.068 0.159 6.06 1.95 13.16
12/24/2020 6:45:00 AM 2.31 36.158 0.159 6.07 1.92 13.14
12/24/2020 7:00:00 AM 2.35 36.23 0.159 6.06 1.93 13.12
12/24/2020 7:15:00 AM 2.39 36.302 0.159 6.07 1.98 13.11
12/24/2020 7:30:00 AM 2.41 36.338 0.159 6.08 1.91 13.12
12/24/2020 7:45:00 AM 2.46 36.428 0.159 6.07 1.91 13.13
12/24/2020 8:00:00 AM 2.51 36.518 0.159 6.08 1.95 13.19
12/24/2020 8:15:00 AM 2.55 36.59 0.159 6.08 1.94 13.24
12/24/2020 8:30:00 AM 2.61 36.698 0.159 6.08 1.95 13.38
12/24/2020 8:45:00 AM 2.63 36.734 0.158 6.09 2.01 13.45
12/24/2020 9:00:00 AM 2.68 36.824 0.158 6.09 2.04 13.53
12/24/2020 9:15:00 AM 2.75 36.95 0.159 6.09 2.06 13.61
12/24/2020 9:30:00 AM 2.81 37.058 0.159 6.1 2.01 13.74
12/24/2020 9:45:00 AM 2.87 37.166 0.158 6.11 2.08 13.91
12/24/2020 10:00:00 AM 2.92 37.256 0.157 6.09 2.01 13.95
12/24/2020 10:15:00 AM 2.98 37.364 0.158 6.11 2.12 14.03
12/24/2020 10:30:00 AM 3.03 37.454 0.162 6.11 2.11 14.13
12/24/2020 10:45:00 AM 3.1 37.58 0.174 6.12 3.14 14.22
12/24/2020 11:00:00 AM 3.13 37.634 0.175 6.13 4.63 14.26
12/24/2020 11:15:00 AM 3.19 37.742 0.171 6.12 3.99 14.32
12/24/2020 11:30:00 AM 3.2 37.76 0.172 6.11 3.96 14.31
12/24/2020 11:45:00 AM 3.2 37.76 0.178 6.12 5.11 14.28
12/24/2020 12:00:00 PM 3.19 37.742 0.182 6.12 6.13 14.23
12/24/2020 12:15:00 PM 3.17 37.706 0.185 6.11 7.52 14.17
12/24/2020 12:30:00 PM 3.13 37.634 0.189 6.11 9.43 14.11
12/24/2020 12:45:00 PM 3.03 37.454 0.193 6.09 10.35 14.07
12/24/2020 1:00:00 PM 2.94 37.292 0.191 6.09 11.74 14.02
12/24/2020 1:15:00 PM 2.79 37.022 0.186 6.07 230.65 13.95
12/24/2020 1:30:00 PM 2.6 36.68 0.183 6.01 16.87 13.87
12/24/2020 1:45:00 PM 2.35 36.23 0.178 5.97 27.14 13.74
12/24/2020 2:00:00 PM 2.01 35.618 0.176 5.99 45.77 13.62
12/24/2020 2:15:00 PM 1.62 34.916 0.171 5.99 39.74 13.65
12/24/2020 2:30:00 PM 1.44 34.592 0.169 6.01 51.65 13.65
12/24/2020 2:45:00 PM 1.24 34.232 0.166 5.99 86.85 13.66
12/24/2020 3:00:00 PM 1 33.8 0.164 5.97 74.4 13.66
12/24/2020 3:15:00 PM 1.03 33.854 0.163 5.98 85.59 13.66
12/24/2020 3:30:00 PM 1.02 33.836 0.163 5.99 127.96 13.65
12/24/2020 3:45:00 PM 1.15 34.07 0.16 6.06 156.24 13.65
12/24/2020 4:00:00 PM 1.08 33.944 0.155 5.98 178.41 13.68
12/24/2020 4:15:00 PM 1.08 33.944 0.149 5.99 213.83 13.71
12/24/2020 4:30:00 PM 1.07 33.926 0.146 5.99 217.88 13.71
12/24/2020 4:45:00 PM 1.02 33.836 0.142 5.94 291.78 13.73
12/24/2020 5:00:00 PM 1 33.8 0.135 5.97 276.16 13.76
12/24/2020 5:15:00 PM 0.98 33.764 0.069 5.9 317.93 13.78
12/24/2020 5:30:00 PM 0.99 33.782 0.108 5.91 380.73 13.78
12/24/2020 5:45:00 PM 0.98 33.764 0.077 5.88 341.49 13.8
12/24/2020 6:00:00 PM 0.95 33.71 0.065 5.87 3462.56 13.81
12/24/2020 6:15:00 PM 0.96 33.728 0.06 5.9 1168.01 13.81
12/24/2020 6:30:00 PM 0.94 33.692 0.053 5.87 1405.37 13.81
12/24/2020 6:45:00 PM 0.96 33.728 0.049 5.9 1369.52 13.8
12/24/2020 7:00:00 PM 0.95 33.71 0.045 6.06 754.61 13.79
12/24/2020 7:15:00 PM 0.99 33.782 0.043 6.07 853.25 13.77
12/24/2020 7:30:00 PM 1.06 33.908 0.042 6.07 1164.2 13.76
12/24/2020 7:45:00 PM 1.09 33.962 0.045 6.06 1286.66 13.73
12/24/2020 8:00:00 PM 1.08 33.944 0.055 6.14 471.25 13.55
12/24/2020 8:15:00 PM 1.08 33.944 0.047 6.1 599.92 12.69
12/24/2020 8:30:00 PM 1.08 33.944 0.037 6.11 463.38 12.53
12/24/2020 8:45:00 PM 1.08 33.944 0.055 6.04 597.58 13.27
12/24/2020 9:00:00 PM 1.06 33.908 0.047 5.98 657.65 13.65
12/24/2020 9:15:00 PM 1.06 33.908 0.044 5.99 621.57 13.68
12/24/2020 9:30:00 PM 1.05 33.89 0.042 5.94 668.68 13.71
12/24/2020 9:45:00 PM 1.05 33.89 0.041 5.89 734.82 13.7
12/24/2020 10:00:00 PM 1.07 33.926 0.064 5.86 723.88 13.66
12/24/2020 10:15:00 PM 1.14 34.052 0.058 5.76 668.2 13.66
12/24/2020 10:30:00 PM 1.21 34.178 0.059 5.71 510.99 13.66
12/24/2020 10:45:00 PM 1.28 34.304 0.059 5.76 483.3 13.63
12/24/2020 11:00:00 PM 1.36 34.448 0.057 5.74 528.02 13.6
12/24/2020 11:15:00 PM 1.44 34.592 0.058 5.76 455.05 13.56
12/24/2020 11:30:00 PM 1.51 34.718 0.057 5.78 437.61 13.52
12/24/2020 11:45:00 PM 1.59 34.862 0.059 5.79 495.23 13.49
12/25/2020 12:00:00 AM 1.66 34.988 0.055 5.79 380.33 13.46
12/25/2020 12:15:00 AM 1.75 35.15 0.048 5.82 375.3 13.43
12/25/2020 12:30:00 AM 1.82 35.276 0.051 5.8 484.67 13.39
12/25/2020 12:45:00 AM 1.88 35.384 0.049 5.77 521.35 13.37
12/25/2020 1:00:00 AM 1.95 35.51 0.049 5.82 644.66 13.34
12/25/2020 1:15:00 AM 2.02 35.636 0.054 5.79 469.76 13.31
12/25/2020 1:30:00 AM 2.09 35.762 0.052 5.82 429.8 13.28
12/25/2020 1:45:00 AM 2.16 35.888 0.051 5.74 523.61 13.26
12/25/2020 2:00:00 AM 2.24 36.032 0.051 5.79 409.45 13.22
12/25/2020 2:15:00 AM 2.31 36.158 0.051 5.85 474.87 13.19
12/25/2020 2:30:00 AM 2.4 36.32 0.05 5.86 453.61 13.15
12/25/2020 2:45:00 AM 2.48 36.464 0.049 5.86 390.28 13.12
12/25/2020 3:00:00 AM 2.55 36.59 0.052 5.84 400.78 13.1
12/25/2020 3:15:00 AM 2.59 36.662 0.05 5.84 455.4 13.09
12/25/2020 3:30:00 AM 2.62 36.716 0.05 5.84 426.46 13.08
12/25/2020 3:45:00 AM 2.62 36.716 0.047 5.82 467.35 13.08
12/25/2020 4:00:00 AM 2.61 36.698 0.047 5.81 456.65 13.09
12/25/2020 4:15:00 AM 2.59 36.662 0.046 5.81 510.9 13.09
12/25/2020 4:30:00 AM 2.56 36.608 0.046 5.8 542.27 13.1
12/25/2020 4:45:00 AM 2.53 36.554 0.046 5.79 599.86 13.11
12/25/2020 5:00:00 AM 2.52 36.536 0.046 5.81 516.81 13.12
12/25/2020 5:15:00 AM 2.52 36.536 0.045 5.81 419.2 13.12
12/25/2020 5:30:00 AM 2.52 36.536 0.047 5.8 489.45 13.12
12/25/2020 5:45:00 AM 2.5 36.5 0.045 5.8 595.49 13.13
12/25/2020 6:00:00 AM 2.48 36.464 0.045 5.78 507.75 13.12
12/25/2020 6:15:00 AM 2.45 36.41 0.046 5.75 511.28 13.12
12/25/2020 6:30:00 AM 2.44 36.392 0.047 5.75 503.98 13.12
12/25/2020 6:45:00 AM 2.45 36.41 0.047 5.76 502.15 13.12
12/25/2020 7:00:00 AM 2.46 36.428 0.047 5.77 455.86 13.11
12/25/2020 7:15:00 AM 2.49 36.482 0.046 5.8 477.24 13.1
12/25/2020 7:30:00 AM 2.51 36.518 0.048 5.81 464.77 13.09
12/25/2020 7:45:00 AM 2.53 36.554 0.047 5.8 371.62 13.08
12/25/2020 8:00:00 AM 2.56 36.608 0.047 5.81 373.74 13.07
12/25/2020 8:15:00 AM 2.58 36.644 0.047 5.83 397.7 13.06
12/25/2020 8:30:00 AM 2.6 36.68 0.049 5.85 343.06 13.04
12/25/2020 8:45:00 AM 2.62 36.716 0.047 5.85 317.3 13.03
12/25/2020 9:00:00 AM 2.63 36.734 0.047 5.88 255.74 13.03
12/25/2020 9:15:00 AM 2.64 36.752 0.048 5.89 368.66 13.02
12/25/2020 9:30:00 AM 2.63 36.734 0.048 5.91 252.37 13.02
12/25/2020 9:45:00 AM 2.6 36.68 0.048 5.92 204.92 13.01
12/25/2020 10:00:00 AM 2.56 36.608 0.048 5.91 251.62 13.02
12/25/2020 10:15:00 AM 2.53 36.554 0.048 5.94 237.56 13.02
12/25/2020 10:30:00 AM 2.52 36.536 0.049 5.95 233.62 13.03
12/25/2020 10:45:00 AM 2.47 36.446 0.049 5.93 223.09 13.04
12/25/2020 11:00:00 AM 2.45 36.41 0.049 5.96 235.58 13.05
12/25/2020 11:15:00 AM 2.45 36.41 0.049 5.96 208.06 13.05
12/25/2020 11:30:00 AM 2.45 36.41 0.05 5.97 203.18 13.05
12/25/2020 11:45:00 AM 2.45 36.41 0.05 5.99 212.64 13.05
12/25/2020 12:00:00 PM 2.46 36.428 0.05 5.98 187.18 13.04
12/25/2020 12:15:00 PM 2.47 36.446 0.05 5.99 183.15 13.04
12/25/2020 12:30:00 PM 2.5 36.5 0.051 6.02 199.81 13.03
12/25/2020 12:45:00 PM 2.52 36.536 0.051 6.02 149.21 13.01
12/25/2020 1:00:00 PM 2.53 36.554 0.053 6.05 138.47 13.01
12/25/2020 1:15:00 PM 2.53 36.554 0.052 6.02 160.59 13.02
12/25/2020 1:30:00 PM 2.53 36.554 0.052 6.05 152.06 13.02
12/25/2020 1:45:00 PM 2.53 36.554 0.054 6.05 124.76 13.03
12/25/2020 2:00:00 PM 2.54 36.572 0.053 6.06 141.42 13.03
12/25/2020 2:15:00 PM 2.54 36.572 0.053 6.04 107.18 13.03
12/25/2020 2:30:00 PM 2.54 36.572 0.054 6.05 117.98 13.03
12/25/2020 2:45:00 PM 2.54 36.572 0.053 6.08 134.13 13.03
12/25/2020 3:00:00 PM 2.55 36.59 0.053 6.08 135.33 13.03
12/25/2020 3:15:00 PM 2.55 36.59 0.054 6.09 130.99 13.03
12/25/2020 3:30:00 PM 2.56 36.608 0.056 6.11 108.26 13.02
12/25/2020 3:45:00 PM 2.56 36.608 0.054 6.1 95.47 13.02
12/25/2020 4:00:00 PM 2.55 36.59 0.056 6.12 123.38 13.02
12/25/2020 4:15:00 PM 2.55 36.59 0.055 6.12 109.68 13.02
12/25/2020 4:30:00 PM 2.54 36.572 0.055 6.11 104.77 13.02
12/25/2020 4:45:00 PM 2.53 36.554 0.055 6.12 108.78 13.03
12/25/2020 5:00:00 PM 2.53 36.554 0.056 6.12 95.49 13.03
12/25/2020 5:15:00 PM 2.52 36.536 0.055 6.13 89.45 13.04
12/25/2020 5:30:00 PM 2.51 36.518 0.056 6.12 75.21 13.04
12/25/2020 5:45:00 PM 2.49 36.482 0.056 6.12 102.5 13.05
12/25/2020 6:00:00 PM 2.48 36.464 0.056 6.13 101.99 13.05
12/25/2020 6:15:00 PM 2.47 36.446 0.057 6.21 75.71 13.06
12/25/2020 6:30:00 PM 2.47 36.446 0.056 6.21 71.7 13.06
12/25/2020 6:45:00 PM 2.46 36.428 0.057 6.2 75.43 13.07
12/25/2020 7:00:00 PM 2.45 36.41 0.057 6.21 64.05 13.07
12/25/2020 7:15:00 PM 2.45 36.41 0.058 6.21 67.4 13.07
12/25/2020 7:30:00 PM 2.44 36.392 0.057 6.2 61.24 13.08
12/25/2020 7:45:00 PM 2.41 36.338 0.058 6.21 67.38 13.08
12/25/2020 8:00:00 PM 2.38 36.284 0.058 6.2 61.48 13.09
12/25/2020 8:15:00 PM 2.34 36.212 0.058 6.19 53.18 13.11
12/25/2020 8:30:00 PM 2.31 36.158 0.058 6.18 78.07 13.12
12/25/2020 8:45:00 PM 2.27 36.086 0.058 6.14 55.68 13.14
12/25/2020 9:00:00 PM 2.23 36.014 0.059 6.2 82.62 13.15
12/25/2020 9:15:00 PM 2.18 35.924 0.059 6.19 67.24 13.17
12/25/2020 9:30:00 PM 2.14 35.852 0.059 6.18 44.23 13.18
12/25/2020 9:45:00 PM 2.1 35.78 0.059 6.2 53.68 13.2
12/25/2020 10:00:00 PM 2.07 35.726 0.059 6.2 53.18 13.22
12/25/2020 10:15:00 PM 2.03 35.654 0.059 6.19 47.19 13.24
12/25/2020 10:30:00 PM 2.01 35.618 0.061 6.19 59.08 13.25
12/25/2020 10:45:00 PM 1.98 35.564 0.063 6.21 44.97 13.26
12/25/2020 11:00:00 PM 1.96 35.528 0.062 6.18 40.81 13.28
12/25/2020 11:15:00 PM 1.94 35.492 0.061 6.2 44.07 13.29
12/25/2020 11:30:00 PM 1.9 35.42 0.061 6.16 60.66 13.3
12/25/2020 11:45:00 PM 1.88 35.384 0.061 6.21 44.47 13.31
12/26/2020 12:00:00 AM 1.85 35.33 0.062 6.18 45.1 13.32
12/26/2020 12:15:00 AM 1.82 35.276 0.062 6.19 41.45 13.33
12/26/2020 12:30:00 AM 1.79 35.222 0.065 6.22 42.42 13.34
12/26/2020 12:45:00 AM 1.77 35.186 0.065 6.23 45.31 13.36
12/26/2020 1:00:00 AM 1.74 35.132 0.064 6.2 41.78 13.37
12/26/2020 1:15:00 AM 1.71 35.078 0.067 6.22 40.18 13.38
12/26/2020 1:30:00 AM 1.67 35.006 0.064 6.19 31.9 13.39
12/26/2020 1:45:00 AM 1.64 34.952 0.065 6.15 37.19 13.41
12/26/2020 2:00:00 AM 1.6 34.88 0.066 6.21 41.3 13.42
12/26/2020 2:15:00 AM 1.57 34.826 0.065 6.22 33.96 13.44
12/26/2020 2:30:00 AM 1.54 34.772 0.065 6.21 37.89 13.45
12/26/2020 2:45:00 AM 1.51 34.718 0.066 6.22 32.18 13.46
12/26/2020 3:00:00 AM 1.48 34.664 0.066 6.21 30.4 13.48
12/26/2020 3:15:00 AM 1.45 34.61 0.066 6.23 33.48 13.49
12/26/2020 3:30:00 AM 1.42 34.556 0.066 6.22 33.43 13.5
12/26/2020 3:45:00 AM 1.39 34.502 0.065 6.23 33.46 13.52
12/26/2020 4:00:00 AM 1.36 34.448 0.066 6.22 38 13.53
12/26/2020 4:15:00 AM 1.33 34.394 0.066 6.2 64.19 13.54
12/26/2020 4:30:00 AM 1.31 34.358 0.068 6.21 32.89 13.55
12/26/2020 4:45:00 AM 1.28 34.304 0.068 6.21 33.03 13.57
12/26/2020 5:00:00 AM 1.26 34.268 0.066 6.24 34.11 13.58
12/26/2020 5:15:00 AM 1.23 34.214 0.066 6.23 31.64 13.59
12/26/2020 5:30:00 AM 1.21 34.178 0.067 6.24 22.81 13.6
12/26/2020 5:45:00 AM 1.19 34.142 0.067 6.22 29 13.61
12/26/2020 6:00:00 AM 1.16 34.088 0.067 6.23 29.84 13.63
12/26/2020 6:15:00 AM 1.14 34.052 0.067 6.23 28.91 13.63
12/26/2020 6:30:00 AM 1.13 34.034 0.067 6.24 28.04 13.65
12/26/2020 6:45:00 AM 1.11 33.998 0.067 6.23 26.96 13.65
12/26/2020 7:00:00 AM 1.09 33.962 0.067 6.24 26.15 13.66
12/26/2020 7:15:00 AM 1.08 33.944 0.067 6.25 25.89 13.67
12/26/2020 7:30:00 AM 1.06 33.908 0.067 6.21 26.15 13.68
12/26/2020 7:45:00 AM 1.05 33.89 0.066 6.21 25.75 13.69
12/26/2020 8:00:00 AM 1.04 33.872 0.066 6.22 24.76 13.7
12/26/2020 8:15:00 AM 1.03 33.854 0.068 6.23 23.58 13.7
12/26/2020 8:30:00 AM 1.03 33.854 0.068 6.22 24.08 13.71
12/26/2020 8:45:00 AM 1.02 33.836 0.067 6.22 25.17 13.72
12/26/2020 9:00:00 AM 1.04 33.872 0.068 6.24 28.03 13.72
12/26/2020 9:15:00 AM 1.06 33.908 0.068 6.25 23.95 13.72
12/26/2020 9:30:00 AM 1.08 33.944 0.068 6.21 23.3 13.72
12/26/2020 9:45:00 AM 1.1 33.98 0.069 6.25 23.56 13.72
12/26/2020 10:00:00 AM 1.12 34.016 0.068 6.25 21.95 13.71
12/26/2020 10:15:00 AM 1.15 34.07 0.068 6.24 23.33 13.71
12/26/2020 10:30:00 AM 1.19 34.142 0.069 6.25 23.06 13.7
12/26/2020 10:45:00 AM 1.22 34.196 0.068 6.24 23.55 13.69
12/26/2020 11:00:00 AM 1.26 34.268 0.069 6.27 22.24 13.67
12/26/2020 11:15:00 AM 1.3 34.34 0.069 6.26 23.22 13.66
12/26/2020 11:30:00 AM 1.34 34.412 0.069 6.27 22.58 13.65
12/26/2020 11:45:00 AM 1.38 34.484 0.073 6.27 19.64 13.63
12/26/2020 12:00:00 PM 1.42 34.556 0.071 6.25 21.74 13.62
12/26/2020 12:15:00 PM 1.45 34.61 0.069 6.28 21.26 13.6
12/26/2020 12:30:00 PM 1.48 34.664 0.069 6.27 20.73 13.59
12/26/2020 12:45:00 PM 1.51 34.718 0.072 6.28 20.58 13.57
12/26/2020 1:00:00 PM 1.55 34.79 0.072 6.29 20.46 13.56
12/26/2020 1:15:00 PM 1.58 34.844 0.07 6.28 19.75 13.55
12/26/2020 1:30:00 PM 1.6 34.88 0.072 6.29 21.42 13.53
12/26/2020 1:45:00 PM 1.62 34.916 0.072 6.27 21.04 13.52
12/26/2020 2:00:00 PM 1.64 34.952 0.071 6.27 20.45 13.52
12/26/2020 2:15:00 PM 1.65 34.97 0.071 6.27 19.97 13.51
12/26/2020 2:30:00 PM 1.66 34.988 0.073 6.26 19.79 13.51
12/26/2020 2:45:00 PM 1.66 34.988 0.074 6.27 18.78 13.5
12/26/2020 3:00:00 PM 1.65 34.97 0.072 6.26 19.14 13.5
12/26/2020 3:15:00 PM 1.63 34.934 0.073 6.26 19.4 13.51
12/26/2020 3:30:00 PM 1.61 34.898 0.073 6.26 19.5 13.51
12/26/2020 3:45:00 PM 1.58 34.844 0.07 6.25 18.92 13.52
12/26/2020 4:00:00 PM 1.56 34.808 0.071 6.25 19.26 13.53
12/26/2020 4:15:00 PM 1.54 34.772 0.069 6.26 18.73 13.54
12/26/2020 4:30:00 PM 1.51 34.718 0.071 6.26 17.56 13.55
12/26/2020 4:45:00 PM 1.49 34.682 0.072 6.26 20.03 13.56
12/26/2020 5:00:00 PM 1.47 34.646 0.071 6.25 18.45 13.56
12/26/2020 5:15:00 PM 1.44 34.592 0.071 6.26 17.87 13.58
12/26/2020 5:30:00 PM 1.43 34.574 0.072 6.26 17.76 13.58
12/26/2020 5:45:00 PM 1.41 34.538 0.071 6.26 14.23 13.59
12/26/2020 6:00:00 PM 1.39 34.502 0.073 6.26 16.84 13.6
12/26/2020 6:15:00 PM 1.38 34.484 0.071 6.26 17.1 13.61
12/26/2020 6:30:00 PM 1.36 34.448 0.071 6.25 19.13 13.62
12/26/2020 6:45:00 PM 1.33 34.394 0.072 6.26 17.96 13.63
12/26/2020 7:00:00 PM 1.31 34.358 0.071 6.24 19.16 13.64
12/26/2020 7:15:00 PM 1.27 34.286 0.071 6.24 18.01 13.66
12/26/2020 7:30:00 PM 1.25 34.25 0.072 6.27 17.85 13.67
12/26/2020 7:45:00 PM 1.24 34.232 0.071 6.22 17.26 13.68
12/26/2020 8:00:00 PM 1.22 34.196 0.071 6.26 18.14 13.69
12/26/2020 8:15:00 PM 1.21 34.178 0.071 6.23 17.83 13.7
12/26/2020 8:30:00 PM 1.2 34.16 0.071 6.26 17.17 13.7
12/26/2020 8:45:00 PM 1.19 34.142 0.072 6.28 17.24 13.72
12/26/2020 9:00:00 PM 1.18 34.124 0.072 6.28 17.26 13.72
12/26/2020 9:15:00 PM 1.18 34.124 0.072 6.28 16.68 13.73
12/26/2020 9:30:00 PM 1.17 34.106 0.072 6.28 16.84 13.73
12/26/2020 9:45:00 PM 1.16 34.088 0.073 6.28 17.36 13.74
12/26/2020 10:00:00 PM 1.15 34.07 0.072 6.23 17.04 13.74
12/26/2020 10:15:00 PM 1.14 34.052 0.073 6.26 17.28 13.75
12/26/2020 10:30:00 PM 1.14 34.052 0.072 6.26 17.21 13.75
12/26/2020 10:45:00 PM 1.14 34.052 0.073 6.26 17.31 13.75
12/26/2020 11:00:00 PM 1.14 34.052 0.074 6.26 17.05 13.75
12/26/2020 11:15:00 PM 1.14 34.052 0.074 6.29 16.97 13.76
12/26/2020 11:30:00 PM 1.14 34.052 0.074 6.28 16.41 13.76
12/26/2020 11:45:00 PM 1.14 34.052 0.075 6.3 16.47 13.76
12/27/2020 12:00:00 AM 1.13 34.034 0.076 6.24 16.2 13.76
12/27/2020 12:15:00 AM 1.13 34.034 0.075 6.29 16.81 13.77
12/27/2020 12:30:00 AM 1.13 34.034 0.076 6.27 16.37 13.77
12/27/2020 12:45:00 AM 1.13 34.034 0.076 6.28 16 13.77
12/27/2020 1:00:00 AM 1.14 34.052 0.077 6.3 15.99 13.77
12/27/2020 1:15:00 AM 1.14 34.052 0.076 6.25 15.51 13.77
12/27/2020 1:30:00 AM 1.14 34.052 0.074 6.27 16.18 13.78
12/27/2020 1:45:00 AM 1.14 34.052 0.075 6.3 16.37 13.78
12/27/2020 2:00:00 AM 1.14 34.052 0.075 6.28 15.78 13.78
12/27/2020 2:15:00 AM 1.15 34.07 0.076 6.29 15.98 13.79
12/27/2020 2:30:00 AM 1.15 34.07 0.074 6.28 15.78 13.79
12/27/2020 2:45:00 AM 1.16 34.088 0.073 6.28 15.46 13.79
12/27/2020 3:00:00 AM 1.17 34.106 0.073 6.29 15.05 13.79
12/27/2020 3:15:00 AM 1.16 34.088 0.073 6.28 15.17 13.79
12/27/2020 3:30:00 AM 1.17 34.106 0.073 6.29 15.12 13.79
12/27/2020 3:45:00 AM 1.18 34.124 0.073 6.28 15.66 13.79
12/27/2020 4:00:00 AM 1.18 34.124 0.074 6.31 16.01 13.79
12/27/2020 4:15:00 AM 1.18 34.124 0.073 6.3 15.81 13.8
12/27/2020 4:30:00 AM 1.19 34.142 0.072 6.3 15.12 13.79
12/27/2020 4:45:00 AM 1.19 34.142 0.072 6.32 14.81 13.8
12/27/2020 5:00:00 AM 1.19 34.142 0.073 6.3 16.43 13.8
12/27/2020 5:15:00 AM 1.19 34.142 0.073 6.3 16.66 13.8
12/27/2020 5:30:00 AM 1.2 34.16 0.075 6.32 16.22 13.81
12/27/2020 5:45:00 AM 1.2 34.16 0.075 6.28 15.77 13.8
12/27/2020 6:00:00 AM 1.2 34.16 0.074 6.32 15.64 13.81
12/27/2020 6:15:00 AM 1.21 34.178 0.074 6.32 16.09 13.81
12/27/2020 6:30:00 AM 1.21 34.178 0.073 6.29 15.44 13.81
12/27/2020 6:45:00 AM 1.21 34.178 0.072 6.29 15.15 13.81
12/27/2020 7:00:00 AM 1.21 34.178 0.072 6.31 17.05 13.82
12/27/2020 7:15:00 AM 1.21 34.178 0.072 6.31 15.7 13.82
12/27/2020 7:30:00 AM 1.21 34.178 0.073 6.32 15.03 13.82
12/27/2020 7:45:00 AM 1.22 34.196 0.073 6.32 14.95 13.82
12/27/2020 8:00:00 AM 1.22 34.196 0.073 6.32 13.7 13.83
12/27/2020 8:15:00 AM 1.23 34.214 0.071 6.31 14.82 13.83
12/27/2020 8:30:00 AM 1.24 34.232 0.071 6.33 14.93 13.83
12/27/2020 8:45:00 AM 1.26 34.268 0.07 6.34 14.41 13.83
12/27/2020 9:00:00 AM 1.28 34.304 0.071 6.34 13.65 13.83
12/27/2020 9:15:00 AM 1.3 34.34 0.072 6.35 14.64 13.82
12/27/2020 9:30:00 AM 1.34 34.412 0.072 6.34 13.92 13.81
12/27/2020 9:45:00 AM 1.37 34.466 0.071 6.35 14.53 13.81
12/27/2020 10:00:00 AM 1.4 34.52 0.071 6.35 14.24 13.8
12/27/2020 10:15:00 AM 1.44 34.592 0.07 6.36 13.91 13.79
12/27/2020 10:30:00 AM 1.47 34.646 0.069 6.35 15.37 13.79
12/27/2020 10:45:00 AM 1.51 34.718 0.069 6.35 14.74 13.78
12/27/2020 11:00:00 AM 1.55 34.79 0.07 6.37 14.93 13.76
12/27/2020 11:15:00 AM 1.61 34.898 0.069 6.36 15.08 13.75
12/27/2020 11:30:00 AM 1.66 34.988 0.069 6.36 14.47 13.73
12/27/2020 11:45:00 AM 1.72 35.096 0.068 6.37 13.56 13.71
12/27/2020 12:00:00 PM 1.77 35.186 0.068 6.38 13.68 13.69
12/27/2020 12:15:00 PM 1.83 35.294 0.068 6.37 13.68 13.67
12/27/2020 12:30:00 PM 1.88 35.384 0.067 6.38 15.84 13.65
12/27/2020 12:45:00 PM 1.92 35.456 0.068 6.37 14.6 13.63
12/27/2020 1:00:00 PM 1.96 35.528 0.067 6.36 14.37 13.6
12/27/2020 1:15:00 PM 1.99 35.582 0.068 6.34 14.21 13.59
12/27/2020 1:30:00 PM 2.05 35.69 0.067 6.37 14.25 13.57
12/27/2020 1:45:00 PM 2.1 35.78 0.067 6.38 14.25 13.55
12/27/2020 2:00:00 PM 2.15 35.87 0.067 6.37 15.82 13.54
12/27/2020 2:15:00 PM 2.16 35.888 0.065 6.3 14.56 13.52
12/27/2020 2:30:00 PM 2.17 35.906 0.066 6.36 14.14 13.51
12/27/2020 2:45:00 PM 2.18 35.924 0.066 6.36 14.21 13.5
12/27/2020 3:00:00 PM 2.19 35.942 0.066 6.37 13.99 13.49
12/27/2020 3:15:00 PM 2.19 35.942 0.066 6.33 14.28 13.49
12/27/2020 3:30:00 PM 2.18 35.924 0.065 6.36 14.21 13.48
12/27/2020 3:45:00 PM 2.15 35.87 0.066 6.32 15.19 13.49
12/27/2020 4:00:00 PM 2.12 35.816 0.064 6.33 15.24 13.5
12/27/2020 4:15:00 PM 2.09 35.762 0.063 6.3 13.72 13.5
12/27/2020 4:30:00 PM 2.07 35.726 0.064 6.34 14.17 13.5
12/27/2020 4:45:00 PM 2.04 35.672 0.063 6.33 14.75 13.51
12/27/2020 5:00:00 PM 2.01 35.618 0.062 6.33 15.11 13.51
12/27/2020 5:15:00 PM 1.99 35.582 0.061 6.3 15.29 13.52
12/27/2020 5:30:00 PM 1.95 35.51 0.06 6.32 16 13.53
12/27/2020 5:45:00 PM 1.92 35.456 0.059 6.31 14.12 13.54
12/27/2020 6:00:00 PM 1.89 35.402 0.058 6.29 14.15 13.55
12/27/2020 6:15:00 PM 1.86 35.348 0.055 6.31 13.95 13.56
12/27/2020 6:30:00 PM 1.82 35.276 0.054 6.33 12.91 13.57
12/27/2020 6:45:00 PM 1.79 35.222 0.053 6.33 13.24 13.58
12/27/2020 7:00:00 PM 1.75 35.15 0.051 6.32 12.73 13.6
12/27/2020 7:15:00 PM 1.72 35.096 0.05 6.32 12.6 13.61
12/27/2020 7:30:00 PM 1.69 35.042 0.048 6.34 13.15 13.62
12/27/2020 7:45:00 PM 1.65 34.97 0.046 6.31 13.03 13.64
12/27/2020 8:00:00 PM 1.62 34.916 0.041 6.34 12.87 13.65
12/27/2020 8:15:00 PM 1.6 34.88 0.045 6.32 12.91 13.66
12/27/2020 8:30:00 PM 1.57 34.826 0.12 6.35 12.77 13.67
12/27/2020 8:45:00 PM 1.54 34.772 0.12 6.37 12.45 13.68
12/27/2020 9:00:00 PM 1.53 34.754 0.12 6.37 12.48 13.69
12/27/2020 9:15:00 PM 1.51 34.718 0.12 6.36 11.74 13.69
12/27/2020 9:30:00 PM 1.49 34.682 0.12 6.37 11.77 13.7
12/27/2020 9:45:00 PM 1.49 34.682 0.121 6.37 12.26 13.7
12/27/2020 10:00:00 PM 1.47 34.646 0.12 6.35 11.95 13.71
12/27/2020 10:15:00 PM 1.47 34.646 0.121 6.37 11.14 13.71
12/27/2020 10:30:00 PM 1.45 34.61 0.121 6.37 11.37 13.72
12/27/2020 10:45:00 PM 1.44 34.592 0.121 6.38 11.74 13.72
12/27/2020 11:00:00 PM 1.42 34.556 0.121 6.37 11.88 13.73
12/27/2020 11:15:00 PM 1.41 34.538 0.121 6.36 11.5 13.73
12/27/2020 11:30:00 PM 1.4 34.52 0.121 6.36 11.52 13.73
12/27/2020 11:45:00 PM 1.4 34.52 0.121 6.38 11.64 13.74
12/28/2020 12:00:00 AM 1.39 34.502 0.121 6.38 11.36 13.74
12/28/2020 12:15:00 AM 1.39 34.502 0.121 6.38 11.43 13.74
12/28/2020 12:30:00 AM 1.38 34.484 0.121 6.37 11.26 13.74
12/28/2020 12:45:00 AM 1.38 34.484 0.121 6.39 11.91 13.74
12/28/2020 1:00:00 AM 1.38 34.484 0.121 6.37 11.76 13.73
12/28/2020 1:15:00 AM 1.37 34.466 0.121 6.41 11.25 13.73
12/28/2020 1:30:00 AM 1.37 34.466 0.122 6.4 11.18 13.73
12/28/2020 1:45:00 AM 1.36 34.448 0.122 6.39 11.68 13.73
12/28/2020 2:00:00 AM 1.36 34.448 0.122 6.38 11.24 13.73
12/28/2020 2:15:00 AM 1.35 34.43 0.122 6.39 11.18 13.73
12/28/2020 2:30:00 AM 1.34 34.412 0.122 6.39 10.69 13.73
12/28/2020 2:45:00 AM 1.33 34.394 0.122 6.4 10.71 13.73
12/28/2020 3:00:00 AM 1.33 34.394 0.122 6.39 11.47 13.73
12/28/2020 3:15:00 AM 1.31 34.358 0.122 6.4 11.35 13.73
12/28/2020 3:30:00 AM 1.3 34.34 0.122 6.39 11.82 13.73
12/28/2020 3:45:00 AM 1.29 34.322 0.122 6.39 11.18 13.73
12/28/2020 4:00:00 AM 1.29 34.322 0.122 6.4 10.91 13.74
12/28/2020 4:15:00 AM 1.29 34.322 0.122 6.39 11.34 13.74
12/28/2020 4:30:00 AM 1.29 34.322 0.122 6.4 11.18 13.74
12/28/2020 4:45:00 AM 1.29 34.322 0.122 6.41 11.57 13.73
12/28/2020 5:00:00 AM 1.3 34.34 0.122 6.41 11.27 13.73
12/28/2020 5:15:00 AM 1.31 34.358 0.123 6.41 11.74 13.72
12/28/2020 5:30:00 AM 1.32 34.376 0.123 6.4 11.54 13.72
12/28/2020 5:45:00 AM 1.34 34.412 0.123 6.41 10.94 13.72
12/28/2020 6:00:00 AM 1.35 34.43 0.123 6.4 12.15 13.71
12/28/2020 6:15:00 AM 1.37 34.466 0.123 6.41 11.2 13.71
12/28/2020 6:30:00 AM 1.32 34.376 0.123 6.38 11.83 13.7
12/28/2020 6:45:00 AM 1.26 34.268 0.123 6.38 11.71 13.71
12/28/2020 7:00:00 AM 1.25 34.25 0.123 6.39 11.77 13.72
12/28/2020 7:15:00 AM 1.25 34.25 0.123 6.4 11.73 13.72
12/28/2020 7:30:00 AM 1.24 34.232 0.123 6.4 10.81 13.73
12/28/2020 7:45:00 AM 1.26 34.268 0.123 6.4 11.25 13.73
12/28/2020 8:00:00 AM 1.29 34.322 0.123 6.41 11.2 13.73
12/28/2020 8:15:00 AM 1.32 34.376 0.123 6.41 11.35 13.73
12/28/2020 8:30:00 AM 1.35 34.43 0.123 6.42 10.61 13.72
12/28/2020 8:45:00 AM 1.39 34.502 0.123 6.43 10.38 13.7
12/28/2020 9:00:00 AM 1.44 34.592 0.124 6.42 10.78 13.69
12/28/2020 9:15:00 AM